Darstellungsparameter: Aktuell verwendete Einstellungen:
Skalierung der Graphiken ... ?
xyx+y,   Skalierungsfaktor:      Skalierung: Modus: x, Faktor: 1
Darstellungszeitraum ... ?
Vom - - bis: - -   Zeitraum: 04.02.2020 - 03.03.2020
Min/Max/Avg-Anzeige ... ?
Zeige MMA aktuell
Zeige MMA Monat
Zeige MMA alles
Zeige --A aktuell
Zeige --A Monat
Zeige --A alles
Keine MMA-Anzeige
MMA:
Average (ber die Originaldaten)
MMA-Basis: 04.02.2020 - 03.03.2020
Quicknavigation für Darstellung... ?
Tage:      1T, 2T, 3T, 5T -1T -2T -3T -5T +1T +2T +3T +5T
Wochen: 1W, 2W, 3W -1W -2W -3W +1W +2W +3W
Monate: 1M, 3M, 6M -1M -3M -6M +1M +3M +6M
Jahre:    1J, 3J, 5J, 10J -1J -3J -5J -10J +1J +3J +5J +10J
Nutze für die Darstellung ... ?
Originaldaten oder Mittelwerte auf ...
Stundenbasis Tagesbasis Wochenbasis
Monatsbasis Jahresbasis      Datenbasis: Original-Daten
Darstellen als:
Statistik (Auto) Statistik J:M      Darstellung:
Zur Graphik,    zurück zur Übersicht aller Sensoren.
 
Tabellarische Datenbersicht: ?
 
Sensor: Nr:Datum:Temp:Feuchte:
Aussen-T/F 1 04-02-2020 00:06:17 5.9 C 42 %
2 04-02-2020 00:16:18 5.7 C 43 %
3 04-02-2020 00:26:18 5.5 C 44 %
4 04-02-2020 00:36:18 5.4 C 43 %
5 04-02-2020 00:46:18 5.2 C 42 %
6 04-02-2020 00:56:18 5.1 C 41 %
7 04-02-2020 01:06:17 5.1 C 41 %
8 04-02-2020 01:16:17 5.1 C 42 %
9 04-02-2020 01:26:17 5.1 C 42 %
10 04-02-2020 01:36:17 4.9 C 40 %
11 04-02-2020 01:46:17 4.8 C 40 %
12 04-02-2020 01:56:17 4.6 C 41 %
13 04-02-2020 02:06:18 4.2 C 39 %
14 04-02-2020 02:16:17 4 C 39 %
15 04-02-2020 02:26:17 3.9 C 41 %
16 04-02-2020 02:36:17 3.9 C 41 %
17 04-02-2020 02:46:17 3.9 C 41 %
18 04-02-2020 02:56:17 3.9 C 41 %
19 04-02-2020 03:06:18 4 C 39 %
20 04-02-2020 03:16:17 3.9 C 41 %
21 04-02-2020 03:26:17 4.1 C 40 %
22 04-02-2020 03:36:17 3.7 C 41 %
23 04-02-2020 03:46:17 3.9 C 40 %
24 04-02-2020 03:56:17 4.1 C 37 %
25 04-02-2020 04:06:17 3.8 C 39 %
Sensor: Nr:Datum:Temp:Feuchte:
Aussen-T/F 26 04-02-2020 04:16:17 3.7 C 39 %
27 04-02-2020 04:26:17 4 C 38 %
28 04-02-2020 04:36:18 4.2 C 38 %
29 04-02-2020 04:46:18 4.1 C 37 %
30 04-02-2020 04:56:18 3.7 C 39 %
31 04-02-2020 05:06:17 3.6 C 39 %
32 04-02-2020 05:16:18 3.2 C 41 %
33 04-02-2020 05:26:18 3.4 C 42 %
34 04-02-2020 05:36:18 3.6 C 41 %
35 04-02-2020 05:46:17 3.8 C 38 %
36 04-02-2020 05:56:17 3.9 C 36 %
37 04-02-2020 06:06:17 4.2 C 35 %
38 04-02-2020 06:16:17 4.4 C 33 %
39 04-02-2020 06:26:17 4.6 C 33 %
40 04-02-2020 06:36:17 4.7 C 32 %
41 04-02-2020 06:46:17 4.3 C 34 %
42 04-02-2020 06:56:17 4.4 C 34 %
43 04-02-2020 07:06:18 4.7 C 33 %
44 04-02-2020 07:16:17 4.6 C 32 %
45 04-02-2020 07:26:17 4.3 C 33 %
46 04-02-2020 07:36:17 4 C 34 %
47 04-02-2020 07:46:17 3.9 C 35 %
48 04-02-2020 07:56:17 3.8 C 35 %
49 04-02-2020 08:06:17 3.6 C 35 %
50 04-02-2020 08:16:17 3.8 C 35 %
Sensor: Nr:Datum:Temp:Feuchte:
Aussen-T/F 51 04-02-2020 08:26:17 3.6 C 35 %
52 04-02-2020 08:36:18 3.6 C 35 %
53 04-02-2020 08:46:18 3.8 C 35 %
54 04-02-2020 08:56:18 3.9 C 35 %
55 04-02-2020 09:06:18 4 C 34 %
56 04-02-2020 09:16:17 3.7 C 36 %
57 04-02-2020 09:26:17 4 C 35 %
58 04-02-2020 09:36:17 4 C 34 %
59 04-02-2020 09:46:17 3.6 C 36 %
60 04-02-2020 09:56:17 3.4 C 37 %
61 04-02-2020 10:06:18 3 C 40 %
62 04-02-2020 10:16:17 3.3 C 42 %
63 04-02-2020 10:26:17 3.9 C 37 %
64 04-02-2020 10:36:17 4.1 C 35 %
65 04-02-2020 10:46:17 4.4 C 36 %
66 04-02-2020 10:56:17 4.9 C 34 %
67 04-02-2020 11:06:17 4.9 C 34 %
68 04-02-2020 11:16:18 5.3 C 32 %
69 04-02-2020 11:26:18 3.9 C 36 %
70 04-02-2020 11:36:18 4.1 C 35 %
71 04-02-2020 11:46:18 4.9 C 35 %
72 04-02-2020 11:56:18 4.6 C 35 %
73 04-02-2020 12:06:17 4.2 C 36 %
74 04-02-2020 12:16:17 3.8 C 38 %
75 04-02-2020 12:26:17 3.4 C 40 %
Sensor: Nr:Datum:Temp:Feuchte:
Aussen-T/F 76 04-02-2020 12:36:18 3.9 C 38 %
77 04-02-2020 12:46:17 3.8 C 38 %
78 04-02-2020 12:56:18 4.1 C 36 %
79 04-02-2020 13:06:18 4.7 C 34 %
80 04-02-2020 13:16:17 4.8 C 33 %
81 04-02-2020 13:26:17 5.2 C 31 %
82 04-02-2020 13:36:17 5.3 C 31 %
83 04-02-2020 13:46:17 5.6 C 30 %
84 04-02-2020 13:56:17 5.7 C 30 %
85 04-02-2020 14:06:18 5.9 C 30 %
86 04-02-2020 14:16:17 6.1 C 27 %
87 04-02-2020 14:26:17 6.4 C 27 %
88 04-02-2020 14:36:17 6 C 27 %
89 04-02-2020 14:46:18 6.5 C 26 %
90 04-02-2020 14:56:18 6.5 C 27 %
91 04-02-2020 15:06:17 5.9 C 27 %
92 04-02-2020 15:16:17 5.1 C 29 %
93 04-02-2020 15:26:17 4.8 C 30 %
94 04-02-2020 15:36:18 4.4 C 32 %
95 04-02-2020 15:46:18 4.4 C 33 %
96 04-02-2020 15:56:18 4.5 C 33 %
97 04-02-2020 16:06:17 4.5 C 33 %
98 04-02-2020 16:16:17 4.5 C 33 %
99 04-02-2020 16:26:17 4.8 C 33 %
100 04-02-2020 16:36:17 4.8 C 33 %
Sensor: Nr:Datum:Temp:Feuchte:
Aussen-T/F 101 04-02-2020 16:46:17 4.9 C 33 %
102 04-02-2020 16:56:18 4.4 C 33 %
103 04-02-2020 17:06:17 4.3 C 34 %
104 04-02-2020 17:16:17 4 C 35 %
105 04-02-2020 17:26:17 4 C 36 %
106 04-02-2020 17:36:17 4 C 36 %
107 04-02-2020 17:46:17 4.2 C 35 %
108 04-02-2020 17:56:17 4 C 35 %
109 04-02-2020 18:06:18 3.8 C 37 %
110 04-02-2020 18:16:17 3.9 C 37 %
111 04-02-2020 18:26:17 4.1 C 35 %
112 04-02-2020 18:36:17 4.1 C 35 %
113 04-02-2020 18:46:17 4.3 C 35 %
114 04-02-2020 18:56:17 4.3 C 35 %
115 04-02-2020 19:06:18 4.4 C 35 %
116 04-02-2020 19:16:18 4.3 C 35 %
117 04-02-2020 19:26:18 4 C 37 %
118 04-02-2020 19:36:17 3.9 C 39 %
119 04-02-2020 19:46:18 3.8 C 40 %
120 04-02-2020 19:56:18 3.9 C 38 %
121 04-02-2020 20:06:17 4 C 37 %
122 04-02-2020 20:16:17 3.9 C 39 %
123 04-02-2020 20:26:17 3.8 C 39 %
124 04-02-2020 20:36:17 3.8 C 39 %
125 04-02-2020 20:46:17 3.9 C 39 %
Sensor: Nr:Datum:Temp:Feuchte:
Aussen-T/F 126 04-02-2020 20:56:17 3.9 C 39 %
127 04-02-2020 21:06:18 4 C 38 %
128 04-02-2020 21:16:18 4 C 38 %
129 04-02-2020 21:26:18 4 C 38 %
130 04-02-2020 21:36:17 3.8 C 39 %
131 04-02-2020 21:46:17 3.8 C 40 %
132 04-02-2020 21:56:17 3.8 C 40 %
133 04-02-2020 22:06:17 3.8 C 40 %
134 04-02-2020 22:16:17 4 C 40 %
135 04-02-2020 22:26:17 4 C 39 %
136 04-02-2020 22:36:18 3.8 C 39 %
137 04-02-2020 22:46:18 3.5 C 40 %
138 04-02-2020 22:56:18 3.6 C 40 %
139 04-02-2020 23:06:17 3.7 C 40 %
140 04-02-2020 23:16:17 3.7 C 40 %
141 04-02-2020 23:26:17 4.1 C 37 %
142 04-02-2020 23:36:18 4.1 C 36 %
143 04-02-2020 23:46:17 4.1 C 36 %
144 04-02-2020 23:56:17 4.1 C 37 %
145 05-02-2020 00:06:17 4.2 C 36 %
146 05-02-2020 00:16:17 4 C 37 %
147 05-02-2020 00:26:17 4 C 37 %
148 05-02-2020 00:36:18 4.2 C 36 %
149 05-02-2020 00:46:17 4.2 C 36 %
150 05-02-2020 00:56:18 4.3 C 35 %
Sensor: Nr:Datum:Temp:Feuchte:
Aussen-T/F 151 05-02-2020 01:06:18 4.4 C 35 %
152 05-02-2020 01:16:18 4.5 C 34 %
153 05-02-2020 01:26:18 4.6 C 33 %
154 05-02-2020 01:36:17 4.7 C 34 %
155 05-02-2020 01:46:18 4.7 C 33 %
156 05-02-2020 01:56:18 4.8 C 33 %
157 05-02-2020 02:06:17 4.8 C 33 %
158 05-02-2020 02:16:17 4.8 C 34 %
159 05-02-2020 02:26:17 4.7 C 34 %
160 05-02-2020 02:36:17 4.7 C 34 %
161 05-02-2020 02:46:17 4.6 C 35 %
162 05-02-2020 02:56:17 4.6 C 35 %
163 05-02-2020 03:06:18 4.7 C 35 %
164 05-02-2020 03:16:17 4.6 C 36 %
165 05-02-2020 03:26:17 4.6 C 36 %
166 05-02-2020 03:36:18 4.5 C 36 %
167 05-02-2020 03:46:17 4.1 C 37 %
168 05-02-2020 03:56:18 3.6 C 38 %
169 05-02-2020 04:06:18 3.5 C 40 %
170 05-02-2020 04:16:18 3.8 C 40 %
171 05-02-2020 04:26:18 3.6 C 39 %
172 05-02-2020 04:36:17 3.6 C 38 %
173 05-02-2020 04:46:17 3.5 C 39 %
174 05-02-2020 04:56:17 3.3 C 38 %
175 05-02-2020 05:06:18 3.4 C 39 %
Sensor: Nr:Datum:Temp:Feuchte:
Aussen-T/F 176 05-02-2020 05:16:18 2.6 C 40 %
177 05-02-2020 05:26:18 3.1 C 41 %
178 05-02-2020 05:36:18 2.6 C 41 %
179 05-02-2020 05:46:18 2.8 C 41 %
180 05-02-2020 05:56:18 3 C 41 %
181 05-02-2020 06:06:17 3.3 C 42 %
182 05-02-2020 06:16:17 4 C 38 %
183 05-02-2020 06:26:17 3.8 C 38 %
184 05-02-2020 06:36:18 3.7 C 38 %
185 05-02-2020 06:46:17 3.7 C 38 %
186 05-02-2020 06:56:18 3.1 C 38 %
187 05-02-2020 07:06:18 3.1 C 38 %
188 05-02-2020 07:16:17 2.8 C 39 %
189 05-02-2020 07:26:17 2.5 C 39 %
190 05-02-2020 07:36:17 2.5 C 40 %
191 05-02-2020 07:46:17 2.6 C 40 %
192 05-02-2020 07:56:17 2.6 C 40 %
193 05-02-2020 08:06:18 2.3 C 40 %
194 05-02-2020 08:16:17 2 C 41 %
195 05-02-2020 08:26:17 1.7 C 43 %
196 05-02-2020 08:36:17 1.6 C 43 %
197 05-02-2020 08:46:17 1.6 C 43 %
198 05-02-2020 08:56:17 1.5 C 44 %
199 05-02-2020 09:06:17 1.4 C 45 %
200 05-02-2020 09:16:17 2 C 44 %
Sensor: Nr:Datum:Temp:Feuchte:
Aussen-T/F 201 05-02-2020 09:26:17 2 C 42 %
202 05-02-2020 09:36:18 2 C 42 %
203 05-02-2020 09:46:18 2.7 C 42 %
204 05-02-2020 09:56:18 3.6 C 39 %
205 05-02-2020 10:06:17 4 C 40 %
206 05-02-2020 10:16:17 4.3 C 37 %
207 05-02-2020 10:26:17 4.4 C 32 %
208 05-02-2020 10:36:17 4.7 C 31 %
209 05-02-2020 10:46:17 5 C 31 %
210 05-02-2020 10:56:17 5.1 C 30 %
211 05-02-2020 11:06:17 4.9 C 31 %
212 05-02-2020 11:16:17 5 C 30 %
213 05-02-2020 11:26:17 5.2 C 30 %
214 05-02-2020 11:36:17 5.1 C 30 %
215 05-02-2020 11:46:17 5.2 C 30 %
216 05-02-2020 11:56:17 5.3 C 30 %
217 05-02-2020 12:06:17 5.7 C 30 %
218 05-02-2020 12:16:17 5.9 C 29 %
219 05-02-2020 12:26:17 5.8 C 29 %
220 05-02-2020 12:36:18 5.6 C 28 %
221 05-02-2020 12:46:17 5.5 C 29 %
222 05-02-2020 12:56:17 5.9 C 28 %
223 05-02-2020 13:06:17 5.4 C 28 %
224 05-02-2020 13:16:17 5.3 C 28 %
225 05-02-2020 13:26:17 5.8 C 28 %
Sensor: Nr:Datum:Temp:Feuchte:
Aussen-T/F 226 05-02-2020 13:36:18 5.8 C 27 %
227 05-02-2020 13:46:18 5.9 C 27 %
228 05-02-2020 13:56:18 5.9 C 27 %
229 05-02-2020 14:06:17 5.8 C 27 %
230 05-02-2020 14:16:18 5.6 C 27 %
231 05-02-2020 14:26:18 5.7 C 27 %
232 05-02-2020 14:36:17 6 C 28 %
233 05-02-2020 14:46:17 7.7 C 26 %
234 05-02-2020 14:56:17 7.1 C 25 %
235 05-02-2020 15:06:17 6.9 C 25 %
236 05-02-2020 15:16:17 7.3 C 25 %
237 05-02-2020 15:26:17 5.7 C 27 %
238 05-02-2020 15:36:17 6.9 C 25 %
239 05-02-2020 15:46:17 6.4 C 27 %
240 05-02-2020 15:56:17 5 C 29 %
241 05-02-2020 16:06:17 5.8 C 28 %
242 05-02-2020 16:16:17 6.2 C 27 %
243 05-02-2020 16:26:17 6.8 C 26 %
244 05-02-2020 16:36:18 4.8 C 30 %
245 05-02-2020 16:46:18 3.8 C 33 %
246 05-02-2020 16:56:18 3.7 C 35 %
247 05-02-2020 17:06:17 3.4 C 35 %
248 05-02-2020 17:16:17 3.4 C 35 %
249 05-02-2020 17:26:17 3.2 C 35 %
250 05-02-2020 17:36:18 3.1 C 35 %
Sensor: Nr:Datum:Temp:Feuchte:
Aussen-T/F 251 05-02-2020 17:46:18 2.6 C 36 %
252 05-02-2020 17:56:18 2.4 C 36 %
253 05-02-2020 18:06:17 2.3 C 37 %
254 05-02-2020 18:16:17 2.1 C 37 %
255 05-02-2020 18:26:17 1.8 C 39 %
256 05-02-2020 18:36:17 1.3 C 40 %
257 05-02-2020 18:46:17 0.5 C 42 %
258 05-02-2020 18:56:17 0.8 C 46 %
259 05-02-2020 19:06:18 0.1 C 45 %
260 05-02-2020 19:16:18 -0.1 C 45 %
261 05-02-2020 19:26:18 -0.1 C 46 %
262 05-02-2020 19:36:18 -0.4 C 46 %
263 05-02-2020 19:46:17 -0.5 C 46 %
264 05-02-2020 19:56:18 -0.7 C 46 %
265 05-02-2020 20:06:18 -0.7 C 46 %
266 05-02-2020 20:16:17 -0.7 C 46 %
267 05-02-2020 20:26:17 -0.9 C 46 %
268 05-02-2020 20:36:17 -0.5 C 46 %
269 05-02-2020 20:46:17 -0.7 C 46 %
270 05-02-2020 20:56:17 -0.8 C 46 %
271 05-02-2020 21:06:17 -1 C 46 %
272 05-02-2020 21:16:17 -0.7 C 47 %
273 05-02-2020 21:26:17 -1 C 46 %
274 05-02-2020 21:36:18 -1.3 C 46 %
275 05-02-2020 21:46:18 -1.4 C 46 %
Sensor: Nr:Datum:Temp:Feuchte:
Aussen-T/F 276 05-02-2020 21:56:18 -1.3 C 46 %
277 05-02-2020 22:06:18 -1.5 C 46 %
278 05-02-2020 22:16:17 -1.4 C 47 %
279 05-02-2020 22:26:17 -1.4 C 46 %
280 05-02-2020 22:36:17 -1.5 C 47 %
281 05-02-2020 22:46:17 -1.4 C 47 %
282 05-02-2020 22:56:17 -1.5 C 46 %
283 05-02-2020 23:06:17 -1.2 C 47 %
284 05-02-2020 23:16:17 -1.1 C 47 %
285 05-02-2020 23:26:17 -1.2 C 46 %
286 05-02-2020 23:36:17 -1.4 C 46 %
287 05-02-2020 23:46:17 -1.4 C 46 %
288 05-02-2020 23:56:17 -1.6 C 46 %
289 06-02-2020 00:06:17 -1.6 C 46 %
290 06-02-2020 00:16:17 -1.6 C 46 %
291 06-02-2020 00:26:17 -1.4 C 47 %
292 06-02-2020 00:36:17 -1.8 C 46 %
293 06-02-2020 00:46:17 -1.3 C 47 %
294 06-02-2020 00:56:17 -1.5 C 46 %
295 06-02-2020 01:06:17 -1.4 C 46 %
296 06-02-2020 01:16:17 -1.1 C 47 %
297 06-02-2020 01:26:17 -0.9 C 47 %
298 06-02-2020 01:36:18 -1.2 C 46 %
299 06-02-2020 01:46:18 -1.2 C 46 %
300 06-02-2020 01:56:18 -1.1 C 46 %
Sensor: Nr:Datum:Temp:Feuchte:
Aussen-T/F 301 06-02-2020 02:06:18 -1.1 C 46 %
302 06-02-2020 02:16:17 -1.1 C 46 %
303 06-02-2020 02:26:17 -1.3 C 46 %
304 06-02-2020 02:36:17 -1.3 C 46 %
305 06-02-2020 02:46:17 -1.4 C 46 %
306 06-02-2020 02:56:17 -1.6 C 46 %
307 06-02-2020 03:06:17 -1.5 C 46 %
308 06-02-2020 03:16:18 -1.6 C 46 %
309 06-02-2020 03:26:18 -1.8 C 46 %
310 06-02-2020 03:36:17 -1.9 C 46 %
311 06-02-2020 03:46:17 -1.8 C 46 %
312 06-02-2020 03:56:17 -2.2 C 46 %
313 06-02-2020 04:06:17 -1.8 C 46 %
314 06-02-2020 04:16:17 -2 C 46 %
315 06-02-2020 04:26:17 -1.7 C 46 %
316 06-02-2020 04:36:18 -1.6 C 46 %
317 06-02-2020 04:46:18 -1.7 C 46 %
318 06-02-2020 04:56:18 -1.6 C 46 %
319 06-02-2020 05:06:17 -1.7 C 46 %
320 06-02-2020 05:16:18 -1.6 C 46 %
321 06-02-2020 05:26:18 -1.6 C 46 %
322 06-02-2020 05:36:18 -2.2 C 46 %
323 06-02-2020 05:46:18 -2.4 C 46 %
324 06-02-2020 05:56:18 -2.3 C 46 %
325 06-02-2020 06:06:18 -2.2 C 46 %
Sensor: Nr:Datum:Temp:Feuchte:
Aussen-T/F 326 06-02-2020 06:16:18 -2.1 C 46 %
327 06-02-2020 06:26:18 -2.3 C 46 %
328 06-02-2020 06:36:17 -2.5 C 46 %
329 06-02-2020 06:46:17 -2.1 C 46 %
330 06-02-2020 06:56:17 -2.5 C 46 %
331 06-02-2020 07:06:17 -2.6 C 46 %
332 06-02-2020 07:16:17 -2.6 C 46 %
333 06-02-2020 07:26:17 -2.6 C 46 %
334 06-02-2020 07:36:17 -2.8 C 45 %
335 06-02-2020 07:46:17 -2.5 C 45 %
336 06-02-2020 07:56:17 -2.1 C 46 %
337 06-02-2020 08:06:17 -1.9 C 46 %
338 06-02-2020 08:16:17 -2 C 46 %
339 06-02-2020 08:26:17 -1.8 C 46 %
340 06-02-2020 08:36:18 -1.9 C 46 %
341 06-02-2020 08:46:17 -1.5 C 47 %
342 06-02-2020 08:56:18 -1.3 C 47 %
343 06-02-2020 09:06:17 -1.3 C 47 %
344 06-02-2020 09:16:17 -1.3 C 47 %
345 06-02-2020 09:26:17 -1 C 47 %
346 06-02-2020 09:36:17 -0.8 C 47 %
347 06-02-2020 09:46:17 -0.9 C 47 %
348 06-02-2020 09:56:17 -0.9 C 46 %
349 06-02-2020 10:06:17 -0.7 C 46 %
350 06-02-2020 10:16:18 -0.5 C 47 %
Sensor: Nr:Datum:Temp:Feuchte:
Aussen-T/F 351 06-02-2020 10:26:18 -0.4 C 46 %
352 06-02-2020 10:36:18 -0.3 C 46 %
353 06-02-2020 10:46:18 -0.3 C 45 %
354 06-02-2020 10:56:18 -0.3 C 45 %
355 06-02-2020 11:06:17 -0.3 C 45 %
356 06-02-2020 11:16:17 0 C 45 %
357 06-02-2020 11:26:17 0.3 C 45 %
358 06-02-2020 11:36:17 0.7 C 45 %
359 06-02-2020 11:46:17 1.2 C 44 %
360 06-02-2020 11:56:18 1.4 C 43 %
361 06-02-2020 12:06:18 2.1 C 40 %
362 06-02-2020 12:16:17 2.9 C 40 %
363 06-02-2020 12:26:17 3.2 C 39 %
364 06-02-2020 12:36:17 3.5 C 37 %
365 06-02-2020 12:46:17 3.2 C 37 %
366 06-02-2020 12:56:17 3.4 C 37 %
367 06-02-2020 13:06:17 3.9 C 37 %
368 06-02-2020 13:16:17 3.9 C 37 %
369 06-02-2020 13:26:17 4 C 37 %
370 06-02-2020 13:36:17 3.7 C 36 %
371 06-02-2020 13:46:17 4.5 C 36 %
372 06-02-2020 13:56:17 4.9 C 36 %
373 06-02-2020 14:06:17 5.1 C 36 %
374 06-02-2020 14:16:18 5.4 C 35 %
375 06-02-2020 14:26:18 4.9 C 35 %
Sensor: Nr:Datum:Temp:Feuchte:
Aussen-T/F 376 06-02-2020 14:36:17 5.1 C 35 %
377 06-02-2020 14:46:17 5.1 C 33 %
378 06-02-2020 14:56:17 5.6 C 34 %
379 06-02-2020 15:06:17 5.6 C 32 %
380 06-02-2020 15:16:18 5.2 C 31 %
381 06-02-2020 15:26:18 5.2 C 31 %
382 06-02-2020 15:36:17 5.4 C 31 %
383 06-02-2020 15:46:17 5.6 C 31 %
384 06-02-2020 15:56:17 5.5 C 30 %
385 06-02-2020 16:06:17 5.6 C 29 %
386 06-02-2020 16:16:17 5.4 C 28 %
387 06-02-2020 16:26:17 7.4 C 23 %
388 06-02-2020 16:36:17 6.7 C 25 %
389 06-02-2020 16:46:17 4.8 C 30 %
390 06-02-2020 16:56:17 3.9 C 33 %
391 06-02-2020 17:06:18 3.3 C 35 %
392 06-02-2020 17:16:18 3 C 35 %
393 06-02-2020 17:26:18 2.7 C 36 %
394 06-02-2020 17:36:17 2.2 C 36 %
395 06-02-2020 17:46:17 2 C 37 %
396 06-02-2020 17:56:18 1.7 C 38 %
397 06-02-2020 18:06:18 1.6 C 38 %
398 06-02-2020 18:16:17 1.3 C 38 %
399 06-02-2020 18:26:17 1.2 C 40 %
400 06-02-2020 18:36:18 1 C 40 %
Sensor: Nr:Datum:Temp:Feuchte:
Aussen-T/F 401 06-02-2020 18:46:17 1.2 C 40 %
402 06-02-2020 18:56:17 0.4 C 42 %
403 06-02-2020 19:06:17 0.1 C 45 %
404 06-02-2020 19:16:17 0.2 C 45 %
405 06-02-2020 19:26:17 -0.5 C 45 %
406 06-02-2020 19:36:17 -0.6 C 46 %
407 06-02-2020 19:46:17 -0.9 C 46 %
408 06-02-2020 19:56:18 -1 C 46 %
409 06-02-2020 20:06:18 -1.3 C 46 %
410 06-02-2020 20:16:17 -1.4 C 47 %
411 06-02-2020 20:26:17 -1.6 C 46 %
412 06-02-2020 20:36:18 -1.6 C 46 %
413 06-02-2020 20:46:17 -1.7 C 46 %
414 06-02-2020 20:56:17 -1.8 C 46 %
415 06-02-2020 21:06:17 -1.9 C 46 %
416 06-02-2020 21:16:17 -2 C 46 %
417 06-02-2020 21:26:17 -2.1 C 46 %
418 06-02-2020 21:36:17 -2 C 47 %
419 06-02-2020 21:46:17 -2.3 C 46 %
420 06-02-2020 21:56:17 -2.3 C 46 %
421 06-02-2020 22:06:17 -2.1 C 46 %
422 06-02-2020 22:16:17 -2.2 C 46 %
423 06-02-2020 22:26:17 -2.3 C 46 %
424 06-02-2020 22:36:18 -2.5 C 46 %
425 06-02-2020 22:46:17 -2.5 C 46 %
Sensor: Nr:Datum:Temp:Feuchte:
Aussen-T/F 426 06-02-2020 22:56:17 -2.6 C 46 %
427 06-02-2020 23:06:17 -2.6 C 46 %
428 06-02-2020 23:16:17 -2.7 C 46 %
429 06-02-2020 23:26:17 -2.4 C 46 %
430 06-02-2020 23:36:17 -2.5 C 46 %
431 06-02-2020 23:46:18 -2.5 C 46 %
432 06-02-2020 23:56:18 -2.6 C 46 %
433 07-02-2020 00:06:18 -2.9 C 46 %
434 07-02-2020 00:16:17 -3 C 46 %
435 07-02-2020 00:26:17 -2.6 C 46 %
436 07-02-2020 00:36:17 -2.9 C 46 %
437 07-02-2020 00:46:17 -3 C 46 %
438 07-02-2020 00:56:17 -3 C 46 %
439 07-02-2020 01:06:17 -2.9 C 46 %
440 07-02-2020 01:16:17 -3.1 C 45 %
441 07-02-2020 01:26:17 -3.3 C 45 %
442 07-02-2020 01:36:18 -3.2 C 45 %
443 07-02-2020 01:46:17 -3 C 45 %
444 07-02-2020 01:56:17 -3 C 45 %
445 07-02-2020 02:06:18 -3 C 45 %
446 07-02-2020 02:16:18 -2.9 C 45 %
447 07-02-2020 02:26:18 -2.5 C 46 %
448 07-02-2020 02:36:18 -2.2 C 46 %
449 07-02-2020 02:46:18 -2.2 C 46 %
450 07-02-2020 02:56:18 -2.1 C 46 %
Sensor: Nr:Datum:Temp:Feuchte:
Aussen-T/F 451 07-02-2020 03:06:17 -2.1 C 46 %
452 07-02-2020 03:16:17 -2 C 46 %
453 07-02-2020 03:26:17 -2 C 46 %
454 07-02-2020 03:36:17 -2.1 C 46 %
455 07-02-2020 03:46:17 -2.1 C 46 %
456 07-02-2020 03:56:17 -1.9 C 46 %
457 07-02-2020 04:06:17 -2 C 46 %
458 07-02-2020 04:16:18 -2.1 C 46 %
459 07-02-2020 04:26:18 -2.2 C 46 %
460 07-02-2020 04:36:18 -2.2 C 46 %
461 07-02-2020 04:46:18 -2.1 C 46 %
462 07-02-2020 04:56:18 -2.1 C 46 %
463 07-02-2020 05:06:17 -2 C 46 %
464 07-02-2020 05:16:17 -2.1 C 46 %
465 07-02-2020 05:26:17 -2.2 C 46 %
466 07-02-2020 05:36:17 -2.3 C 46 %
467 07-02-2020 05:46:18 -2.3 C 46 %
468 07-02-2020 05:56:18 -2.4 C 46 %
469 07-02-2020 06:06:18 -2.4 C 46 %
470 07-02-2020 06:16:17 -2.3 C 46 %
471 07-02-2020 06:26:17 -2.5 C 46 %
472 07-02-2020 06:36:18 -2.5 C 46 %
473 07-02-2020 06:46:17 -2.4 C 46 %
474 07-02-2020 06:56:17 -2.5 C 46 %
475 07-02-2020 07:06:17 -2.6 C 46 %
Sensor: Nr:Datum:Temp:Feuchte:
Aussen-T/F 476 07-02-2020 07:16:17 -2.7 C 46 %
477 07-02-2020 07:26:18 -2.5 C 46 %
478 07-02-2020 07:36:18 -2.4 C 46 %
479 07-02-2020 07:46:17 -2.5 C 46 %
480 07-02-2020 07:56:18 -2.5 C 46 %
481 07-02-2020 08:06:18 -2.5 C 46 %
482 07-02-2020 08:16:18 -2.6 C 46 %
483 07-02-2020 08:26:18 -2.8 C 46 %
484 07-02-2020 08:36:17 -2.7 C 46 %
485 07-02-2020 08:46:17 -2.6 C 46 %
486 07-02-2020 08:56:17 -2.4 C 46 %
487 07-02-2020 09:06:17 -2.3 C 46 %
488 07-02-2020 09:16:17 -2.5 C 46 %
489 07-02-2020 09:26:17 -2.4 C 46 %
490 07-02-2020 09:36:17 -2.3 C 46 %
491 07-02-2020 09:46:17 -2.4 C 45 %
492 07-02-2020 09:56:17 -2.4 C 46 %
493 07-02-2020 10:06:18 -2.2 C 46 %
494 07-02-2020 10:16:17 -2 C 46 %
495 07-02-2020 10:26:17 -1.6 C 47 %
496 07-02-2020 10:36:17 -1.2 C 46 %
497 07-02-2020 10:46:17 -1.8 C 45 %
498 07-02-2020 10:56:17 -1.4 C 46 %
499 07-02-2020 11:06:17 -1.6 C 46 %
500 07-02-2020 11:16:18 -1.5 C 46 %
Sensor: Nr:Datum:Temp:Feuchte:
Aussen-T/F 501 07-02-2020 11:26:18 -1 C 47 %
502 07-02-2020 11:36:17 -0.8 C 46 %
503 07-02-2020 11:46:17 -0.6 C 47 %
504 07-02-2020 11:56:17 -0.4 C 47 %
505 07-02-2020 12:06:17 -0.1 C 47 %
506 07-02-2020 12:16:18 0.4 C 47 %
507 07-02-2020 12:26:18 0.4 C 46 %
508 07-02-2020 12:36:18 0.7 C 46 %
509 07-02-2020 12:46:18 0.6 C 46 %
510 07-02-2020 12:56:18 0.8 C 47 %
511 07-02-2020 13:06:18 1.2 C 46 %
512 07-02-2020 13:16:17 2.8 C 43 %
513 07-02-2020 13:26:17 2.7 C 39 %
514 07-02-2020 13:36:17 3 C 38 %
515 07-02-2020 13:46:17 2.7 C 38 %
516 07-02-2020 13:56:17 2.4 C 40 %
517 07-02-2020 14:06:17 2.7 C 39 %
518 07-02-2020 14:16:17 2.6 C 39 %
519 07-02-2020 14:26:17 2.8 C 39 %
520 07-02-2020 14:36:18 3.8 C 36 %
521 07-02-2020 14:46:18 5.1 C 34 %
522 07-02-2020 14:56:18 4.6 C 35 %
523 07-02-2020 15:06:18 5.8 C 33 %
524 07-02-2020 15:16:17 6 C 32 %
525 07-02-2020 15:26:17 4.8 C 32 %
Sensor: Nr:Datum:Temp:Feuchte:
Aussen-T/F 526 07-02-2020 15:36:17 5.4 C 31 %
527 07-02-2020 15:46:17 5.6 C 30 %
528 07-02-2020 15:56:17 4.8 C 32 %
529 07-02-2020 16:06:18 6.2 C 30 %
530 07-02-2020 16:16:17 5.8 C 30 %
531 07-02-2020 16:26:17 5.7 C 30 %
532 07-02-2020 16:36:18 5.1 C 30 %
533 07-02-2020 16:46:17 3.4 C 33 %
534 07-02-2020 16:56:17 3 C 35 %
535 07-02-2020 17:06:18 2.8 C 36 %
536 07-02-2020 17:16:18 2.6 C 36 %
537 07-02-2020 17:26:18 2.6 C 36 %
538 07-02-2020 17:36:18 2 C 37 %
539 07-02-2020 17:46:18 1.8 C 38 %
540 07-02-2020 17:56:18 1.8 C 38 %
541 07-02-2020 18:06:18 1.6 C 38 %
542 07-02-2020 18:16:17 1.5 C 38 %
543 07-02-2020 18:26:17 1.4 C 38 %
544 07-02-2020 18:36:17 1.1 C 39 %
545 07-02-2020 18:46:17 1.2 C 39 %
546 07-02-2020 18:56:18 0.9 C 40 %
547 07-02-2020 19:06:17 1.2 C 40 %
548 07-02-2020 19:16:18 1 C 40 %
549 07-02-2020 19:26:18 0.6 C 40 %
550 07-02-2020 19:36:18 0.6 C 41 %
Sensor: Nr:Datum:Temp:Feuchte:
Aussen-T/F 551 07-02-2020 19:46:17 0.1 C 41 %
552 07-02-2020 19:56:17 0.3 C 42 %
553 07-02-2020 20:06:18 0.2 C 42 %
554 07-02-2020 20:16:18 0.2 C 43 %
555 07-02-2020 20:26:18 0.1 C 43 %
556 07-02-2020 20:36:18 0.1 C 42 %
557 07-02-2020 20:46:18 0 C 42 %
558 07-02-2020 20:56:18 0.1 C 43 %
559 07-02-2020 21:06:18 -0.2 C 42 %
560 07-02-2020 21:16:18 0.3 C 43 %
561 07-02-2020 21:26:18 0.3 C 42 %
562 07-02-2020 21:36:18 0.3 C 43 %
563 07-02-2020 21:46:18 0 C 42 %
564 07-02-2020 21:56:18 0.1 C 43 %
565 07-02-2020 22:06:18 -0.5 C 42 %
566 07-02-2020 22:16:17 -0.4 C 44 %
567 07-02-2020 22:26:17 -0.1 C 45 %
568 07-02-2020 22:36:18 -0.7 C 43 %
569 07-02-2020 22:46:18 -0.3 C 44 %
570 07-02-2020 22:56:18 -0.3 C 43 %
571 07-02-2020 23:06:18 -0.3 C 44 %
572 07-02-2020 23:16:17 -1.3 C 42 %
573 07-02-2020 23:26:17 -0.6 C 46 %
574 07-02-2020 23:36:18 -1 C 45 %
575 07-02-2020 23:46:18 -0.7 C 46 %
Sensor: Nr:Datum:Temp:Feuchte:
Aussen-T/F 576 07-02-2020 23:56:18 -0.7 C 46 %
577 08-02-2020 00:06:18 -1.2 C 44 %
578 08-02-2020 00:16:18 -1 C 45 %
579 08-02-2020 00:26:18 -1.4 C 45 %
580 08-02-2020 00:36:18 -0.9 C 46 %
581 08-02-2020 00:46:17 -1.7 C 44 %
582 08-02-2020 00:56:17 -1.9 C 45 %
583 08-02-2020 01:06:18 -2.2 C 45 %
584 08-02-2020 01:16:17 -2.3 C 46 %
585 08-02-2020 01:26:18 -2.3 C 46 %
586 08-02-2020 01:36:17 -2.5 C 46 %
587 08-02-2020 01:46:17 -2.2 C 46 %
588 08-02-2020 01:56:17 -2.5 C 46 %
589 08-02-2020 02:06:18 -2.3 C 46 %
590 08-02-2020 02:16:17 -2.4 C 46 %
591 08-02-2020 02:26:17 -2.4 C 46 %
592 08-02-2020 02:36:18 -2.5 C 46 %
593 08-02-2020 02:46:18 -2.4 C 47 %
594 08-02-2020 02:56:18 -2.7 C 46 %
595 08-02-2020 03:06:18 -2.5 C 47 %
596 08-02-2020 03:16:18 -2.5 C 46 %
597 08-02-2020 03:26:18 -2.7 C 46 %
598 08-02-2020 03:36:18 -2.8 C 46 %
599 08-02-2020 03:46:18 -2.8 C 46 %
600 08-02-2020 03:56:18 -2.6 C 46 %
Sensor: Nr:Datum:Temp:Feuchte:
Aussen-T/F 601 08-02-2020 04:06:18 -2.7 C 46 %
602 08-02-2020 04:16:18 -3 C 45 %
603 08-02-2020 04:26:18 -2.8 C 46 %
604 08-02-2020 04:36:18 -2.6 C 46 %
605 08-02-2020 04:46:18 -2.2 C 46 %
606 08-02-2020 04:56:18 -2.6 C 46 %
607 08-02-2020 05:06:18 -2.6 C 46 %
608 08-02-2020 05:16:18 -2.7 C 46 %
609 08-02-2020 05:26:18 -2.6 C 46 %
610 08-02-2020 05:36:18 -2.7 C 46 %
611 08-02-2020 05:46:18 -2.6 C 46 %
612 08-02-2020 05:56:18 -2.6 C 46 %
613 08-02-2020 06:06:18 -2.5 C 46 %
614 08-02-2020 06:16:18 -2.5 C 46 %
615 08-02-2020 06:26:18 -2.6 C 46 %
616 08-02-2020 06:36:18 -2.7 C 46 %
617 08-02-2020 06:46:18 -2.3 C 46 %
618 08-02-2020 06:56:18 -2.1 C 46 %
619 08-02-2020 07:06:18 -2.1 C 46 %
620 08-02-2020 07:16:18 -2.4 C 46 %
621 08-02-2020 07:26:18 -2.2 C 46 %
622 08-02-2020 07:36:18 -2.1 C 46 %
623 08-02-2020 07:46:18 -2 C 46 %
624 08-02-2020 07:56:18 -1.8 C 47 %
625 08-02-2020 08:06:18 -1.7 C 46 %
Sensor: Nr:Datum:Temp:Feuchte:
Aussen-T/F 626 08-02-2020 08:16:18 -1.8 C 46 %
627 08-02-2020 08:26:18 -1.8 C 46 %
628 08-02-2020 08:36:18 -1.5 C 46 %
629 08-02-2020 08:46:18 -1.2 C 47 %
630 08-02-2020 08:56:18 -1 C 47 %
631 08-02-2020 09:06:18 -0.8 C 47 %
632 08-02-2020 09:16:18 -0.5 C 47 %
633 08-02-2020 09:26:18 -0.2 C 47 %
634 08-02-2020 09:36:18 0 C 47 %
635 08-02-2020 09:46:18 0.1 C 46 %
636 08-02-2020 09:56:18 0.3 C 46 %
637 08-02-2020 10:06:18 0.6 C 45 %
638 08-02-2020 10:16:18 0.7 C 44 %
639 08-02-2020 10:26:18 1 C 43 %
640 08-02-2020 10:36:18 1.3 C 44 %
641 08-02-2020 10:46:18 1.3 C 43 %
642 08-02-2020 10:56:18 1.6 C 44 %
643 08-02-2020 11:06:18 1.5 C 42 %
644 08-02-2020 11:16:17 1.7 C 42 %
645 08-02-2020 11:26:17 1.7 C 42 %
646 08-02-2020 11:36:17 1.9 C 42 %
647 08-02-2020 11:46:17 2 C 42 %
648 08-02-2020 11:56:17 2.4 C 45 %
649 08-02-2020 12:06:17 2.3 C 42 %
650 08-02-2020 12:16:18 2.4 C 40 %
Sensor: Nr:Datum:Temp:Feuchte:
Aussen-T/F 651 08-02-2020 12:26:18 2.9 C 41 %
652 08-02-2020 12:36:18 2.7 C 40 %
653 08-02-2020 12:46:17 2.7 C 40 %
654 08-02-2020 12:56:18 2.8 C 41 %
655 08-02-2020 13:06:18 3.1 C 41 %
656 08-02-2020 13:16:18 3.3 C 41 %
657 08-02-2020 13:26:18 3.4 C 42 %
658 08-02-2020 13:36:17 3.6 C 43 %
659 08-02-2020 13:46:18 3.5 C 37 %
660 08-02-2020 13:56:18 3.6 C 37 %
661 08-02-2020 14:06:17 4.3 C 36 %
662 08-02-2020 14:16:17 4.4 C 35 %
663 08-02-2020 14:26:17 4.3 C 34 %
664 08-02-2020 14:36:17 4.7 C 34 %
665 08-02-2020 14:46:17 4.8 C 34 %
666 08-02-2020 14:56:17 5.2 C 33 %
667 08-02-2020 15:06:17 5.2 C 33 %
668 08-02-2020 15:16:17 5 C 33 %
669 08-02-2020 15:26:17 5.2 C 33 %
670 08-02-2020 15:36:18 5.1 C 33 %
671 08-02-2020 15:46:17 5 C 34 %
672 08-02-2020 15:56:18 5.1 C 34 %
673 08-02-2020 16:06:18 4.7 C 35 %
674 08-02-2020 16:16:18 4.6 C 36 %
675 08-02-2020 16:26:18 4.5 C 36 %
Sensor: Nr:Datum:Temp:Feuchte:
Aussen-T/F 676 08-02-2020 16:36:17 4.3 C 37 %
677 08-02-2020 16:46:17 4.3 C 37 %
678 08-02-2020 16:56:17 4.1 C 38 %
679 08-02-2020 17:06:17 4 C 38 %
680 08-02-2020 17:16:18 4 C 38 %
681 08-02-2020 17:26:18 4.1 C 39 %
682 08-02-2020 17:36:17 4 C 39 %
683 08-02-2020 17:46:17 3.9 C 40 %
684 08-02-2020 17:56:17 3.8 C 41 %
685 08-02-2020 18:06:17 3.7 C 41 %
686 08-02-2020 18:16:18 3.7 C 41 %
687 08-02-2020 18:26:18 3.6 C 41 %
688 08-02-2020 18:36:18 3.6 C 41 %
689 08-02-2020 18:46:18 3.6 C 41 %
690 08-02-2020 18:56:18 3.6 C 40 %
691 08-02-2020 19:06:18 3.6 C 41 %
692 08-02-2020 19:16:18 3.6 C 41 %
693 08-02-2020 19:26:18 3.6 C 41 %
694 08-02-2020 19:36:17 3.7 C 42 %
695 08-02-2020 19:46:18 3.8 C 41 %
696 08-02-2020 19:56:18 3.7 C 41 %
697 08-02-2020 20:06:17 3.6 C 42 %
698 08-02-2020 20:16:17 3.5 C 42 %
699 08-02-2020 20:26:17 3.3 C 42 %
700 08-02-2020 20:36:17 3.2 C 43 %
Sensor: Nr:Datum:Temp:Feuchte:
Aussen-T/F 701 08-02-2020 20:46:17 3 C 43 %
702 08-02-2020 20:56:17 2.8 C 45 %
703 08-02-2020 21:06:17 3 C 45 %
704 08-02-2020 21:16:17 2.9 C 45 %
705 08-02-2020 21:26:17 2.7 C 44 %
706 08-02-2020 21:36:17 2.6 C 45 %
707 08-02-2020 21:46:17 2.5 C 45 %
708 08-02-2020 21:56:17 2.2 C 45 %
709 08-02-2020 22:06:18 1.9 C 45 %
710 08-02-2020 22:16:17 1.9 C 46 %
711 08-02-2020 22:26:17 1.9 C 47 %
712 08-02-2020 22:36:17 2 C 46 %
713 08-02-2020 22:46:17 2.1 C 46 %
714 08-02-2020 22:56:17 2.1 C 46 %
715 08-02-2020 23:06:17 2.5 C 46 %
716 08-02-2020 23:16:18 2.7 C 46 %
717 08-02-2020 23:26:18 2.4 C 46 %
718 08-02-2020 23:36:18 1.9 C 46 %
719 08-02-2020 23:46:17 2.2 C 46 %
720 08-02-2020 23:56:17 2.5 C 46 %
721 09-02-2020 00:06:17 2.7 C 46 %
722 09-02-2020 00:16:18 2.6 C 46 %
723 09-02-2020 00:26:18 2.7 C 46 %
724 09-02-2020 00:36:18 2.8 C 46 %
725 09-02-2020 00:46:18 2.8 C 46 %
Sensor: Nr:Datum:Temp:Feuchte:
Aussen-T/F 726 09-02-2020 00:56:18 2.8 C 45 %
727 09-02-2020 01:06:18 2.8 C 45 %
728 09-02-2020 01:16:18 2.2 C 44 %
729 09-02-2020 01:26:18 2.1 C 45 %
730 09-02-2020 01:36:17 1.6 C 45 %
731 09-02-2020 01:46:18 1.6 C 46 %
732 09-02-2020 01:56:18 1.5 C 46 %
733 09-02-2020 02:06:18 1.3 C 46 %
734 09-02-2020 02:16:18 1.9 C 47 %
735 09-02-2020 02:26:18 2.2 C 46 %
736 09-02-2020 02:36:18 2.3 C 46 %
737 09-02-2020 02:46:17 2.3 C 46 %
738 09-02-2020 02:56:17 2.3 C 46 %
739 09-02-2020 03:06:17 1.8 C 46 %
740 09-02-2020 03:16:17 1.3 C 45 %
741 09-02-2020 03:26:17 0.9 C 47 %
742 09-02-2020 03:36:17 1.2 C 47 %
743 09-02-2020 03:46:17 0.9 C 47 %
744 09-02-2020 03:56:17 0.8 C 47 %
745 09-02-2020 04:06:18 1.5 C 47 %
746 09-02-2020 04:16:18 2 C 46 %
747 09-02-2020 04:26:18 2.1 C 46 %
748 09-02-2020 04:36:17 2 C 46 %
749 09-02-2020 04:46:18 2.1 C 46 %
750 09-02-2020 04:56:18 2.3 C 46 %
Sensor: Nr:Datum:Temp:Feuchte:
Aussen-T/F 751 09-02-2020 05:06:18 2.4 C 46 %
752 09-02-2020 05:16:17 2.4 C 46 %
753 09-02-2020 05:26:17 2.8 C 46 %
754 09-02-2020 05:36:17 2.9 C 45 %
755 09-02-2020 05:46:17 2.7 C 45 %
756 09-02-2020 05:56:17 2.8 C 45 %
757 09-02-2020 06:06:18 2.5 C 45 %
758 09-02-2020 06:16:18 2.1 C 44 %
759 09-02-2020 06:26:18 1.7 C 45 %
760 09-02-2020 06:36:18 1.5 C 46 %
761 09-02-2020 06:46:18 2 C 46 %
762 09-02-2020 06:56:18 2.2 C 46 %
763 09-02-2020 07:06:18 2.3 C 46 %
764 09-02-2020 07:16:17 2.5 C 46 %
765 09-02-2020 07:26:17 3.7 C 46 %
766 09-02-2020 07:36:18 4.2 C 45 %
767 09-02-2020 07:46:18 5.2 C 44 %
768 09-02-2020 07:56:18 5.6 C 44 %
769 09-02-2020 08:06:18 5.3 C 42 %
770 09-02-2020 08:16:17 6 C 40 %
771 09-02-2020 08:26:17 8 C 35 %
772 09-02-2020 08:36:17 8.7 C 33 %
773 09-02-2020 08:46:17 8.6 C 33 %
774 09-02-2020 08:56:17 9 C 32 %
775 09-02-2020 09:06:18 9.6 C 32 %
Sensor: Nr:Datum:Temp:Feuchte:
Aussen-T/F 776 09-02-2020 09:16:18 10.1 C 30 %
777 09-02-2020 09:26:18 10.4 C 30 %
778 09-02-2020 09:36:17 10.4 C 30 %
779 09-02-2020 09:46:18 10.2 C 30 %
780 09-02-2020 09:56:18 10 C 30 %
781 09-02-2020 10:06:17 10.2 C 30 %
782 09-02-2020 10:16:17 10.5 C 30 %
783 09-02-2020 10:26:18 10.6 C 29 %
784 09-02-2020 10:36:18 10.8 C 28 %
785 09-02-2020 10:46:17 10.8 C 28 %
786 09-02-2020 10:56:18 11 C 28 %
787 09-02-2020 11:06:18 11.2 C 26 %
788 09-02-2020 11:16:18 11.6 C 26 %
789 09-02-2020 11:26:18 12.4 C 25 %
790 09-02-2020 11:36:18 12 C 23 %
791 09-02-2020 11:46:18 11.8 C 25 %
792 09-02-2020 11:56:18 11.8 C 25 %
793 09-02-2020 12:06:17 11.6 C 25 %
794 09-02-2020 12:16:17 11.7 C 25 %
795 09-02-2020 12:26:17 11.5 C 24 %
796 09-02-2020 12:36:18 11.5 C 24 %
797 09-02-2020 12:46:17 11.2 C 24 %
798 09-02-2020 12:56:17 11 C 24 %
799 09-02-2020 13:06:18 11.1 C 24 %
800 09-02-2020 13:16:18 10.9 C 25 %
Sensor: Nr:Datum:Temp:Feuchte:
Aussen-T/F 801 09-02-2020 13:26:18 10.9 C 25 %
802 09-02-2020 13:36:18 10.9 C 25 %
803 09-02-2020 13:46:18 11.2 C 24 %
804 09-02-2020 13:56:18 11.5 C 23 %
805 09-02-2020 14:06:17 11.9 C 23 %
806 09-02-2020 14:16:17 12.1 C 20 %
807 09-02-2020 14:26:18 12.2 C 20 %
808 09-02-2020 14:36:18 12.1 C 20 %
809 09-02-2020 14:46:18 12.1 C 20 %
810 09-02-2020 14:56:18 12 C 20 %
811 09-02-2020 15:06:18 12 C 20 %
812 09-02-2020 15:16:17 12 C 20 %
813 09-02-2020 15:26:17 12.2 C 20 %
814 09-02-2020 15:36:17 12.3 C 20 %
815 09-02-2020 15:46:17 12.3 C 20 %
816 09-02-2020 15:56:17 12.1 C 20 %
817 09-02-2020 16:06:17 12 C 20 %
818 09-02-2020 16:16:17 12 C 20 %
819 09-02-2020 16:26:17 12 C 20 %
820 09-02-2020 16:36:17 12.2 C 20 %
821 09-02-2020 16:46:18 12.2 C 20 %
822 09-02-2020 16:56:18 12.6 C 20 %
823 09-02-2020 17:06:18 12.4 C 20 %
824 09-02-2020 17:16:17 12.4 C 20 %
825 09-02-2020 17:26:17 12.7 C 20 %
Sensor: Nr:Datum:Temp:Feuchte:
Aussen-T/F 826 09-02-2020 17:36:17 12.8 C 20 %
827 09-02-2020 17:46:17 12.8 C 20 %
828 09-02-2020 17:56:17 12.7 C 20 %
829 09-02-2020 18:06:17 12.7 C 20 %
830 09-02-2020 18:16:17 12.7 C 20 %
831 09-02-2020 18:26:17 12.4 C 20 %
832 09-02-2020 18:36:17 12.3 C 22 %
833 09-02-2020 18:46:17 12.3 C 23 %
834 09-02-2020 18:56:17 12.3 C 23 %
835 09-02-2020 19:06:18 12.2 C 24 %
836 09-02-2020 19:16:17 12.2 C 24 %
837 09-02-2020 19:26:17 12.2 C 24 %
838 09-02-2020 19:36:18 12.2 C 24 %
839 09-02-2020 19:46:18 12.2 C 24 %
840 09-02-2020 19:56:18 12.5 C 24 %
841 09-02-2020 20:06:17 12.5 C 24 %
842 09-02-2020 20:16:17 12.5 C 24 %
843 09-02-2020 20:26:17 12.7 C 24 %
844 09-02-2020 20:36:18 12.7 C 24 %
845 09-02-2020 20:46:17 12.6 C 25 %
846 09-02-2020 20:56:17 12.5 C 25 %
847 09-02-2020 21:06:17 12.1 C 26 %
848 09-02-2020 21:16:17 11.2 C 30 %
849 09-02-2020 21:26:17 11.5 C 30 %
850 09-02-2020 21:36:17 11.6 C 30 %
Sensor: Nr:Datum:Temp:Feuchte:
Aussen-T/F 851 09-02-2020 21:46:18 11.6 C 30 %
852 09-02-2020 21:56:18 11.2 C 31 %
853 09-02-2020 22:06:18 10.8 C 33 %
854 09-02-2020 22:16:17 10.8 C 33 %
855 09-02-2020 22:26:17 10.9 C 33 %
856 09-02-2020 22:36:17 11.7 C 31 %
857 09-02-2020 22:46:18 11.3 C 32 %
858 09-02-2020 22:56:18 10.7 C 35 %
859 09-02-2020 23:06:17 10.9 C 35 %
860 09-02-2020 23:16:17 10.7 C 35 %
861 09-02-2020 23:26:17 10.5 C 35 %
862 09-02-2020 23:36:18 10.7 C 35 %
863 09-02-2020 23:46:18 10.6 C 35 %
864 09-02-2020 23:56:18 11 C 34 %
865 10-02-2020 00:06:18 10.9 C 35 %
866 10-02-2020 00:16:18 11.1 C 34 %
867 10-02-2020 00:26:18 10.9 C 35 %
868 10-02-2020 00:36:17 11.3 C 35 %
869 10-02-2020 00:46:17 11.1 C 35 %
870 10-02-2020 00:56:17 11 C 35 %
871 10-02-2020 01:06:17 10.8 C 37 %
872 10-02-2020 01:16:17 10.8 C 36 %
873 10-02-2020 01:26:17 10.8 C 37 %
874 10-02-2020 01:36:18 10.7 C 39 %
875 10-02-2020 01:46:18 10.7 C 40 %
Sensor: Nr:Datum:Temp:Feuchte:
Aussen-T/F 876 10-02-2020 01:56:18 9.5 C 38 %
877 10-02-2020 02:06:18 8.8 C 40 %
878 10-02-2020 02:16:17 8.7 C 39 %
879 10-02-2020 02:26:17 8.6 C 36 %
880 10-02-2020 02:36:17 8.5 C 36 %
881 10-02-2020 02:46:17 8.3 C 36 %
882 10-02-2020 02:56:17 8 C 36 %
883 10-02-2020 03:06:17 8.4 C 35 %
884 10-02-2020 03:16:17 8.3 C 35 %
885 10-02-2020 03:26:17 8.7 C 35 %
886 10-02-2020 03:36:18 9.2 C 33 %
887 10-02-2020 03:46:17 9.6 C 32 %
888 10-02-2020 03:56:17 9.6 C 32 %
889 10-02-2020 04:06:18 9.6 C 32 %
890 10-02-2020 04:16:17 9.7 C 32 %
891 10-02-2020 04:26:17 9.6 C 31 %
892 10-02-2020 04:36:17 9.8 C 31 %
893 10-02-2020 04:46:17 10 C 30 %
894 10-02-2020 04:56:17 9.9 C 31 %
895 10-02-2020 05:06:17 10.1 C 30 %
896 10-02-2020 05:16:18 10 C 30 %
897 10-02-2020 05:26:18 10 C 30 %
898 10-02-2020 05:36:18 9.7 C 30 %
899 10-02-2020 05:46:18 9.6 C 30 %
900 10-02-2020 05:56:18 9.5 C 31 %
Sensor: Nr:Datum:Temp:Feuchte:
Aussen-T/F 901 10-02-2020 06:06:18 9 C 31 %
902 10-02-2020 06:16:18 8.5 C 33 %
903 10-02-2020 06:26:18 8.2 C 35 %
904 10-02-2020 06:36:17 8 C 34 %
905 10-02-2020 06:46:18 9.1 C 30 %
906 10-02-2020 06:56:18 9 C 29 %
907 10-02-2020 07:06:17 8.9 C 30 %
908 10-02-2020 07:16:17 8.7 C 30 %
909 10-02-2020 07:26:17 9 C 28 %
910 10-02-2020 07:36:17 8.4 C 30 %
911 10-02-2020 07:46:18 8.5 C 29 %
912 10-02-2020 07:56:18 8.5 C 29 %
913 10-02-2020 08:06:17 8.9 C 28 %
914 10-02-2020 08:16:17 8.1 C 29 %
915 10-02-2020 08:26:17 7.9 C 30 %
916 10-02-2020 08:36:17 7.1 C 32 %
917 10-02-2020 08:46:17 7.3 C 31 %
918 10-02-2020 08:56:17 7.3 C 31 %
919 10-02-2020 09:06:17 7.7 C 27 %
920 10-02-2020 09:16:17 7.3 C 28 %
921 10-02-2020 09:26:17 7.6 C 26 %
922 10-02-2020 09:36:18 7.5 C 27 %
923 10-02-2020 09:46:18 7.3 C 27 %
924 10-02-2020 09:56:18 7.3 C 27 %
925 10-02-2020 10:06:18 7.6 C 26 %
Sensor: Nr:Datum:Temp:Feuchte:
Aussen-T/F 926 10-02-2020 10:16:17 8 C 26 %
927 10-02-2020 10:26:17 8 C 25 %
928 10-02-2020 10:36:17 8.2 C 25 %
929 10-02-2020 10:46:17 6.8 C 28 %
930 10-02-2020 10:56:18 8.2 C 26 %
931 10-02-2020 11:06:18 8.8 C 21 %
932 10-02-2020 11:16:17 9.2 C 20 %
933 10-02-2020 11:26:17 9.3 C 20 %
934 10-02-2020 11:36:17 9 C 20 %
935 10-02-2020 11:46:17 9.1 C 20 %
936 10-02-2020 11:56:17 9.1 C 20 %
937 10-02-2020 12:06:17 8.1 C 20 %
938 10-02-2020 12:16:18 5.1 C 35 %
939 10-02-2020 12:26:18 4.9 C 36 %
940 10-02-2020 12:36:18 6.8 C 33 %
941 10-02-2020 12:46:17 7.3 C 31 %
942 10-02-2020 12:56:17 8.8 C 26 %
943 10-02-2020 13:06:17 9.4 C 20 %
944 10-02-2020 13:16:17 9.3 C 20 %
945 10-02-2020 13:26:17 8.8 C 20 %
946 10-02-2020 13:36:18 9.5 C 20 %
947 10-02-2020 13:46:18 9.2 C 20 %
948 10-02-2020 13:56:18 9 C 20 %
949 10-02-2020 14:06:17 8.6 C 20 %
950 10-02-2020 14:16:18 7.3 C 27 %
Sensor: Nr:Datum:Temp:Feuchte:
Aussen-T/F 951 10-02-2020 14:26:18 7.6 C 27 %
952 10-02-2020 14:36:18 7.7 C 27 %
953 10-02-2020 14:46:17 8 C 26 %
954 10-02-2020 14:56:17 8.2 C 26 %
955 10-02-2020 15:06:17 8.1 C 26 %
956 10-02-2020 15:16:18 8.6 C 25 %
957 10-02-2020 15:26:18 8.7 C 23 %
958 10-02-2020 15:36:18 7.6 C 25 %
959 10-02-2020 15:46:18 7.7 C 25 %
960 10-02-2020 15:56:18 7.6 C 26 %
961 10-02-2020 16:06:17 7.7 C 25 %
962 10-02-2020 16:16:17 7.8 C 25 %
963 10-02-2020 16:26:17 7.8 C 26 %
964 10-02-2020 16:36:17 7.4 C 27 %
965 10-02-2020 16:46:17 7.3 C 27 %
966 10-02-2020 16:56:17 6.9 C 30 %
967 10-02-2020 17:06:18 6.7 C 30 %
968 10-02-2020 17:16:17 6.8 C 30 %
969 10-02-2020 17:26:17 6.6 C 30 %
970 10-02-2020 17:36:17 6.5 C 30 %
971 10-02-2020 17:46:17 6 C 32 %
972 10-02-2020 17:56:17 5.8 C 36 %
973 10-02-2020 18:06:17 5.5 C 37 %
974 10-02-2020 18:16:18 4.9 C 39 %
975 10-02-2020 18:26:18 4.9 C 40 %
Sensor: Nr:Datum:Temp:Feuchte:
Aussen-T/F 976 10-02-2020 18:36:18 5 C 40 %
977 10-02-2020 18:46:18 5.5 C 39 %
978 10-02-2020 18:56:18 5.4 C 38 %
979 10-02-2020 19:06:18 5.5 C 38 %
980 10-02-2020 19:16:18 5.4 C 39 %
981 10-02-2020 19:26:18 5.4 C 38 %
982 10-02-2020 19:36:17 5.1 C 40 %
983 10-02-2020 19:46:18 5 C 41 %
984 10-02-2020 19:56:18 4.7 C 42 %
985 10-02-2020 20:06:17 4.6 C 44 %
986 10-02-2020 20:16:17 4.5 C 45 %
987 10-02-2020 20:26:17 4.5 C 45 %
988 10-02-2020 20:36:18 4.3 C 45 %
989 10-02-2020 20:46:18 4.3 C 43 %
990 10-02-2020 20:56:18 4.4 C 43 %
991 10-02-2020 21:06:18 4.1 C 43 %
992 10-02-2020 21:16:17 3.9 C 45 %
993 10-02-2020 21:26:17 4 C 45 %
994 10-02-2020 21:36:17 5.3 C 43 %
995 10-02-2020 21:46:18 6.3 C 36 %
996 10-02-2020 21:56:18 6.9 C 35 %
997 10-02-2020 22:06:18 7 C 33 %
998 10-02-2020 22:16:17 7 C 33 %
999 10-02-2020 22:26:17 7 C 33 %
1000 10-02-2020 22:36:17 7.1 C 32 %
Sensor: Nr:Datum:Temp:Feuchte:
Aussen-T/F 1001 10-02-2020 22:46:17 7.3 C 32 %
1002 10-02-2020 22:56:17 7.3 C 31 %
1003 10-02-2020 23:06:17 7.6 C 30 %
1004 10-02-2020 23:16:17 7.7 C 29 %
1005 10-02-2020 23:26:17 7.6 C 28 %
1006 10-02-2020 23:36:18 7.4 C 28 %
1007 10-02-2020 23:46:18 7.3 C 28 %
1008 10-02-2020 23:56:18 7.3 C 27 %
1009 11-02-2020 00:06:17 7.5 C 26 %
1010 11-02-2020 00:16:17 7.4 C 26 %
1011 11-02-2020 00:26:17 7.7 C 25 %
1012 11-02-2020 00:36:17 4.6 C 35 %
1013 11-02-2020 00:46:17 4.4 C 36 %
1014 11-02-2020 00:56:17 4.4 C 35 %
1015 11-02-2020 01:06:17 4.5 C 34 %
1016 11-02-2020 01:16:17 4.6 C 33 %
1017 11-02-2020 01:26:17 4.7 C 32 %
1018 11-02-2020 01:36:17 4.7 C 31 %
1019 11-02-2020 01:46:17 4.5 C 31 %
1020 11-02-2020 01:56:17 4.7 C 30 %
1021 11-02-2020 02:06:17 5.1 C 27 %
1022 11-02-2020 02:16:17 5.3 C 26 %
1023 11-02-2020 02:26:17 5.3 C 26 %
1024 11-02-2020 02:36:17 4.8 C 27 %
1025 11-02-2020 02:46:17 4.3 C 30 %
Sensor: Nr:Datum:Temp:Feuchte:
Aussen-T/F 1026 11-02-2020 02:56:17 4.1 C 30 %
1027 11-02-2020 03:06:17 4.8 C 29 %
1028 11-02-2020 03:16:17 5.3 C 26 %
1029 11-02-2020 03:26:17 5.4 C 25 %
1030 11-02-2020 03:36:17 5.3 C 25 %
1031 11-02-2020 03:46:18 5.6 C 23 %
1032 11-02-2020 03:56:18 5.5 C 21 %
1033 11-02-2020 04:06:18 5.4 C 20 %
1034 11-02-2020 04:16:17 5.4 C 20 %
1035 11-02-2020 04:26:17 5.6 C 20 %
1036 11-02-2020 04:36:17 5.3 C 20 %
1037 11-02-2020 04:46:17 5.6 C 20 %
1038 11-02-2020 04:56:17 5.6 C 20 %
1039 11-02-2020 05:06:18 5.5 C 20 %
1040 11-02-2020 05:16:18 5.8 C 20 %
1041 11-02-2020 05:26:18 3.9 C 33 %
1042 11-02-2020 05:36:18 4.2 C 32 %
1043 11-02-2020 05:46:17 4.1 C 32 %
1044 11-02-2020 05:56:18 3.7 C 34 %
1045 11-02-2020 06:06:18 3.8 C 33 %
1046 11-02-2020 06:16:17 4.8 C 30 %
1047 11-02-2020 06:26:17 5 C 25 %
1048 11-02-2020 06:36:18 5.1 C 23 %
1049 11-02-2020 06:46:17 5 C 23 %
1050 11-02-2020 06:56:18 4 C 29 %
Sensor: Nr:Datum:Temp:Feuchte:
Aussen-T/F 1051 11-02-2020 07:06:18 3.7 C 32 %
1052 11-02-2020 07:16:18 3.2 C 34 %
1053 11-02-2020 07:26:18 4.1 C 31 %
1054 11-02-2020 07:36:18 3.8 C 31 %
1055 11-02-2020 07:46:17 4.4 C 30 %
1056 11-02-2020 07:56:17 4.5 C 29 %
1057 11-02-2020 08:06:18 4.5 C 29 %
1058 11-02-2020 08:16:17 4.6 C 28 %
1059 11-02-2020 08:26:17 4.9 C 27 %
1060 11-02-2020 08:36:17 4 C 31 %
1061 11-02-2020 08:46:17 3.9 C 33 %
1062 11-02-2020 08:56:17 4.1 C 32 %
1063 11-02-2020 09:06:17 4.3 C 31 %
1064 11-02-2020 09:16:17 4.6 C 31 %
1065 11-02-2020 09:26:17 4.6 C 31 %
1066 11-02-2020 09:36:18 4.5 C 31 %
1067 11-02-2020 09:46:18 4.6 C 31 %
1068 11-02-2020 09:56:18 5.1 C 29 %
1069 11-02-2020 10:06:18 5.3 C 28 %
1070 11-02-2020 10:16:17 5.9 C 26 %
1071 11-02-2020 10:26:17 5.9 C 25 %
1072 11-02-2020 10:36:17 5.9 C 25 %
1073 11-02-2020 10:46:17 5.4 C 25 %
1074 11-02-2020 10:56:17 5.8 C 25 %
1075 11-02-2020 11:06:17 6.2 C 26 %
Sensor: Nr:Datum:Temp:Feuchte:
Aussen-T/F 1076 11-02-2020 11:16:17 6.6 C 20 %
1077 11-02-2020 11:26:17 6.9 C 20 %
1078 11-02-2020 11:36:18 6.7 C 20 %
1079 11-02-2020 11:46:18 6.5 C 20 %
1080 11-02-2020 11:56:18 6.7 C 20 %
1081 11-02-2020 12:06:18 6.8 C 20 %
1082 11-02-2020 12:16:17 6.7 C 20 %
1083 11-02-2020 12:26:17 6.8 C 20 %
1084 11-02-2020 12:36:17 7 C 20 %
1085 11-02-2020 12:46:17 7.3 C 20 %
1086 11-02-2020 12:56:17 6.4 C 20 %
1087 11-02-2020 13:06:18 5.7 C 20 %
1088 11-02-2020 13:16:18 6.4 C 20 %
1089 11-02-2020 13:26:18 5.9 C 20 %
1090 11-02-2020 13:36:18 7.8 C 20 %
1091 11-02-2020 13:46:17 7.4 C 20 %
1092 11-02-2020 13:56:17 7.1 C 20 %
1093 11-02-2020 14:06:17 6.9 C 20 %
1094 11-02-2020 14:16:17 4.6 C 20 %
1095 11-02-2020 14:26:17 3.8 C 35 %
1096 11-02-2020 14:36:17 5 C 32 %
1097 11-02-2020 14:46:17 5 C 31 %
1098 11-02-2020 14:56:17 5.6 C 25 %
1099 11-02-2020 15:06:17 5.7 C 25 %
1100 11-02-2020 15:16:17 5.3 C 25 %
Sensor: Nr:Datum:Temp:Feuchte:
Aussen-T/F 1101 11-02-2020 15:26:17 6.6 C 25 %
1102 11-02-2020 15:36:17 6.8 C 25 %
1103 11-02-2020 15:46:17 6.9 C 25 %
1104 11-02-2020 15:56:17 7 C 25 %
1105 11-02-2020 16:06:17 7.4 C 20 %
1106 11-02-2020 16:16:18 7.1 C 20 %
1107 11-02-2020 16:26:18 7.5 C 20 %
1108 11-02-2020 16:36:17 7.2 C 20 %
1109 11-02-2020 16:46:17 6.5 C 20 %
1110 11-02-2020 16:56:17 6.5 C 20 %
1111 11-02-2020 17:06:18 6.1 C 20 %
1112 11-02-2020 17:16:17 5.9 C 21 %
1113 11-02-2020 17:26:17 5.6 C 21 %
1114 11-02-2020 17:36:17 5.8 C 21 %
1115 11-02-2020 17:46:17 5.8 C 20 %
1116 11-02-2020 17:56:17 5.9 C 20 %
1117 11-02-2020 18:06:17 5.8 C 20 %
1118 11-02-2020 18:16:17 5.7 C 20 %
1119 11-02-2020 18:26:17 5.2 C 20 %
1120 11-02-2020 18:36:17 5.3 C 20 %
1121 11-02-2020 18:46:17 5.4 C 21 %
1122 11-02-2020 18:56:18 5.2 C 23 %
1123 11-02-2020 19:06:18 5.1 C 23 %
1124 11-02-2020 19:16:18 4.9 C 26 %
1125 11-02-2020 19:26:18 4.8 C 26 %
Sensor: Nr:Datum:Temp:Feuchte:
Aussen-T/F 1126 11-02-2020 19:36:17 4.6 C 27 %
1127 11-02-2020 19:46:18 4.6 C 27 %
1128 11-02-2020 19:56:18 4.8 C 26 %
1129 11-02-2020 20:06:17 4.8 C 26 %
1130 11-02-2020 20:16:17 5.5 C 20 %
1131 11-02-2020 20:26:17 5.4 C 20 %
1132 11-02-2020 20:36:17 5.3 C 20 %
1133 11-02-2020 20:46:17 4.8 C 20 %
1134 11-02-2020 20:56:17 4.7 C 20 %
1135 11-02-2020 21:06:18 4.8 C 20 %
1136 11-02-2020 21:16:17 4.4 C 20 %
1137 11-02-2020 21:26:17 4.6 C 20 %
1138 11-02-2020 21:36:17 4.7 C 20 %
1139 11-02-2020 21:46:18 4.4 C 20 %
1140 11-02-2020 21:56:18 4.4 C 20 %
1141 11-02-2020 22:06:17 4.5 C 20 %
1142 11-02-2020 22:16:18 4.3 C 20 %
1143 11-02-2020 22:26:18 4.2 C 20 %
1144 11-02-2020 22:36:17 4.3 C 21 %
1145 11-02-2020 22:46:17 4.3 C 21 %
1146 11-02-2020 22:56:17 3.8 C 25 %
1147 11-02-2020 23:06:17 4 C 23 %
1148 11-02-2020 23:16:18 3.9 C 25 %
1149 11-02-2020 23:26:18 4.3 C 21 %
1150 11-02-2020 23:36:17 4.6 C 20 %
Sensor: Nr:Datum:Temp:Feuchte:
Aussen-T/F 1151 11-02-2020 23:46:18 4.6 C 20 %
1152 11-02-2020 23:56:18 4.7 C 20 %
1153 12-02-2020 00:06:18 4.9 C 20 %
1154 12-02-2020 00:16:17 4.8 C 20 %
1155 12-02-2020 00:26:17 4.6 C 21 %
1156 12-02-2020 00:36:18 4.7 C 21 %
1157 12-02-2020 00:46:17 4.9 C 21 %
1158 12-02-2020 00:56:18 4.6 C 25 %
1159 12-02-2020 01:06:18 4.6 C 25 %
1160 12-02-2020 01:16:18 4.3 C 25 %
1161 12-02-2020 01:26:18 4.5 C 26 %
1162 12-02-2020 01:36:17 4.6 C 26 %
1163 12-02-2020 01:46:18 4.7 C 25 %
1164 12-02-2020 01:56:18 4.7 C 26 %
1165 12-02-2020 02:06:18 4.5 C 25 %
1166 12-02-2020 02:16:17 4.5 C 25 %
1167 12-02-2020 02:26:17 4.3 C 26 %
1168 12-02-2020 02:36:18 4.2 C 25 %
1169 12-02-2020 02:46:18 4.2 C 26 %
1170 12-02-2020 02:56:18 4.2 C 26 %
1171 12-02-2020 03:06:18 4.1 C 26 %
1172 12-02-2020 03:16:17 4.2 C 26 %
1173 12-02-2020 03:26:17 4.3 C 26 %
1174 12-02-2020 03:36:17 4.2 C 26 %
1175 12-02-2020 03:46:17 4.1 C 26 %
Sensor: Nr:Datum:Temp:Feuchte:
Aussen-T/F 1176 12-02-2020 03:56:17 3.8 C 28 %
1177 12-02-2020 04:06:17 4.2 C 27 %
1178 12-02-2020 04:16:17 4.3 C 26 %
1179 12-02-2020 04:26:17 4.4 C 26 %
1180 12-02-2020 04:36:18 4.4 C 26 %
1181 12-02-2020 04:46:17 4.5 C 26 %
1182 12-02-2020 04:56:18 4.4 C 27 %
1183 12-02-2020 05:06:18 4.5 C 27 %
1184 12-02-2020 05:16:18 4.4 C 27 %
1185 12-02-2020 05:26:18 4.5 C 27 %
1186 12-02-2020 05:36:18 4.5 C 27 %
1187 12-02-2020 05:46:17 4.6 C 27 %
1188 12-02-2020 05:56:18 4.5 C 27 %
1189 12-02-2020 06:06:17 4.5 C 27 %
1190 12-02-2020 06:16:18 4.5 C 28 %
1191 12-02-2020 06:26:18 4.3 C 29 %
1192 12-02-2020 06:36:17 4.3 C 30 %
1193 12-02-2020 06:46:18 4.3 C 29 %
1194 12-02-2020 06:56:18 4.3 C 29 %
1195 12-02-2020 07:06:17 4.3 C 30 %
1196 12-02-2020 07:16:17 3.2 C 35 %
1197 12-02-2020 07:26:17 2.8 C 38 %
1198 12-02-2020 07:36:17 2.8 C 38 %
1199 12-02-2020 07:46:18 2.9 C 38 %
1200 12-02-2020 07:56:18 3 C 37 %
Sensor: Nr:Datum:Temp:Feuchte:
Aussen-T/F 1201 12-02-2020 08:06:17 3.1 C 37 %
1202 12-02-2020 08:16:17 3.2 C 36 %
1203 12-02-2020 08:26:17 3.3 C 36 %
1204 12-02-2020 08:36:17 3.2 C 36 %
1205 12-02-2020 08:46:17 3.5 C 35 %
1206 12-02-2020 08:56:17 3.6 C 35 %
1207 12-02-2020 09:06:17 3.5 C 35 %
1208 12-02-2020 09:16:17 3.7 C 35 %
1209 12-02-2020 09:26:18 3.9 C 34 %
1210 12-02-2020 09:36:18 3.7 C 34 %
1211 12-02-2020 09:46:17 4.2 C 32 %
1212 12-02-2020 09:56:17 4.7 C 32 %
1213 12-02-2020 10:06:17 4.3 C 32 %
1214 12-02-2020 10:16:18 3.6 C 35 %
1215 12-02-2020 10:26:18 3.6 C 37 %
1216 12-02-2020 10:36:17 3.9 C 38 %
1217 12-02-2020 10:46:17 4.4 C 35 %
1218 12-02-2020 10:56:17 5.4 C 32 %
1219 12-02-2020 11:06:17 5.3 C 32 %
1220 12-02-2020 11:16:17 5.4 C 31 %
1221 12-02-2020 11:26:17 5.7 C 31 %
1222 12-02-2020 11:36:17 5.3 C 31 %
1223 12-02-2020 11:46:17 4.7 C 32 %
1224 12-02-2020 11:56:17 4.5 C 32 %
1225 12-02-2020 12:06:18 4.7 C 32 %
Sensor: Nr:Datum:Temp:Feuchte:
Aussen-T/F 1226 12-02-2020 12:16:18 5.4 C 31 %
1227 12-02-2020 12:26:18 5.1 C 31 %
1228 12-02-2020 12:36:17 4.3 C 34 %
1229 12-02-2020 12:46:17 4.3 C 34 %
1230 12-02-2020 12:56:17 5.2 C 32 %
1231 12-02-2020 13:06:18 5.8 C 31 %
1232 12-02-2020 13:16:17 6.3 C 30 %
1233 12-02-2020 13:26:17 6.8 C 27 %
1234 12-02-2020 13:36:17 6.7 C 27 %
1235 12-02-2020 13:46:17 6.4 C 26 %
1236 12-02-2020 13:56:17 6.3 C 27 %
1237 12-02-2020 14:06:17 6.3 C 27 %
1238 12-02-2020 14:16:18 6.7 C 26 %
1239 12-02-2020 14:26:18 7 C 26 %
1240 12-02-2020 14:36:17 7.3 C 20 %
1241 12-02-2020 14:46:17 6.9 C 21 %
1242 12-02-2020 14:56:17 7.2 C 21 %
1243 12-02-2020 15:06:17 7 C 21 %
1244 12-02-2020 15:16:17 7.5 C 20 %
1245 12-02-2020 15:26:17 7.6 C 20 %
1246 12-02-2020 15:36:18 7.5 C 20 %
1247 12-02-2020 15:46:18 6.4 C 23 %
1248 12-02-2020 15:56:18 6.9 C 25 %
1249 12-02-2020 16:06:18 6.3 C 25 %
1250 12-02-2020 16:16:18 6.3 C 25 %
Sensor: Nr:Datum:Temp:Feuchte:
Aussen-T/F 1251 12-02-2020 16:26:18 7 C 20 %
1252 12-02-2020 16:36:17 7.2 C 20 %
1253 12-02-2020 16:46:17 7 C 23 %
1254 12-02-2020 16:56:18 6.6 C 23 %
1255 12-02-2020 17:06:18 5.8 C 25 %
1256 12-02-2020 17:16:17 5.4 C 25 %
1257 12-02-2020 17:26:17 5.4 C 25 %
1258 12-02-2020 17:36:17 5.1 C 26 %
1259 12-02-2020 17:46:17 5 C 26 %
1260 12-02-2020 17:56:17 4.5 C 30 %
1261 12-02-2020 18:06:17 4.2 C 31 %
1262 12-02-2020 18:16:17 4.2 C 31 %
1263 12-02-2020 18:26:17 4 C 32 %
1264 12-02-2020 18:36:17 4.1 C 31 %
1265 12-02-2020 18:46:17 3.7 C 33 %
1266 12-02-2020 18:56:17 3.9 C 33 %
1267 12-02-2020 19:06:18 4.1 C 32 %
1268 12-02-2020 19:17:17 3.9 C 33 %
1269 12-02-2020 19:27:17 3.7 C 33 %
1270 12-02-2020 19:36:17 3.6 C 33 %
1271 12-02-2020 19:46:17 3.3 C 35 %
1272 12-02-2020 19:56:17 3 C 35 %
1273 12-02-2020 20:06:17 3.1 C 36 %
1274 12-02-2020 20:16:17 1.8 C 39 %
1275 12-02-2020 20:26:17 1.7 C 41 %
Sensor: Nr:Datum:Temp:Feuchte:
Aussen-T/F 1276 12-02-2020 20:36:18 1.7 C 41 %
1277 12-02-2020 20:46:17 2.5 C 39 %
1278 12-02-2020 20:56:18 2.3 C 38 %
1279 12-02-2020 21:06:18 2 C 40 %
1280 12-02-2020 21:17:17 2.1 C 40 %
1281 12-02-2020 21:27:17 2.1 C 39 %
1282 12-02-2020 21:36:17 2.2 C 39 %
1283 12-02-2020 21:46:17 2.2 C 39 %
1284 12-02-2020 21:56:17 2.7 C 39 %
1285 12-02-2020 22:06:17 2.6 C 39 %
1286 12-02-2020 22:16:17 2.1 C 40 %
1287 12-02-2020 22:26:17 1.8 C 42 %
1288 12-02-2020 22:36:17 2 C 42 %
1289 12-02-2020 22:46:17 1.7 C 42 %
1290 12-02-2020 22:56:17 1.4 C 42 %
1291 12-02-2020 23:06:18 2.2 C 43 %
1292 12-02-2020 23:16:18 1.3 C 42 %
1293 12-02-2020 23:26:18 1.7 C 44 %
1294 12-02-2020 23:37:17 1.4 C 44 %
1295 12-02-2020 23:47:17 1.7 C 43 %
1296 12-02-2020 23:57:17 2.4 C 41 %
1297 13-02-2020 00:07:17 1.8 C 41 %
1298 13-02-2020 00:17:17 1.9 C 42 %
1299 13-02-2020 00:27:17 1.7 C 42 %
1300 13-02-2020 00:36:18 1.5 C 43 %
Sensor: Nr:Datum:Temp:Feuchte:
Aussen-T/F 1301 13-02-2020 00:46:17 1.6 C 44 %
1302 13-02-2020 00:56:18 2 C 41 %
1303 13-02-2020 01:06:18 1.7 C 42 %
1304 13-02-2020 01:17:17 1.6 C 43 %
1305 13-02-2020 01:27:17 1.7 C 43 %
1306 13-02-2020 01:37:17 1.6 C 43 %
1307 13-02-2020 01:47:17 1.6 C 43 %
1308 13-02-2020 01:57:17 1.3 C 43 %
1309 13-02-2020 02:07:18 1.3 C 43 %
1310 13-02-2020 02:17:18 0.6 C 45 %
1311 13-02-2020 02:27:18 0.2 C 45 %
1312 13-02-2020 02:37:17 0.2 C 47 %
1313 13-02-2020 02:47:17 0.1 C 47 %
1314 13-02-2020 02:57:17 0.1 C 47 %
1315 13-02-2020 03:07:17 0.4 C 48 %
1316 13-02-2020 03:17:17 0.4 C 47 %
1317 13-02-2020 03:27:17 0.4 C 46 %
1318 13-02-2020 03:37:17 -0.4 C 45 %
1319 13-02-2020 03:47:17 0.1 C 47 %
1320 13-02-2020 03:57:17 -0.1 C 47 %
1321 13-02-2020 04:07:17 -0.3 C 47 %
1322 13-02-2020 04:17:17 -0.3 C 47 %
1323 13-02-2020 04:27:17 -0.7 C 47 %
1324 13-02-2020 04:37:18 -0.7 C 47 %
1325 13-02-2020 04:47:17 -0.7 C 47 %
Sensor: Nr:Datum:Temp:Feuchte:
Aussen-T/F 1326 13-02-2020 04:57:17 -0.7 C 47 %
1327 13-02-2020 05:07:18 -1 C 47 %
1328 13-02-2020 05:17:17 -1.3 C 46 %
1329 13-02-2020 05:27:17 -1.3 C 47 %
1330 13-02-2020 05:37:17 -1.1 C 47 %
1331 13-02-2020 05:47:17 -1 C 47 %
1332 13-02-2020 05:57:17 -0.7 C 47 %
1333 13-02-2020 06:07:17 -0.2 C 47 %
1334 13-02-2020 06:17:17 -0.3 C 47 %
1335 13-02-2020 06:27:17 -0.3 C 47 %
1336 13-02-2020 06:37:18 -0.4 C 47 %
1337 13-02-2020 06:47:17 -0.4 C 47 %
1338 13-02-2020 06:57:18 -0.2 C 47 %
1339 13-02-2020 07:07:18 -0.2 C 47 %
1340 13-02-2020 07:17:18 -0.2 C 47 %
1341 13-02-2020 07:27:18 -0.2 C 47 %
1342 13-02-2020 07:37:17 0.1 C 47 %
1343 13-02-2020 07:47:18 0.6 C 47 %
1344 13-02-2020 07:57:18 0.8 C 47 %
1345 13-02-2020 08:07:17 0.9 C 47 %
1346 13-02-2020 08:17:17 1.1 C 46 %
1347 13-02-2020 08:27:17 1.4 C 46 %
1348 13-02-2020 08:37:17 1.6 C 46 %
1349 13-02-2020 08:47:17 2 C 45 %
1350 13-02-2020 08:57:17 2.2 C 43 %
Sensor: Nr:Datum:Temp:Feuchte:
Aussen-T/F 1351 13-02-2020 09:07:18 2.3 C 43 %
1352 13-02-2020 09:17:17 2.5 C 42 %
1353 13-02-2020 09:27:17 2.9 C 41 %
1354 13-02-2020 09:37:17 3 C 40 %
1355 13-02-2020 09:47:18 3 C 40 %
1356 13-02-2020 09:57:18 3 C 40 %
1357 13-02-2020 10:07:17 3 C 40 %
1358 13-02-2020 10:17:17 3.9 C 37 %
1359 13-02-2020 10:27:17 4.2 C 35 %
1360 13-02-2020 10:37:17 4.4 C 35 %
1361 13-02-2020 10:47:17 5.1 C 33 %
1362 13-02-2020 10:57:17 5.1 C 32 %
1363 13-02-2020 11:07:17 5.4 C 31 %
1364 13-02-2020 11:17:17 5.9 C 32 %
1365 13-02-2020 11:27:17 6.4 C 30 %
1366 13-02-2020 11:37:17 6.4 C 29 %
1367 13-02-2020 11:47:18 6.1 C 29 %
1368 13-02-2020 11:57:18 6 C 29 %
1369 13-02-2020 12:07:17 6 C 30 %
1370 13-02-2020 12:17:17 5.4 C 31 %
1371 13-02-2020 12:27:17 5 C 32 %
1372 13-02-2020 12:37:18 4.9 C 35 %
1373 13-02-2020 12:47:17 4.6 C 35 %
1374 13-02-2020 12:57:17 4.6 C 36 %
1375 13-02-2020 13:07:18 4.5 C 37 %
Sensor: Nr:Datum:Temp:Feuchte:
Aussen-T/F 1376 13-02-2020 13:17:17 4.3 C 39 %
1377 13-02-2020 13:27:17 4.4 C 41 %
1378 13-02-2020 13:37:17 4.4 C 40 %
1379 13-02-2020 13:47:17 4.3 C 40 %
1380 13-02-2020 13:57:17 4.6 C 39 %
1381 13-02-2020 14:07:17 4.4 C 39 %
1382 13-02-2020 14:17:17 4.3 C 40 %
1383 13-02-2020 14:27:17 4.9 C 41 %
1384 13-02-2020 14:37:17 4.8 C 40 %
1385 13-02-2020 14:47:17 4.8 C 40 %
1386 13-02-2020 14:57:17 4.8 C 41 %
1387 13-02-2020 15:07:17 4.8 C 42 %
1388 13-02-2020 15:17:17 5.1 C 42 %
1389 13-02-2020 15:27:17 5.3 C 41 %
1390 13-02-2020 15:37:18 5.5 C 41 %
1391 13-02-2020 15:47:18 5.4 C 41 %
1392 13-02-2020 15:57:18 6.9 C 38 %
1393 13-02-2020 16:07:17 8.4 C 35 %
1394 13-02-2020 16:17:17 10.2 C 31 %
1395 13-02-2020 16:27:17 8.7 C 32 %
1396 13-02-2020 16:37:17 6.9 C 36 %
1397 13-02-2020 16:47:18 5.9 C 41 %
1398 13-02-2020 16:57:18 5.8 C 43 %
1399 13-02-2020 17:07:17 5.8 C 43 %
1400 13-02-2020 17:17:17 5.7 C 43 %
Sensor: Nr:Datum:Temp:Feuchte:
Aussen-T/F 1401 13-02-2020 17:27:17 5.6 C 43 %
1402 13-02-2020 17:37:17 5.2 C 44 %
1403 13-02-2020 17:47:17 5 C 44 %
1404 13-02-2020 17:57:18 4.6 C 45 %
1405 13-02-2020 18:07:18 4.5 C 45 %
1406 13-02-2020 18:17:17 4.5 C 45 %
1407 13-02-2020 18:27:17 4.7 C 45 %
1408 13-02-2020 18:37:17 4.6 C 45 %
1409 13-02-2020 18:47:17 4.7 C 45 %
1410 13-02-2020 18:57:17 4.4 C 44 %
1411 13-02-2020 19:07:17 4.6 C 44 %
1412 13-02-2020 19:17:17 4.3 C 43 %
1413 13-02-2020 19:27:17 4.4 C 43 %
1414 13-02-2020 19:37:17 4.3 C 44 %
1415 13-02-2020 19:47:17 4.3 C 44 %
1416 13-02-2020 19:57:17 4.4 C 44 %
1417 13-02-2020 20:07:18 4.6 C 45 %
1418 13-02-2020 20:17:17 4.5 C 45 %
1419 13-02-2020 20:27:17 4.5 C 45 %
1420 13-02-2020 20:37:17 4.6 C 45 %
1421 13-02-2020 20:47:18 4.7 C 45 %
1422 13-02-2020 20:57:18 4.7 C 45 %
1423 13-02-2020 21:07:17 4.7 C 45 %
1424 13-02-2020 21:17:17 4.8 C 45 %
1425 13-02-2020 21:27:17 4.7 C 45 %
Sensor: Nr:Datum:Temp:Feuchte:
Aussen-T/F 1426 13-02-2020 21:37:18 4.7 C 45 %
1427 13-02-2020 21:47:18 4.7 C 45 %
1428 13-02-2020 21:57:18 5.3 C 45 %
1429 13-02-2020 22:07:17 5.8 C 45 %
1430 13-02-2020 22:17:17 5.9 C 41 %
1431 13-02-2020 22:27:17 6.1 C 40 %
1432 13-02-2020 22:37:17 6.3 C 40 %
1433 13-02-2020 22:47:17 6.5 C 38 %
1434 13-02-2020 22:57:17 6.8 C 37 %
1435 13-02-2020 23:07:17 6.4 C 37 %
1436 13-02-2020 23:17:17 6.1 C 40 %
1437 13-02-2020 23:27:17 5.8 C 42 %
1438 13-02-2020 23:37:17 5.7 C 45 %
1439 13-02-2020 23:47:18 5.8 C 44 %
1440 13-02-2020 23:57:18 5.8 C 43 %
1441 14-02-2020 00:07:18 5.8 C 43 %
1442 14-02-2020 00:17:17 5.8 C 42 %
1443 14-02-2020 00:27:17 5.8 C 42 %
1444 14-02-2020 00:37:17 5.8 C 43 %
1445 14-02-2020 00:47:17 5.8 C 42 %
1446 14-02-2020 00:57:17 5.7 C 42 %
1447 14-02-2020 01:07:17 5.6 C 41 %
1448 14-02-2020 01:17:18 5.7 C 40 %
1449 14-02-2020 01:27:18 5.6 C 41 %
1450 14-02-2020 01:37:18 5.9 C 39 %
Sensor: Nr:Datum:Temp:Feuchte:
Aussen-T/F 1451 14-02-2020 01:47:18 5.6 C 40 %
1452 14-02-2020 01:57:18 5.5 C 41 %
1453 14-02-2020 02:07:17 5.8 C 40 %
1454 14-02-2020 02:17:17 5.8 C 40 %
1455 14-02-2020 02:27:17 5.6 C 41 %
1456 14-02-2020 02:37:18 5.8 C 41 %
1457 14-02-2020 02:47:18 5.8 C 40 %
1458 14-02-2020 02:57:18 6 C 38 %
1459 14-02-2020 03:07:17 6 C 38 %
1460 14-02-2020 03:17:17 5.8 C 39 %
1461 14-02-2020 03:27:17 5.6 C 42 %
1462 14-02-2020 03:37:17 5.6 C 42 %
1463 14-02-2020 03:47:17 5.3 C 44 %
1464 14-02-2020 03:57:17 5.2 C 45 %
1465 14-02-2020 04:07:18 5.2 C 45 %
1466 14-02-2020 04:17:18 5.1 C 45 %
1467 14-02-2020 04:27:18 5 C 44 %
1468 14-02-2020 04:37:17 5 C 45 %
1469 14-02-2020 04:47:18 4.9 C 44 %
1470 14-02-2020 04:57:18 4.8 C 44 %
1471 14-02-2020 05:07:18 4.6 C 45 %
1472 14-02-2020 05:17:17 4.9 C 45 %
1473 14-02-2020 05:27:17 5 C 43 %
1474 14-02-2020 05:37:17 4.9 C 45 %
1475 14-02-2020 05:47:17 4.8 C 45 %
Sensor: Nr:Datum:Temp:Feuchte:
Aussen-T/F 1476 14-02-2020 05:57:17 4.8 C 46 %
1477 14-02-2020 06:07:17 4.8 C 46 %
1478 14-02-2020 06:17:17 4.7 C 45 %
1479 14-02-2020 06:27:17 4.7 C 45 %
1480 14-02-2020 06:37:17 4.7 C 45 %
1481 14-02-2020 06:47:17 4.7 C 45 %
1482 14-02-2020 06:57:17 4.7 C 45 %
1483 14-02-2020 07:07:17 4.7 C 45 %
1484 14-02-2020 07:17:17 4.7 C 45 %
1485 14-02-2020 07:27:17 4.6 C 45 %
1486 14-02-2020 07:37:18 4.6 C 45 %
1487 14-02-2020 07:47:17 4.6 C 43 %
1488 14-02-2020 07:57:18 4.7 C 43 %
1489 14-02-2020 08:07:17 4.6 C 42 %
1490 14-02-2020 08:17:17 4.6 C 43 %
1491 14-02-2020 08:27:17 4.6 C 43 %
1492 14-02-2020 08:37:18 4.8 C 41 %
1493 14-02-2020 08:47:18 5 C 40 %
1494 14-02-2020 08:57:18 5.3 C 38 %
1495 14-02-2020 09:07:17 5.4 C 37 %
1496 14-02-2020 09:17:17 5.6 C 36 %
1497 14-02-2020 09:27:17 5.9 C 36 %
1498 14-02-2020 09:37:17 5.8 C 36 %
1499 14-02-2020 09:47:17 5.3 C 36 %
1500 14-02-2020 09:57:17 5.4 C 37 %
Sensor: Nr:Datum:Temp:Feuchte:
Aussen-T/F 1501 14-02-2020 10:07:17 5.5 C 36 %
1502 14-02-2020 10:17:17 5.4 C 37 %
1503 14-02-2020 10:27:17 5.4 C 36 %
1504 14-02-2020 10:37:18 5.5 C 36 %
1505 14-02-2020 10:47:17 5.8 C 36 %
1506 14-02-2020 10:57:18 5.9 C 35 %
1507 14-02-2020 11:07:18 6.2 C 35 %
1508 14-02-2020 11:17:18 6.1 C 35 %
1509 14-02-2020 11:27:18 6.1 C 35 %
1510 14-02-2020 11:37:17 6.2 C 35 %
1511 14-02-2020 11:47:18 6.3 C 35 %
1512 14-02-2020 11:57:18 6.4 C 35 %
1513 14-02-2020 12:07:17 6.6 C 35 %
1514 14-02-2020 12:17:17 6.8 C 35 %
1515 14-02-2020 12:27:17 6.9 C 34 %
1516 14-02-2020 12:37:17 7 C 33 %
1517 14-02-2020 12:47:18 7.2 C 32 %
1518 14-02-2020 12:57:18 7.3 C 32 %
1519 14-02-2020 13:07:17 7.5 C 32 %
1520 14-02-2020 13:17:17 7.3 C 31 %
1521 14-02-2020 13:27:17 7.5 C 31 %
1522 14-02-2020 13:37:17 7.5 C 31 %
1523 14-02-2020 13:47:17 7.5 C 31 %
1524 14-02-2020 13:57:17 7.7 C 31 %
1525 14-02-2020 14:07:18 7.9 C 31 %
Sensor: Nr:Datum:Temp:Feuchte:
Aussen-T/F 1526 14-02-2020 14:17:18 7.9 C 31 %
1527 14-02-2020 14:27:18 7.9 C 30 %
1528 14-02-2020 14:37:17 7.9 C 30 %
1529 14-02-2020 14:47:18 7.9 C 30 %
1530 14-02-2020 14:57:18 7.9 C 30 %
1531 14-02-2020 15:07:17 7.9 C 30 %
1532 14-02-2020 15:17:17 7.8 C 30 %
1533 14-02-2020 15:27:17 8 C 30 %
1534 14-02-2020 15:37:17 8.1 C 30 %
1535 14-02-2020 15:47:17 8.2 C 30 %
1536 14-02-2020 15:57:17 8.1 C 29 %
1537 14-02-2020 16:07:17 8.2 C 29 %
1538 14-02-2020 16:17:17 8.1 C 30 %
1539 14-02-2020 16:27:17 8.1 C 30 %
1540 14-02-2020 16:37:18 7.9 C 31 %
1541 14-02-2020 16:47:18 7.7 C 33 %
1542 14-02-2020 16:57:18 7.5 C 34 %
1543 14-02-2020 17:07:18 7.1 C 34 %
1544 14-02-2020 17:17:17 6.9 C 36 %
1545 14-02-2020 17:27:17 6.7 C 36 %
1546 14-02-2020 17:37:17 6.4 C 36 %
1547 14-02-2020 17:47:17 6.2 C 37 %
1548 14-02-2020 17:57:17 6.2 C 37 %
1549 14-02-2020 18:07:17 6.2 C 37 %
1550 14-02-2020 18:17:17 6.2 C 37 %
Sensor: Nr:Datum:Temp:Feuchte:
Aussen-T/F 1551 14-02-2020 18:27:18 6.1 C 37 %
1552 14-02-2020 18:37:17 6.2 C 37 %
1553 14-02-2020 18:47:17 6.2 C 37 %
1554 14-02-2020 18:57:17 5.8 C 38 %
1555 14-02-2020 19:07:18 5.7 C 38 %
1556 14-02-2020 19:17:17 5.4 C 38 %
1557 14-02-2020 19:27:17 5 C 38 %
1558 14-02-2020 19:37:17 4.7 C 40 %
1559 14-02-2020 19:47:17 4.7 C 41 %
1560 14-02-2020 19:57:17 4.5 C 42 %
1561 14-02-2020 20:07:17 4.6 C 42 %
1562 14-02-2020 20:17:17 4.3 C 41 %
1563 14-02-2020 20:27:17 3.9 C 42 %
1564 14-02-2020 20:37:18 3.6 C 45 %
1565 14-02-2020 20:47:17 3.5 C 44 %
1566 14-02-2020 20:57:17 3.3 C 45 %
1567 14-02-2020 21:07:17 3.4 C 46 %
1568 14-02-2020 21:17:17 3.3 C 45 %
1569 14-02-2020 21:27:17 2.8 C 46 %
1570 14-02-2020 21:37:17 2.7 C 46 %
1571 14-02-2020 21:47:17 2.7 C 46 %
1572 14-02-2020 21:57:17 2.5 C 46 %
1573 14-02-2020 22:07:17 2.3 C 46 %
1574 14-02-2020 22:17:17 2.5 C 47 %
1575 14-02-2020 22:27:17 2.5 C 46 %
Sensor: Nr:Datum:Temp:Feuchte:
Aussen-T/F 1576 14-02-2020 22:37:17 2.1 C 46 %
1577 14-02-2020 22:47:17 2 C 46 %
1578 14-02-2020 22:57:17 1.8 C 47 %
1579 14-02-2020 23:07:18 2.1 C 46 %
1580 14-02-2020 23:17:18 2.1 C 46 %
1581 14-02-2020 23:27:18 2.5 C 47 %
1582 14-02-2020 23:37:17 1.9 C 47 %
1583 14-02-2020 23:47:18 1.6 C 47 %
1584 14-02-2020 23:57:18 1.7 C 47 %
1585 15-02-2020 00:07:18 1.6 C 47 %
1586 15-02-2020 00:17:17 1.7 C 47 %
1587 15-02-2020 00:27:17 1.7 C 47 %
1588 15-02-2020 00:37:17 1.7 C 47 %
1589 15-02-2020 00:47:17 1.8 C 47 %
1590 15-02-2020 00:57:17 1.9 C 47 %
1591 15-02-2020 01:07:17 2.1 C 46 %
1592 15-02-2020 01:17:17 2.5 C 46 %
1593 15-02-2020 01:27:17 2.4 C 46 %
1594 15-02-2020 01:37:18 2.4 C 46 %
1595 15-02-2020 01:47:17 2.6 C 46 %
1596 15-02-2020 01:57:17 2.4 C 46 %
1597 15-02-2020 02:07:18 2.3 C 46 %
1598 15-02-2020 02:17:17 2.6 C 46 %
1599 15-02-2020 02:27:17 2.3 C 46 %
1600 15-02-2020 02:37:17 2.2 C 46 %
Sensor: Nr:Datum:Temp:Feuchte:
Aussen-T/F 1601 15-02-2020 02:47:17 2 C 45 %
1602 15-02-2020 02:57:17 2 C 46 %
1603 15-02-2020 03:07:18 1.9 C 47 %
1604 15-02-2020 03:17:18 1.7 C 46 %
1605 15-02-2020 03:27:18 1.7 C 46 %
1606 15-02-2020 03:37:17 1.8 C 47 %
1607 15-02-2020 03:47:18 1.3 C 46 %
1608 15-02-2020 03:57:18 1.3 C 46 %
1609 15-02-2020 04:07:17 1.4 C 46 %
1610 15-02-2020 04:17:17 1.2 C 46 %
1611 15-02-2020 04:27:17 1.3 C 46 %
1612 15-02-2020 04:37:17 1.2 C 46 %
1613 15-02-2020 04:47:17 1.5 C 46 %
1614 15-02-2020 04:57:17 1.4 C 46 %
1615 15-02-2020 05:07:17 1.1 C 46 %
1616 15-02-2020 05:17:17 1 C 46 %
1617 15-02-2020 05:27:17 0.9 C 47 %
1618 15-02-2020 05:37:18 1.2 C 46 %
1619 15-02-2020 05:47:17 0.8 C 47 %
1620 15-02-2020 05:57:17 0.8 C 47 %
1621 15-02-2020 06:07:18 1 C 46 %
1622 15-02-2020 06:17:17 0.7 C 47 %
1623 15-02-2020 06:27:18 0.6 C 47 %
1624 15-02-2020 06:37:18 0.5 C 47 %
1625 15-02-2020 06:47:17 0.7 C 47 %
Sensor: Nr:Datum:Temp:Feuchte:
Aussen-T/F 1626 15-02-2020 06:57:17 0.7 C 47 %
1627 15-02-2020 07:07:18 0.7 C 47 %
1628 15-02-2020 07:17:18 0.3 C 47 %
1629 15-02-2020 07:27:18 0.3 C 47 %
1630 15-02-2020 07:37:18 0.8 C 47 %
1631 15-02-2020 07:47:17 1.1 C 46 %
1632 15-02-2020 07:57:18 1.1 C 46 %
1633 15-02-2020 08:07:17 0.9 C 47 %
1634 15-02-2020 08:17:18 1.3 C 46 %
1635 15-02-2020 08:27:18 1.8 C 46 %
1636 15-02-2020 08:37:18 2 C 45 %
1637 15-02-2020 08:47:17 2 C 45 %
1638 15-02-2020 08:57:18 2.6 C 45 %
1639 15-02-2020 09:07:18 2.8 C 45 %
1640 15-02-2020 09:17:17 3.1 C 45 %
1641 15-02-2020 09:27:17 3.2 C 45 %
1642 15-02-2020 09:37:17 3.6 C 45 %
1643 15-02-2020 09:47:17 3.7 C 45 %
1644 15-02-2020 09:57:17 4.2 C 44 %
1645 15-02-2020 10:07:17 3.7 C 44 %
1646 15-02-2020 10:17:17 4.4 C 44 %
1647 15-02-2020 10:27:17 4.6 C 44 %
1648 15-02-2020 10:37:18 5.1 C 43 %
1649 15-02-2020 10:47:17 5.4 C 43 %
1650 15-02-2020 10:57:17 5.6 C 42 %
Sensor: Nr:Datum:Temp:Feuchte:
Aussen-T/F 1651 15-02-2020 11:07:18 6.4 C 40 %
1652 15-02-2020 11:17:18 6.9 C 41 %
1653 15-02-2020 11:27:18 6.8 C 40 %
1654 15-02-2020 11:37:17 7.3 C 41 %
1655 15-02-2020 11:47:18 8 C 40 %
1656 15-02-2020 11:57:18 8.4 C 36 %
1657 15-02-2020 12:07:18 8.7 C 36 %
1658 15-02-2020 12:17:17 9.1 C 37 %
1659 15-02-2020 12:27:17 9.9 C 36 %
1660 15-02-2020 12:37:17 10.3 C 33 %
1661 15-02-2020 12:47:17 10.7 C 32 %
1662 15-02-2020 12:57:17 11.3 C 30 %
1663 15-02-2020 13:07:18 11.6 C 30 %
1664 15-02-2020 13:17:17 13.7 C 21 %
1665 15-02-2020 13:27:17 14.7 C 20 %
1666 15-02-2020 13:37:17 15.7 C 20 %
1667 15-02-2020 13:47:17 14.1 C 20 %
1668 15-02-2020 13:57:17 13 C 20 %
1669 15-02-2020 14:07:18 11.4 C 24 %
1670 15-02-2020 14:17:17 11.2 C 25 %
1671 15-02-2020 14:27:17 11.2 C 25 %
1672 15-02-2020 14:37:17 11.3 C 25 %
1673 15-02-2020 14:47:17 11 C 25 %
1674 15-02-2020 14:57:17 11.9 C 23 %
1675 15-02-2020 15:07:17 11.3 C 26 %
Sensor: Nr:Datum:Temp:Feuchte:
Aussen-T/F 1676 15-02-2020 15:17:17 12.5 C 21 %
1677 15-02-2020 15:27:17 12.7 C 20 %
1678 15-02-2020 15:37:18 12.1 C 21 %
1679 15-02-2020 15:47:17 11.9 C 23 %
1680 15-02-2020 15:57:18 11.7 C 25 %
1681 15-02-2020 16:07:18 12.1 C 21 %
1682 15-02-2020 16:17:18 12.1 C 23 %
1683 15-02-2020 16:27:18 11.4 C 25 %
1684 15-02-2020 16:37:18 9.8 C 30 %
1685 15-02-2020 16:47:18 9.3 C 30 %
1686 15-02-2020 16:57:18 9.2 C 30 %
1687 15-02-2020 17:07:17 8.5 C 32 %
1688 15-02-2020 17:17:17 8.4 C 33 %
1689 15-02-2020 17:27:17 7.8 C 35 %
1690 15-02-2020 17:37:18 7.4 C 35 %
1691 15-02-2020 17:47:18 7.3 C 35 %
1692 15-02-2020 17:57:18 7.3 C 36 %
1693 15-02-2020 18:07:17 7.3 C 36 %
1694 15-02-2020 18:17:17 7.1 C 36 %
1695 15-02-2020 18:27:17 7.1 C 36 %
1696 15-02-2020 18:37:17 6.8 C 36 %
1697 15-02-2020 18:47:17 7.1 C 36 %
1698 15-02-2020 18:57:17 7 C 36 %
1699 15-02-2020 19:07:17 6.9 C 36 %
1700 15-02-2020 19:17:18 6.8 C 36 %
Sensor: Nr:Datum:Temp:Feuchte:
Aussen-T/F 1701 15-02-2020 19:27:18 6.9 C 37 %
1702 15-02-2020 19:37:18 7.1 C 36 %
1703 15-02-2020 19:47:17 6.7 C 37 %
1704 15-02-2020 19:57:17 6.7 C 37 %
1705 15-02-2020 20:07:17 7.1 C 35 %
1706 15-02-2020 20:17:17 7.1 C 35 %
1707 15-02-2020 20:27:17 7.4 C 35 %
1708 15-02-2020 20:37:18 7.4 C 35 %
1709 15-02-2020 20:47:17 7.6 C 35 %
1710 15-02-2020 20:57:18 7.8 C 35 %
1711 15-02-2020 21:07:18 7.6 C 35 %
1712 15-02-2020 21:17:18 7.6 C 35 %
1713 15-02-2020 21:27:18 8.1 C 33 %
1714 15-02-2020 21:37:17 7.8 C 34 %
1715 15-02-2020 21:47:17 7.6 C 34 %
1716 15-02-2020 21:57:17 7.7 C 34 %
1717 15-02-2020 22:07:17 7.9 C 33 %
1718 15-02-2020 22:17:18 7.7 C 34 %
1719 15-02-2020 22:27:18 8.4 C 32 %
1720 15-02-2020 22:37:18 8.2 C 32 %
1721 15-02-2020 22:47:18 8.4 C 32 %
1722 15-02-2020 22:57:18 8.6 C 32 %
1723 15-02-2020 23:07:18 10.6 C 29 %
1724 15-02-2020 23:17:17 9.7 C 30 %
1725 15-02-2020 23:27:17 9.2 C 31 %
Sensor: Nr:Datum:Temp:Feuchte:
Aussen-T/F 1726 15-02-2020 23:37:17 9.1 C 31 %
1727 15-02-2020 23:47:18 10 C 29 %
1728 15-02-2020 23:57:18 9.8 C 30 %
1729 16-02-2020 00:07:18 9.3 C 30 %
1730 16-02-2020 00:17:17 9.8 C 30 %
1731 16-02-2020 00:27:17 9.2 C 30 %
1732 16-02-2020 00:37:17 9.2 C 30 %
1733 16-02-2020 00:47:17 10 C 29 %
1734 16-02-2020 00:57:17 9.7 C 30 %
1735 16-02-2020 01:07:18 9.7 C 30 %
1736 16-02-2020 01:17:18 10.5 C 29 %
1737 16-02-2020 01:27:18 10.4 C 29 %
1738 16-02-2020 01:37:18 9.7 C 30 %
1739 16-02-2020 01:47:18 9.7 C 30 %
1740 16-02-2020 01:57:18 10 C 30 %
1741 16-02-2020 02:07:17 10.5 C 30 %
1742 16-02-2020 02:17:17 10.5 C 30 %
1743 16-02-2020 02:27:18 10.8 C 29 %
1744 16-02-2020 02:37:18 10.6 C 30 %
1745 16-02-2020 02:47:18 10.9 C 30 %
1746 16-02-2020 02:57:18 11.1 C 28 %
1747 16-02-2020 03:07:17 11.4 C 28 %
1748 16-02-2020 03:17:17 11.4 C 28 %
1749 16-02-2020 03:27:17 12.1 C 27 %
1750 16-02-2020 03:37:18 12 C 27 %
Sensor: Nr:Datum:Temp:Feuchte:
Aussen-T/F 1751 16-02-2020 03:47:17 12.3 C 27 %
1752 16-02-2020 03:57:18 12.4 C 26 %
1753 16-02-2020 04:07:18 12.1 C 26 %
1754 16-02-2020 04:17:18 12.2 C 26 %
1755 16-02-2020 04:27:18 12 C 26 %
1756 16-02-2020 04:37:17 11.7 C 27 %
1757 16-02-2020 04:47:17 11.8 C 26 %
1758 16-02-2020 04:57:17 11.7 C 26 %
1759 16-02-2020 05:07:17 11.5 C 27 %
1760 16-02-2020 05:17:17 11.3 C 27 %
1761 16-02-2020 05:27:18 11.5 C 27 %
1762 16-02-2020 05:37:18 11.4 C 27 %
1763 16-02-2020 05:47:17 11.6 C 27 %
1764 16-02-2020 05:57:18 12.2 C 25 %
1765 16-02-2020 06:07:17 12.6 C 25 %
1766 16-02-2020 06:17:17 12.6 C 25 %
1767 16-02-2020 06:27:17 12.9 C 24 %
1768 16-02-2020 06:37:18 13.1 C 21 %
1769 16-02-2020 06:47:17 13.6 C 21 %
1770 16-02-2020 06:57:17 13.2 C 21 %
1771 16-02-2020 07:07:17 13.5 C 22 %
1772 16-02-2020 07:17:17 13.5 C 23 %
1773 16-02-2020 07:27:17 13.8 C 23 %
1774 16-02-2020 07:37:17 14.1 C 23 %
1775 16-02-2020 07:47:17 13.9 C 24 %
Sensor: Nr:Datum:Temp:Feuchte:
Aussen-T/F 1776 16-02-2020 07:57:17 13.7 C 25 %
1777 16-02-2020 08:07:18 13.8 C 25 %
1778 16-02-2020 08:17:17 13.4 C 25 %
1779 16-02-2020 08:27:17 13.3 C 25 %
1780 16-02-2020 08:37:18 13.4 C 25 %
1781 16-02-2020 08:47:17 13.6 C 25 %
1782 16-02-2020 08:57:17 13.6 C 25 %
1783 16-02-2020 09:07:18 13.7 C 25 %
1784 16-02-2020 09:17:17 13.9 C 25 %
1785 16-02-2020 09:27:17 14 C 25 %
1786 16-02-2020 09:37:17 14 C 23 %
1787 16-02-2020 09:47:18 14.1 C 23 %
1788 16-02-2020 09:57:18 14.2 C 23 %
1789 16-02-2020 10:07:18 14.3 C 23 %
1790 16-02-2020 10:17:18 14.2 C 23 %
1791 16-02-2020 10:27:18 14.5 C 23 %
1792 16-02-2020 10:37:18 14.7 C 22 %
1793 16-02-2020 10:47:18 15.1 C 21 %
1794 16-02-2020 10:57:18 15.2 C 21 %
1795 16-02-2020 11:07:17 15.2 C 20 %
1796 16-02-2020 11:17:17 15.8 C 20 %
1797 16-02-2020 11:27:17 16.1 C 20 %
1798 16-02-2020 11:37:17 16.1 C 20 %
1799 16-02-2020 11:47:17 16.4 C 20 %
1800 16-02-2020 11:57:17 16.3 C 20 %
Sensor: Nr:Datum:Temp:Feuchte:
Aussen-T/F 1801 16-02-2020 12:07:17 16.4 C 20 %
1802 16-02-2020 12:17:17 17 C 20 %
1803 16-02-2020 12:27:17 17.3 C 20 %
1804 16-02-2020 12:37:18 17.2 C 20 %
1805 16-02-2020 12:47:18 17.9 C 20 %
1806 16-02-2020 12:57:18 18.6 C 20 %
1807 16-02-2020 13:07:18 17.9 C 20 %
1808 16-02-2020 13:17:18 18.6 C 20 %
1809 16-02-2020 13:27:18 18.1 C 20 %
1810 16-02-2020 13:37:17 20 C 20 %
1811 16-02-2020 13:47:17 19.1 C 20 %
1812 16-02-2020 13:57:17 18 C 20 %
1813 16-02-2020 14:07:17 18 C 20 %
1814 16-02-2020 14:17:17 18.2 C 20 %
1815 16-02-2020 14:27:17 18.5 C 20 %
1816 16-02-2020 14:37:18 18.3 C 20 %
1817 16-02-2020 14:47:17 18.6 C 20 %
1818 16-02-2020 14:57:17 18.5 C 20 %
1819 16-02-2020 15:07:18 18.1 C 20 %
1820 16-02-2020 15:17:17 18 C 20 %
1821 16-02-2020 15:27:17 17.9 C 20 %
1822 16-02-2020 15:37:17 18 C 20 %
1823 16-02-2020 15:47:17 18.4 C 20 %
1824 16-02-2020 15:57:17 18.7 C 20 %
1825 16-02-2020 16:07:18 18.6 C 20 %
Sensor: Nr:Datum:Temp:Feuchte:
Aussen-T/F 1826 16-02-2020 16:17:17 18.4 C 20 %
1827 16-02-2020 16:27:17 18.4 C 20 %
1828 16-02-2020 16:37:17 17.8 C 20 %
1829 16-02-2020 16:47:17 17.2 C 20 %
1830 16-02-2020 16:57:17 16.6 C 20 %
1831 16-02-2020 17:07:17 16.3 C 20 %
1832 16-02-2020 17:17:18 16 C 20 %
1833 16-02-2020 17:27:18 15.3 C 20 %
1834 16-02-2020 17:37:17 15 C 20 %
1835 16-02-2020 17:47:18 14.9 C 20 %
1836 16-02-2020 17:57:18 14.7 C 20 %
1837 16-02-2020 18:07:17 15.3 C 20 %
1838 16-02-2020 18:17:17 14.9 C 20 %
1839 16-02-2020 18:27:17 15.1 C 20 %
1840 16-02-2020 18:37:18 15 C 20 %
1841 16-02-2020 18:47:17 15.7 C 20 %
1842 16-02-2020 18:57:18 14.9 C 20 %
1843 16-02-2020 19:07:18 15.9 C 20 %
1844 16-02-2020 19:17:17 15.4 C 20 %
1845 16-02-2020 19:27:17 15.9 C 20 %
1846 16-02-2020 19:37:18 15.5 C 20 %
1847 16-02-2020 19:47:17 15.8 C 20 %
1848 16-02-2020 19:57:18 15.4 C 20 %
1849 16-02-2020 20:07:18 15.7 C 20 %
1850 16-02-2020 20:17:17 15.9 C 20 %
Sensor: Nr:Datum:Temp:Feuchte:
Aussen-T/F 1851 16-02-2020 20:27:17 15.9 C 20 %
1852 16-02-2020 20:37:17 15.8 C 20 %
1853 16-02-2020 20:47:17 16 C 20 %
1854 16-02-2020 20:57:17 16.1 C 20 %
1855 16-02-2020 21:07:18 16.2 C 20 %
1856 16-02-2020 21:17:17 16.1 C 20 %
1857 16-02-2020 21:27:17 16.3 C 20 %
1858 16-02-2020 21:37:17 16.3 C 20 %
1859 16-02-2020 21:47:17 16.8 C 20 %
1860 16-02-2020 21:57:17 16.5 C 20 %
1861 16-02-2020 22:07:18 16.3 C 20 %
1862 16-02-2020 22:17:18 16.2 C 20 %
1863 16-02-2020 22:27:18 16.1 C 20 %
1864 16-02-2020 22:37:17 16.1 C 20 %
1865 16-02-2020 22:47:17 16 C 20 %
1866 16-02-2020 22:57:17 15.8 C 20 %
1867 16-02-2020 23:07:17 15.2 C 20 %
1868 16-02-2020 23:17:18 12.5 C 30 %
1869 16-02-2020 23:27:18 10.5 C 34 %
1870 16-02-2020 23:37:18 10.1 C 35 %
1871 16-02-2020 23:47:18 9.8 C 35 %
1872 16-02-2020 23:57:18 9.6 C 35 %
1873 17-02-2020 00:07:18 9.3 C 36 %
1874 17-02-2020 00:17:17 9.1 C 39 %
1875 17-02-2020 00:27:17 9.1 C 37 %
Sensor: Nr:Datum:Temp:Feuchte:
Aussen-T/F 1876 17-02-2020 00:37:17 9.4 C 36 %
1877 17-02-2020 00:47:18 9.1 C 35 %
1878 17-02-2020 00:57:18 9.1 C 35 %
1879 17-02-2020 01:07:18 8.9 C 36 %
1880 17-02-2020 01:17:17 8.9 C 36 %
1881 17-02-2020 01:27:17 9 C 35 %
1882 17-02-2020 01:37:18 8.4 C 36 %
1883 17-02-2020 01:47:17 8.2 C 37 %
1884 17-02-2020 01:57:18 7.9 C 41 %
1885 17-02-2020 02:07:18 8.2 C 39 %
1886 17-02-2020 02:17:17 8.4 C 35 %
1887 17-02-2020 02:27:17 8.2 C 33 %
1888 17-02-2020 02:37:17 8.1 C 32 %
1889 17-02-2020 02:47:17 8 C 32 %
1890 17-02-2020 02:57:17 8.1 C 31 %
1891 17-02-2020 03:07:17 8.1 C 32 %
1892 17-02-2020 03:17:17 8 C 32 %
1893 17-02-2020 03:27:17 7.9 C 32 %
1894 17-02-2020 03:37:17 8.1 C 32 %
1895 17-02-2020 03:47:17 8.1 C 32 %
1896 17-02-2020 03:57:17 8.1 C 32 %
1897 17-02-2020 04:07:17 7.9 C 32 %
1898 17-02-2020 04:17:18 7.9 C 32 %
1899 17-02-2020 04:27:18 8.1 C 32 %
1900 17-02-2020 04:37:17 7.8 C 33 %
Sensor: Nr:Datum:Temp:Feuchte:
Aussen-T/F 1901 17-02-2020 04:47:17 7.8 C 33 %
1902 17-02-2020 04:57:17 7.8 C 33 %
1903 17-02-2020 05:07:17 7.6 C 33 %
1904 17-02-2020 05:17:18 7.6 C 33 %
1905 17-02-2020 05:27:18 7.5 C 34 %
1906 17-02-2020 05:37:17 7.5 C 34 %
1907 17-02-2020 05:47:17 7.6 C 34 %
1908 17-02-2020 05:57:17 7.4 C 34 %
1909 17-02-2020 06:07:17 7.4 C 34 %
1910 17-02-2020 06:17:17 7.5 C 35 %
1911 17-02-2020 06:27:17 7.9 C 34 %
1912 17-02-2020 06:37:17 7.6 C 34 %
1913 17-02-2020 06:47:17 7.9 C 34 %
1914 17-02-2020 06:57:17 8 C 33 %
1915 17-02-2020 07:07:18 7.9 C 34 %
1916 17-02-2020 07:17:17 7.7 C 34 %
1917 17-02-2020 07:27:17 7.5 C 35 %
1918 17-02-2020 07:37:17 7.5 C 35 %
1919 17-02-2020 07:47:17 7.3 C 35 %
1920 17-02-2020 07:57:17 7.3 C 35 %
1921 17-02-2020 08:07:18 7.7 C 35 %
1922 17-02-2020 08:17:17 7.8 C 34 %
1923 17-02-2020 08:27:17 7.9 C 34 %
1924 17-02-2020 08:37:17 7.7 C 35 %
1925 17-02-2020 08:47:17 8.2 C 33 %
Sensor: Nr:Datum:Temp:Feuchte:
Aussen-T/F 1926 17-02-2020 08:57:17 8.2 C 33 %
1927 17-02-2020 09:07:17 8.3 C 33 %
1928 17-02-2020 09:17:17 8.4 C 33 %
1929 17-02-2020 09:27:17 8.4 C 33 %
1930 17-02-2020 09:37:18 8.4 C 33 %
1931 17-02-2020 09:47:17 8.3 C 33 %
1932 17-02-2020 09:57:18 8.4 C 32 %
1933 17-02-2020 10:07:18 8.5 C 32 %
1934 17-02-2020 10:17:17 8.6 C 32 %
1935 17-02-2020 10:27:17 8.8 C 32 %
1936 17-02-2020 10:37:17 9 C 32 %
1937 17-02-2020 10:47:17 9.1 C 32 %
1938 17-02-2020 10:57:17 9.1 C 31 %
1939 17-02-2020 11:07:17 9.2 C 31 %
1940 17-02-2020 11:17:17 9.2 C 31 %
1941 17-02-2020 11:27:17 9.4 C 30 %
1942 17-02-2020 11:37:17 9.4 C 30 %
1943 17-02-2020 11:47:18 9.3 C 30 %
1944 17-02-2020 11:57:18 9.4 C 30 %
1945 17-02-2020 12:07:17 9.3 C 30 %
1946 17-02-2020 12:17:17 9.3 C 30 %
1947 17-02-2020 12:27:17 9.2 C 30 %
1948 17-02-2020 12:37:17 9.5 C 29 %
1949 17-02-2020 12:47:17 9.5 C 28 %
1950 17-02-2020 12:57:17 9.6 C 28 %
Sensor: Nr:Datum:Temp:Feuchte:
Aussen-T/F 1951 17-02-2020 13:07:18 10 C 26 %
1952 17-02-2020 13:17:17 10.4 C 26 %
1953 17-02-2020 13:27:17 10.5 C 25 %
1954 17-02-2020 13:37:17 11.2 C 24 %
1955 17-02-2020 13:47:17 10.7 C 25 %
1956 17-02-2020 13:57:17 10.4 C 25 %
1957 17-02-2020 14:07:17 10.5 C 25 %
1958 17-02-2020 14:17:18 10.5 C 25 %
1959 17-02-2020 14:27:18 11.1 C 25 %
1960 17-02-2020 14:37:18 10.6 C 25 %
1961 17-02-2020 14:47:18 10.5 C 25 %
1962 17-02-2020 14:57:18 10.3 C 25 %
1963 17-02-2020 15:07:17 11.1 C 25 %
1964 17-02-2020 15:17:17 10.9 C 25 %
1965 17-02-2020 15:27:17 11.2 C 24 %
1966 17-02-2020 15:37:17 11.3 C 24 %
1967 17-02-2020 15:47:17 11.2 C 24 %
1968 17-02-2020 15:57:17 11.4 C 24 %
1969 17-02-2020 16:07:17 10.8 C 25 %
1970 17-02-2020 16:17:17 11.7 C 24 %
1971 17-02-2020 16:27:17 11.1 C 24 %
1972 17-02-2020 16:37:17 12.8 C 20 %
1973 17-02-2020 16:47:17 12.9 C 20 %
1974 17-02-2020 16:57:17 11.2 C 21 %
1975 17-02-2020 17:07:18 10.2 C 25 %
Sensor: Nr:Datum:Temp:Feuchte:
Aussen-T/F 1976 17-02-2020 17:17:17 10.3 C 25 %
1977 17-02-2020 17:27:17 9.5 C 27 %
1978 17-02-2020 17:37:17 7 C 36 %
1979 17-02-2020 17:47:17 7.1 C 35 %
1980 17-02-2020 17:57:17 7.2 C 34 %
1981 17-02-2020 18:07:18 7.1 C 33 %
1982 17-02-2020 18:17:18 7.3 C 32 %
1983 17-02-2020 18:27:18 7 C 33 %
1984 17-02-2020 18:37:18 6.7 C 33 %
1985 17-02-2020 18:47:17 6.8 C 33 %
1986 17-02-2020 18:57:18 6.8 C 33 %
1987 17-02-2020 19:07:18 6.4 C 33 %
1988 17-02-2020 19:17:17 5.7 C 35 %
1989 17-02-2020 19:27:17 5.6 C 36 %
1990 17-02-2020 19:37:17 5.7 C 36 %
1991 17-02-2020 19:47:17 6.3 C 35 %
1992 17-02-2020 19:57:17 5.3 C 36 %
1993 17-02-2020 20:07:17 4.8 C 38 %
1994 17-02-2020 20:17:17 4.6 C 40 %
1995 17-02-2020 20:27:17 4.5 C 41 %
1996 17-02-2020 20:37:17 4.4 C 42 %
1997 17-02-2020 20:47:17 3.8 C 43 %
1998 17-02-2020 20:57:17 4.1 C 44 %
1999 17-02-2020 21:07:18 4.3 C 45 %
2000 17-02-2020 21:17:17 5 C 43 %
Sensor: Nr:Datum:Temp:Feuchte:
Aussen-T/F 2001 17-02-2020 21:27:17 5.7 C 40 %
2002 17-02-2020 21:37:17 5 C 39 %
2003 17-02-2020 21:47:17 5.2 C 40 %
2004 17-02-2020 21:57:17 5.1 C 40 %
2005 17-02-2020 22:07:18 6.3 C 38 %
2006 17-02-2020 22:17:17 7.1 C 35 %
2007 17-02-2020 22:27:17 7.5 C 35 %
2008 17-02-2020 22:37:17 7.7 C 34 %
2009 17-02-2020 22:47:17 7.9 C 34 %
2010 17-02-2020 22:57:17 8 C 33 %
2011 17-02-2020 23:07:17 8 C 33 %
2012 17-02-2020 23:17:18 7.8 C 33 %
2013 17-02-2020 23:27:18 6.9 C 35 %
2014 17-02-2020 23:37:17 7.2 C 35 %
2015 17-02-2020 23:47:18 7.7 C 33 %
2016 17-02-2020 23:57:18 7.6 C 33 %
2017 18-02-2020 00:07:18 7.8 C 32 %
2018 18-02-2020 00:17:17 7.8 C 32 %
2019 18-02-2020 00:27:17 7.9 C 32 %
2020 18-02-2020 00:37:18 7.8 C 31 %
2021 18-02-2020 00:47:18 7.9 C 31 %
2022 18-02-2020 00:57:18 7.8 C 31 %
2023 18-02-2020 01:07:18 7.8 C 31 %
2024 18-02-2020 01:17:17 7.8 C 31 %
2025 18-02-2020 01:27:17 7.7 C 31 %
Sensor: Nr:Datum:Temp:Feuchte:
Aussen-T/F 2026 18-02-2020 01:37:17 7.7 C 32 %
2027 18-02-2020 01:47:17 7.5 C 32 %
2028 18-02-2020 01:57:17 7.5 C 32 %
2029 18-02-2020 02:07:18 7.4 C 32 %
2030 18-02-2020 02:17:17 7.2 C 32 %
2031 18-02-2020 02:27:17 7 C 32 %
2032 18-02-2020 02:37:17 7 C 32 %
2033 18-02-2020 02:47:18 6.8 C 33 %
2034 18-02-2020 02:57:18 7.1 C 32 %
2035 18-02-2020 03:07:18 7.1 C 32 %
2036 18-02-2020 03:17:17 7.3 C 32 %
2037 18-02-2020 03:27:17 7.3 C 31 %
2038 18-02-2020 03:37:17 7.1 C 32 %
2039 18-02-2020 03:47:17 6.6 C 33 %
2040 18-02-2020 03:57:17 6.6 C 33 %
2041 18-02-2020 04:07:17 6.4 C 33 %
2042 18-02-2020 04:17:17 6.2 C 33 %
2043 18-02-2020 04:27:17 6.2 C 33 %
2044 18-02-2020 04:37:18 5.9 C 34 %
2045 18-02-2020 04:47:17 6.3 C 33 %
2046 18-02-2020 04:57:18 6 C 33 %
2047 18-02-2020 05:07:18 5.9 C 33 %
2048 18-02-2020 05:17:17 5.8 C 33 %
2049 18-02-2020 05:27:17 6 C 33 %
2050 18-02-2020 05:37:17 5.7 C 33 %
Sensor: Nr:Datum:Temp:Feuchte:
Aussen-T/F 2051 18-02-2020 05:47:18 5.7 C 33 %
2052 18-02-2020 05:57:18 5.8 C 34 %
2053 18-02-2020 06:07:18 5.6 C 34 %
2054 18-02-2020 06:17:17 5.6 C 34 %
2055 18-02-2020 06:27:17 5.7 C 34 %
2056 18-02-2020 06:37:18 5.6 C 34 %
2057 18-02-2020 06:47:17 5.6 C 34 %
2058 18-02-2020 06:57:17 5.4 C 34 %
2059 18-02-2020 07:07:18 5.2 C 34 %
2060 18-02-2020 07:17:18 5.4 C 34 %
2061 18-02-2020 07:27:18 5.3 C 35 %
2062 18-02-2020 07:37:17 5.1 C 35 %
2063 18-02-2020 07:47:17 5 C 35 %
2064 18-02-2020 07:57:17 5.3 C 35 %
2065 18-02-2020 08:07:17 4.8 C 35 %
2066 18-02-2020 08:17:17 5.4 C 34 %
2067 18-02-2020 08:27:17 5.1 C 35 %
2068 18-02-2020 08:37:18 5.1 C 35 %
2069 18-02-2020 08:47:18 5.3 C 35 %
2070 18-02-2020 08:57:18 5.3 C 35 %
2071 18-02-2020 09:07:18 5.4 C 35 %
2072 18-02-2020 09:17:18 5.6 C 35 %
2073 18-02-2020 09:27:18 5.6 C 34 %
2074 18-02-2020 09:37:17 5.8 C 34 %
2075 18-02-2020 09:47:17 6 C 33 %
Sensor: Nr:Datum:Temp:Feuchte:
Aussen-T/F 2076 18-02-2020 09:57:17 6.2 C 32 %
2077 18-02-2020 10:07:17 6.1 C 32 %
2078 18-02-2020 10:17:18 6.1 C 32 %
2079 18-02-2020 10:27:18 6.3 C 32 %
2080 18-02-2020 10:37:17 6.7 C 32 %
2081 18-02-2020 10:47:18 6.9 C 31 %
2082 18-02-2020 10:57:18 7 C 30 %
2083 18-02-2020 11:07:17 7.4 C 30 %
2084 18-02-2020 11:17:17 8.1 C 30 %
2085 18-02-2020 11:27:17 8.2 C 29 %
2086 18-02-2020 11:37:17 7.6 C 29 %
2087 18-02-2020 11:47:17 7.7 C 29 %
2088 18-02-2020 11:57:17 7.5 C 29 %
2089 18-02-2020 12:07:17 7.8 C 29 %
2090 18-02-2020 12:17:18 8.1 C 29 %
2091 18-02-2020 12:27:18 8 C 28 %
2092 18-02-2020 12:37:17 7.9 C 28 %
2093 18-02-2020 12:47:17 8.5 C 28 %
2094 18-02-2020 12:57:17 9.7 C 25 %
2095 18-02-2020 13:07:17 10 C 20 %
2096 18-02-2020 13:17:17 8.5 C 25 %
2097 18-02-2020 13:27:17 7.8 C 26 %
2098 18-02-2020 13:37:18 8.6 C 26 %
2099 18-02-2020 13:47:17 9.2 C 25 %
2100 18-02-2020 13:57:17 8.2 C 26 %
Sensor: Nr:Datum:Temp:Feuchte:
Aussen-T/F 2101 18-02-2020 14:07:18 8.4 C 26 %
2102 18-02-2020 14:17:17 8.1 C 26 %
2103 18-02-2020 14:27:17 8.1 C 26 %
2104 18-02-2020 14:37:17 8 C 26 %
2105 18-02-2020 14:47:17 8.1 C 26 %
2106 18-02-2020 14:57:17 9 C 25 %
2107 18-02-2020 15:07:17 8.5 C 25 %
2108 18-02-2020 15:17:17 8.8 C 26 %
2109 18-02-2020 15:27:17 8.5 C 25 %
2110 18-02-2020 15:37:18 8.4 C 25 %
2111 18-02-2020 15:47:18 8.3 C 26 %
2112 18-02-2020 15:57:18 8.9 C 25 %
2113 18-02-2020 16:07:18 8.4 C 25 %
2114 18-02-2020 16:17:18 8.2 C 26 %
2115 18-02-2020 16:27:18 8.1 C 26 %
2116 18-02-2020 16:37:17 8.1 C 26 %
2117 18-02-2020 16:47:17 7.9 C 26 %
2118 18-02-2020 16:57:17 7.8 C 26 %
2119 18-02-2020 17:07:17 7.8 C 27 %
2120 18-02-2020 17:17:18 7.9 C 26 %
2121 18-02-2020 17:27:18 7.9 C 26 %
2122 18-02-2020 17:37:18 7.7 C 27 %
2123 18-02-2020 17:47:17 7.6 C 27 %
2124 18-02-2020 17:57:18 7.6 C 27 %
2125 18-02-2020 18:07:18 7.4 C 29 %
Sensor: Nr:Datum:Temp:Feuchte:
Aussen-T/F 2126 18-02-2020 18:17:18 7 C 29 %
2127 18-02-2020 18:27:18 7 C 30 %
2128 18-02-2020 18:37:17 6.4 C 31 %
2129 18-02-2020 18:47:18 6.6 C 31 %
2130 18-02-2020 18:57:18 6.1 C 32 %
2131 18-02-2020 19:07:18 5.8 C 33 %
2132 18-02-2020 19:17:17 5.3 C 34 %
2133 18-02-2020 19:27:17 5.5 C 35 %
2134 18-02-2020 19:37:17 5.5 C 35 %
2135 18-02-2020 19:47:17 5.9 C 34 %
2136 18-02-2020 19:57:17 5.7 C 34 %
2137 18-02-2020 20:07:18 5.5 C 34 %
2138 18-02-2020 20:17:18 5.7 C 35 %
2139 18-02-2020 20:27:18 6.4 C 33 %
2140 18-02-2020 20:37:17 6.7 C 32 %
2141 18-02-2020 20:47:17 6.5 C 32 %
2142 18-02-2020 20:57:17 6 C 33 %
2143 18-02-2020 21:07:17 6.3 C 33 %
2144 18-02-2020 21:17:17 6.3 C 33 %
2145 18-02-2020 21:27:17 6.5 C 32 %
2146 18-02-2020 21:37:17 6.3 C 33 %
2147 18-02-2020 21:47:17 6.2 C 33 %
2148 18-02-2020 21:57:17 6.5 C 33 %
2149 18-02-2020 22:07:17 6.9 C 32 %
2150 18-02-2020 22:17:17 6.9 C 33 %
Sensor: Nr:Datum:Temp:Feuchte:
Aussen-T/F 2151 18-02-2020 22:27:17 7 C 32 %
2152 18-02-2020 22:37:17 6.9 C 33 %
2153 18-02-2020 22:47:17 6.8 C 33 %
2154 18-02-2020 22:57:17 6.8 C 33 %
2155 18-02-2020 23:07:18 6.7 C 33 %
2156 18-02-2020 23:17:17 6.5 C 33 %
2157 18-02-2020 23:27:17 6.2 C 34 %
2158 18-02-2020 23:37:18 6.1 C 34 %
2159 18-02-2020 23:47:17 6.4 C 34 %
2160 18-02-2020 23:57:17 6.2 C 34 %
2161 19-02-2020 00:07:18 6.8 C 33 %
2162 19-02-2020 00:17:17 6.8 C 33 %
2163 19-02-2020 00:27:17 6.7 C 32 %
2164 19-02-2020 00:37:17 6.9 C 32 %
2165 19-02-2020 00:47:17 7 C 31 %
2166 19-02-2020 00:57:17 6.8 C 32 %
2167 19-02-2020 01:07:17 7 C 32 %
2168 19-02-2020 01:17:17 7 C 31 %
2169 19-02-2020 01:27:17 6.8 C 32 %
2170 19-02-2020 01:37:17 7 C 31 %
2171 19-02-2020 01:47:17 6.8 C 32 %
2172 19-02-2020 01:57:17 7 C 31 %
2173 19-02-2020 02:07:18 6.9 C 32 %
2174 19-02-2020 02:17:17 7.2 C 31 %
2175 19-02-2020 02:27:17 7 C 31 %
Sensor: Nr:Datum:Temp:Feuchte:
Aussen-T/F 2176 19-02-2020 02:37:17 6.8 C 32 %
2177 19-02-2020 02:47:18 6.8 C 32 %
2178 19-02-2020 02:57:18 6.9 C 32 %
2179 19-02-2020 03:07:17 6.9 C 32 %
2180 19-02-2020 03:17:17 6.7 C 33 %
2181 19-02-2020 03:27:17 6.6 C 33 %
2182 19-02-2020 03:37:17 6.4 C 34 %
2183 19-02-2020 03:47:17 6.2 C 35 %
2184 19-02-2020 03:57:17 5.9 C 36 %
2185 19-02-2020 04:07:18 6 C 36 %
2186 19-02-2020 04:17:17 6 C 36 %
2187 19-02-2020 04:27:18 5.9 C 37 %
2188 19-02-2020 04:37:18 5.8 C 37 %
2189 19-02-2020 04:47:17 5.9 C 37 %
2190 19-02-2020 04:57:17 6.2 C 36 %
2191 19-02-2020 05:07:18 6.3 C 36 %
2192 19-02-2020 05:17:17 6.4 C 35 %
2193 19-02-2020 05:27:17 6.4 C 35 %
2194 19-02-2020 05:37:17 6.3 C 35 %
2195 19-02-2020 05:47:17 6.3 C 34 %
2196 19-02-2020 05:57:17 6 C 34 %
2197 19-02-2020 06:07:18 6 C 34 %
2198 19-02-2020 06:17:17 5.9 C 35 %
2199 19-02-2020 06:27:17 5.9 C 35 %
2200 19-02-2020 06:37:18 5.8 C 35 %
Sensor: Nr:Datum:Temp:Feuchte:
Aussen-T/F 2201 19-02-2020 06:47:17 5.7 C 35 %
2202 19-02-2020 06:57:17 5.4 C 35 %
2203 19-02-2020 07:07:17 5.4 C 34 %
2204 19-02-2020 07:17:17 5.6 C 34 %
2205 19-02-2020 07:27:18 5.6 C 34 %
2206 19-02-2020 07:37:18 5.3 C 35 %
2207 19-02-2020 07:47:18 5.4 C 34 %
2208 19-02-2020 07:57:18 5.3 C 34 %
2209 19-02-2020 08:07:18 5.2 C 33 %
2210 19-02-2020 08:17:17 5.3 C 34 %
2211 19-02-2020 08:27:17 4.9 C 35 %
2212 19-02-2020 08:37:17 4.9 C 34 %
2213 19-02-2020 08:47:17 4.8 C 34 %
2214 19-02-2020 08:57:17 5 C 33 %
2215 19-02-2020 09:07:17 5.1 C 33 %
2216 19-02-2020 09:17:18 4.9 C 34 %
2217 19-02-2020 09:27:18 5.1 C 33 %
2218 19-02-2020 09:37:18 5.3 C 32 %
2219 19-02-2020 09:47:17 5.3 C 32 %
2220 19-02-2020 09:57:17 5.1 C 33 %
2221 19-02-2020 10:07:18 4.2 C 35 %
2222 19-02-2020 10:17:17 4.7 C 34 %
2223 19-02-2020 10:27:17 5.2 C 33 %
2224 19-02-2020 10:37:17 5.7 C 32 %
2225 19-02-2020 10:47:17 5.8 C 31 %
Sensor: Nr:Datum:Temp:Feuchte:
Aussen-T/F 2226 19-02-2020 10:57:17 5.9 C 31 %
2227 19-02-2020 11:07:18 6.4 C 31 %
2228 19-02-2020 11:17:17 6.9 C 30 %
2229 19-02-2020 11:27:17 6.7 C 30 %
2230 19-02-2020 11:37:17 6.4 C 28 %
2231 19-02-2020 11:47:18 6.5 C 27 %
2232 19-02-2020 11:57:18 6.6 C 27 %
2233 19-02-2020 12:07:18 6.7 C 27 %
2234 19-02-2020 12:17:17 6.6 C 26 %
2235 19-02-2020 12:27:18 6.8 C 26 %
2236 19-02-2020 12:37:18 6.8 C 25 %
2237 19-02-2020 12:47:18 6.9 C 25 %
2238 19-02-2020 12:57:18 7 C 25 %
2239 19-02-2020 13:07:17 7.2 C 25 %
2240 19-02-2020 13:17:17 7.1 C 20 %
2241 19-02-2020 13:27:17 7.1 C 20 %
2242 19-02-2020 13:37:18 7.3 C 20 %
2243 19-02-2020 13:47:18 7.8 C 20 %
2244 19-02-2020 13:57:18 7.7 C 20 %
2245 19-02-2020 14:07:17 7.7 C 20 %
2246 19-02-2020 14:17:17 7.7 C 20 %
2247 19-02-2020 14:27:17 7.4 C 20 %
2248 19-02-2020 14:37:17 7.1 C 20 %
2249 19-02-2020 14:47:18 7.2 C 20 %
2250 19-02-2020 14:57:18 7.2 C 20 %
Sensor: Nr:Datum:Temp:Feuchte:
Aussen-T/F 2251 19-02-2020 15:07:17 8.1 C 20 %
2252 19-02-2020 15:17:17 8.2 C 20 %
2253 19-02-2020 15:27:17 8.3 C 20 %
2254 19-02-2020 15:37:17 7.5 C 20 %
2255 19-02-2020 15:47:17 7.6 C 20 %
2256 19-02-2020 15:57:17 8.5 C 20 %
2257 19-02-2020 16:07:17 8 C 20 %
2258 19-02-2020 16:17:17 8.2 C 20 %
2259 19-02-2020 16:27:17 7.9 C 20 %
2260 19-02-2020 16:37:18 7.5 C 20 %
2261 19-02-2020 16:47:18 7.4 C 20 %
2262 19-02-2020 16:57:18 7.2 C 20 %
2263 19-02-2020 17:07:18 7.1 C 20 %
2264 19-02-2020 17:17:18 6.9 C 20 %
2265 19-02-2020 17:27:18 6.5 C 20 %
2266 19-02-2020 17:37:17 6.2 C 20 %
2267 19-02-2020 17:47:18 5.6 C 20 %
2268 19-02-2020 17:57:18 5 C 23 %
2269 19-02-2020 18:07:17 4.5 C 28 %
2270 19-02-2020 18:17:17 4.5 C 28 %
2271 19-02-2020 18:27:17 4.2 C 30 %
2272 19-02-2020 18:37:17 3.7 C 32 %
2273 19-02-2020 18:47:17 3.3 C 32 %
2274 19-02-2020 18:57:17 2.9 C 34 %
2275 19-02-2020 19:07:17 2.8 C 35 %
Sensor: Nr:Datum:Temp:Feuchte:
Aussen-T/F 2276 19-02-2020 19:17:17 2.4 C 35 %
2277 19-02-2020 19:27:17 2.3 C 35 %
2278 19-02-2020 19:37:17 2 C 35 %
2279 19-02-2020 19:47:17 1.7 C 37 %
2280 19-02-2020 19:57:17 2 C 36 %
2281 19-02-2020 20:07:17 1.7 C 37 %
2282 19-02-2020 20:17:17 1.8 C 37 %
2283 19-02-2020 20:27:17 2.1 C 35 %
2284 19-02-2020 20:37:17 2 C 35 %
2285 19-02-2020 20:47:17 2.2 C 35 %
2286 19-02-2020 20:57:17 2.8 C 35 %
2287 19-02-2020 21:07:18 3.4 C 33 %
2288 19-02-2020 21:17:17 3.4 C 33 %
2289 19-02-2020 21:27:17 3 C 33 %
2290 19-02-2020 21:37:17 4 C 31 %
2291 19-02-2020 21:47:17 4.1 C 31 %
2292 19-02-2020 21:57:17 4.5 C 31 %
2293 19-02-2020 22:07:17 4.9 C 31 %
2294 19-02-2020 22:17:18 5.5 C 30 %
2295 19-02-2020 22:27:18 5.5 C 30 %
2296 19-02-2020 22:37:18 5.5 C 30 %
2297 19-02-2020 22:47:17 5.2 C 30 %
2298 19-02-2020 22:57:18 5.1 C 31 %
2299 19-02-2020 23:07:18 4.6 C 33 %
2300 19-02-2020 23:17:17 4.5 C 35 %
Sensor: Nr:Datum:Temp:Feuchte:
Aussen-T/F 2301 19-02-2020 23:27:17 4.2 C 37 %
2302 19-02-2020 23:37:17 4.3 C 37 %
2303 19-02-2020 23:47:17 4.6 C 36 %
2304 19-02-2020 23:57:17 4.6 C 36 %
2305 20-02-2020 00:07:17 4.9 C 36 %
2306 20-02-2020 00:17:17 4.9 C 36 %
2307 20-02-2020 00:27:18 5.2 C 35 %
2308 20-02-2020 00:37:18 5.4 C 35 %
2309 20-02-2020 00:47:17 5.5 C 35 %
2310 20-02-2020 00:57:17 4.9 C 36 %
2311 20-02-2020 01:07:17 4.8 C 38 %
2312 20-02-2020 01:17:17 4.8 C 38 %
2313 20-02-2020 01:27:18 4.8 C 38 %
2314 20-02-2020 01:37:18 5 C 37 %
2315 20-02-2020 01:47:17 5.3 C 37 %
2316 20-02-2020 01:57:17 5.4 C 36 %
2317 20-02-2020 02:07:18 5.6 C 36 %
2318 20-02-2020 02:17:17 5.6 C 36 %
2319 20-02-2020 02:27:17 5.8 C 36 %
2320 20-02-2020 02:37:17 5.7 C 35 %
2321 20-02-2020 02:47:17 5.8 C 35 %
2322 20-02-2020 02:57:17 5.9 C 35 %
2323 20-02-2020 03:07:17 6 C 35 %
2324 20-02-2020 03:17:17 6.2 C 35 %
2325 20-02-2020 03:27:17 6.3 C 35 %
Sensor: Nr:Datum:Temp:Feuchte:
Aussen-T/F 2326 20-02-2020 03:37:18 6.3 C 35 %
2327 20-02-2020 03:47:17 6.4 C 35 %
2328 20-02-2020 03:57:17 6.3 C 35 %
2329 20-02-2020 04:07:18 6.4 C 35 %
2330 20-02-2020 04:17:17 6.5 C 35 %
2331 20-02-2020 04:27:17 6.5 C 35 %
2332 20-02-2020 04:37:17 6.6 C 35 %
2333 20-02-2020 04:47:18 6.5 C 35 %
2334 20-02-2020 04:57:18 6.5 C 35 %
2335 20-02-2020 05:07:18 6.5 C 35 %
2336 20-02-2020 05:17:17 6.5 C 35 %
2337 20-02-2020 05:27:17 6.5 C 35 %
2338 20-02-2020 05:37:17 6.7 C 35 %
2339 20-02-2020 05:47:17 6.5 C 35 %
2340 20-02-2020 05:57:17 6.6 C 35 %
2341 20-02-2020 06:07:17 6.5 C 35 %
2342 20-02-2020 06:17:17 6.3 C 36 %
2343 20-02-2020 06:27:17 6.3 C 36 %
2344 20-02-2020 06:37:17 6.5 C 36 %
2345 20-02-2020 06:47:17 6.6 C 36 %
2346 20-02-2020 06:57:17 6.5 C 36 %
2347 20-02-2020 07:07:17 6.5 C 36 %
2348 20-02-2020 07:17:17 6.3 C 37 %
2349 20-02-2020 07:27:17 6.5 C 37 %
2350 20-02-2020 07:37:17 6.6 C 36 %
Sensor: Nr:Datum:Temp:Feuchte:
Aussen-T/F 2351 20-02-2020 07:47:17 6.7 C 36 %
2352 20-02-2020 07:57:17 6.6 C 37 %
2353 20-02-2020 08:07:17 6.5 C 37 %
2354 20-02-2020 08:17:17 6.6 C 37 %
2355 20-02-2020 08:27:17 6.6 C 37 %
2356 20-02-2020 08:37:17 6.6 C 37 %
2357 20-02-2020 08:47:18 6.7 C 37 %
2358 20-02-2020 08:57:18 6.8 C 37 %
2359 20-02-2020 09:07:18 7.2 C 36 %
2360 20-02-2020 09:17:18 7.3 C 36 %
2361 20-02-2020 09:27:18 7.6 C 35 %
2362 20-02-2020 09:37:17 7.8 C 35 %
2363 20-02-2020 09:47:17 7.9 C 35 %
2364 20-02-2020 09:57:17 8.1 C 34 %
2365 20-02-2020 10:07:18 8.1 C 34 %
2366 20-02-2020 10:17:17 8.3 C 34 %
2367 20-02-2020 10:27:17 8.5 C 33 %
2368 20-02-2020 10:37:17 9 C 32 %
2369 20-02-2020 10:47:17 8.8 C 32 %
2370 20-02-2020 10:57:17 8.9 C 32 %
2371 20-02-2020 11:07:18 9.1 C 32 %
2372 20-02-2020 11:17:18 10.1 C 30 %
2373 20-02-2020 11:27:18 10 C 30 %
2374 20-02-2020 11:37:18 9.4 C 30 %
2375 20-02-2020 11:47:17 9.1 C 30 %
Sensor: Nr:Datum:Temp:Feuchte:
Aussen-T/F 2376 20-02-2020 11:57:18 9.2 C 30 %
2377 20-02-2020 12:07:18 9.3 C 30 %
2378 20-02-2020 12:17:18 9.8 C 30 %
2379 20-02-2020 12:27:18 10.1 C 28 %
2380 20-02-2020 12:37:18 9.2 C 30 %
2381 20-02-2020 12:47:18 8.2 C 33 %
2382 20-02-2020 12:57:18 8.6 C 33 %
2383 20-02-2020 13:07:18 9.1 C 32 %
2384 20-02-2020 13:17:18 9.7 C 31 %
2385 20-02-2020 13:27:18 9.6 C 30 %
2386 20-02-2020 13:37:18 9.6 C 30 %
2387 20-02-2020 13:47:17 9.4 C 31 %
2388 20-02-2020 13:57:17 10.3 C 29 %
2389 20-02-2020 14:07:17 10.2 C 29 %
2390 20-02-2020 14:17:17 10.1 C 28 %
2391 20-02-2020 14:27:18 10 C 28 %
2392 20-02-2020 14:37:18 10.7 C 28 %
2393 20-02-2020 14:47:17 9.8 C 29 %
2394 20-02-2020 14:57:17 9.8 C 29 %
2395 20-02-2020 15:07:18 9.6 C 30 %
2396 20-02-2020 15:17:17 10.1 C 28 %
2397 20-02-2020 15:27:18 10.1 C 28 %
2398 20-02-2020 15:37:18 10.5 C 28 %
2399 20-02-2020 15:47:17 10.5 C 28 %
2400 20-02-2020 15:57:17 9.6 C 29 %
Sensor: Nr:Datum:Temp:Feuchte:
Aussen-T/F 2401 20-02-2020 16:07:17 9.5 C 29 %
2402 20-02-2020 16:17:17 9.5 C 29 %
2403 20-02-2020 16:27:18 9.3 C 29 %
2404 20-02-2020 16:37:18 9.1 C 30 %
2405 20-02-2020 16:47:17 9.1 C 29 %
2406 20-02-2020 16:57:17 9.1 C 29 %
2407 20-02-2020 17:07:18 9 C 29 %
2408 20-02-2020 17:17:17 9.2 C 29 %
2409 20-02-2020 17:27:18 9.2 C 29 %
2410 20-02-2020 17:37:18 9.2 C 29 %
2411 20-02-2020 17:47:17 9.1 C 29 %
2412 20-02-2020 17:57:17 9.1 C 29 %
2413 20-02-2020 18:07:18 9.1 C 29 %
2414 20-02-2020 18:17:18 9 C 29 %
2415 20-02-2020 18:27:18 8.9 C 30 %
2416 20-02-2020 18:37:18 8.3 C 30 %
2417 20-02-2020 18:47:18 8.1 C 31 %
2418 20-02-2020 18:57:18 7.7 C 33 %
2419 20-02-2020 19:07:18 7.7 C 33 %
2420 20-02-2020 19:17:18 7.8 C 32 %
2421 20-02-2020 19:27:18 8.1 C 31 %
2422 20-02-2020 19:37:17 8.6 C 30 %
2423 20-02-2020 19:47:18 9 C 30 %
2424 20-02-2020 19:57:18 9.1 C 30 %
2425 20-02-2020 20:07:18 9 C 30 %
Sensor: Nr:Datum:Temp:Feuchte:
Aussen-T/F 2426 20-02-2020 20:17:18 9 C 30 %
2427 20-02-2020 20:27:18 9.3 C 29 %
2428 20-02-2020 20:37:18 9.3 C 29 %
2429 20-02-2020 20:47:18 9.2 C 29 %
2430 20-02-2020 20:57:18 9.2 C 29 %
2431 20-02-2020 21:07:18 8.8 C 30 %
2432 20-02-2020 21:17:18 8.6 C 30 %
2433 20-02-2020 21:27:18 8.6 C 31 %
2434 20-02-2020 21:37:18 8.2 C 31 %
2435 20-02-2020 21:47:17 8.2 C 32 %
2436 20-02-2020 21:57:18 7.8 C 33 %
2437 20-02-2020 22:07:18 7.9 C 33 %
2438 20-02-2020 22:17:17 7.8 C 35 %
2439 20-02-2020 22:27:18 7.4 C 35 %
2440 20-02-2020 22:37:18 7.1 C 38 %
2441 20-02-2020 22:47:18 6 C 37 %
2442 20-02-2020 22:57:18 5.8 C 37 %
2443 20-02-2020 23:07:18 5.7 C 39 %
2444 20-02-2020 23:17:18 5.8 C 37 %
2445 20-02-2020 23:27:18 5.8 C 37 %
2446 20-02-2020 23:37:17 6.1 C 35 %
2447 20-02-2020 23:47:17 5.9 C 35 %
2448 20-02-2020 23:57:17 5.2 C 35 %
2449 21-02-2020 00:07:17 4.6 C 38 %
2450 21-02-2020 00:17:18 4.5 C 39 %
Sensor: Nr:Datum:Temp:Feuchte:
Aussen-T/F 2451 21-02-2020 00:27:18 4.4 C 37 %
2452 21-02-2020 00:37:18 4.8 C 36 %
2453 21-02-2020 00:47:18 4.7 C 35 %
2454 21-02-2020 00:57:18 4.6 C 35 %
2455 21-02-2020 01:07:18 4.5 C 35 %
2456 21-02-2020 01:17:17 4.1 C 35 %
2457 21-02-2020 01:27:17 4.1 C 34 %
2458 21-02-2020 01:37:17 4 C 34 %
2459 21-02-2020 01:47:17 3.6 C 35 %
2460 21-02-2020 01:57:17 3.6 C 35 %
2461 21-02-2020 02:07:18 3.5 C 35 %
2462 21-02-2020 02:17:18 3.8 C 35 %
2463 21-02-2020 02:27:18 3.4 C 36 %
2464 21-02-2020 02:37:18 4 C 35 %
2465 21-02-2020 02:47:17 3.9 C 35 %
2466 21-02-2020 02:57:18 3.6 C 35 %
2467 21-02-2020 03:07:18 4 C 34 %
2468 21-02-2020 03:17:18 3.3 C 35 %
2469 21-02-2020 03:27:18 2.9 C 37 %
2470 21-02-2020 03:37:18 2.4 C 39 %
2471 21-02-2020 03:47:17 2.7 C 38 %
2472 21-02-2020 03:57:17 2.1 C 40 %
2473 21-02-2020 04:07:18 2.1 C 40 %
2474 21-02-2020 04:17:18 2.2 C 39 %
2475 21-02-2020 04:27:18 2.4 C 39 %
Sensor: Nr:Datum:Temp:Feuchte:
Aussen-T/F 2476 21-02-2020 04:37:18 2 C 40 %
2477 21-02-2020 04:47:17 2.5 C 39 %
2478 21-02-2020 04:57:17 2.3 C 39 %
2479 21-02-2020 05:07:17 2 C 39 %
2480 21-02-2020 05:17:17 1.6 C 41 %
2481 21-02-2020 05:27:17 2.1 C 39 %
2482 21-02-2020 05:37:17 2.5 C 38 %
2483 21-02-2020 05:47:17 1.9 C 40 %
2484 21-02-2020 05:57:17 2.4 C 38 %
2485 21-02-2020 06:07:17 2.3 C 38 %
2486 21-02-2020 06:17:17 1.7 C 40 %
2487 21-02-2020 06:27:17 1.9 C 40 %
2488 21-02-2020 06:37:18 1.4 C 41 %
2489 21-02-2020 06:47:17 1.6 C 40 %
2490 21-02-2020 06:57:17 2.1 C 38 %
2491 21-02-2020 07:07:17 2.4 C 37 %
2492 21-02-2020 07:17:18 2.8 C 36 %
2493 21-02-2020 07:27:18 2.7 C 36 %
2494 21-02-2020 07:37:18 3 C 35 %
2495 21-02-2020 07:47:17 2.5 C 36 %
2496 21-02-2020 07:57:17 2.2 C 37 %
2497 21-02-2020 08:07:17 1.5 C 39 %
2498 21-02-2020 08:17:17 1.3 C 40 %
2499 21-02-2020 08:27:17 1.1 C 40 %
2500 21-02-2020 08:37:17 1.7 C 40 %
Sensor: Nr:Datum:Temp:Feuchte:
Aussen-T/F 2501 21-02-2020 08:47:17 2.2 C 38 %
2502 21-02-2020 08:57:17 2.7 C 37 %
2503 21-02-2020 09:07:17 2.6 C 37 %
2504 21-02-2020 09:17:17 3.1 C 36 %
2505 21-02-2020 09:27:17 2.9 C 37 %
2506 21-02-2020 09:37:17 2.9 C 36 %
2507 21-02-2020 09:47:17 3.1 C 36 %
2508 21-02-2020 09:57:17 3.6 C 35 %
2509 21-02-2020 10:07:17 3.5 C 36 %
2510 21-02-2020 10:17:17 3.5 C 36 %
2511 21-02-2020 10:27:17 3.9 C 35 %
2512 21-02-2020 10:37:18 4.5 C 34 %
2513 21-02-2020 10:47:17 4.7 C 34 %
2514 21-02-2020 10:57:17 4.8 C 34 %
2515 21-02-2020 11:07:18 5.9 C 32 %
2516 21-02-2020 11:17:17 6.3 C 31 %
2517 21-02-2020 11:27:17 6.8 C 30 %
2518 21-02-2020 11:37:18 5.9 C 31 %
2519 21-02-2020 11:47:17 6.7 C 30 %
2520 21-02-2020 11:57:17 7.1 C 30 %
2521 21-02-2020 12:07:18 7.3 C 30 %
2522 21-02-2020 12:17:18 7.3 C 29 %
2523 21-02-2020 12:27:18 7.3 C 29 %
2524 21-02-2020 12:37:18 7.4 C 29 %
2525 21-02-2020 12:47:17 7.4 C 29 %
Sensor: Nr:Datum:Temp:Feuchte:
Aussen-T/F 2526 21-02-2020 12:57:17 7.9 C 30 %
2527 21-02-2020 13:07:17 8.3 C 27 %
2528 21-02-2020 13:17:18 7.8 C 27 %
2529 21-02-2020 13:27:18 8.9 C 27 %
2530 21-02-2020 13:37:18 8.2 C 27 %
2531 21-02-2020 13:47:17 7.5 C 27 %
2532 21-02-2020 13:57:17 7.9 C 27 %
2533 21-02-2020 14:07:18 7.8 C 27 %
2534 21-02-2020 14:17:17 7.9 C 27 %
2535 21-02-2020 14:27:18 8.8 C 27 %
2536 21-02-2020 14:37:18 8.4 C 27 %
2537 21-02-2020 14:47:17 8.7 C 27 %
2538 21-02-2020 14:57:17 9 C 26 %
2539 21-02-2020 15:07:18 9 C 26 %
2540 21-02-2020 15:17:18 8.4 C 26 %
2541 21-02-2020 15:27:18 8.7 C 26 %
2542 21-02-2020 15:37:18 8.1 C 26 %
2543 21-02-2020 15:47:17 8.3 C 26 %
2544 21-02-2020 15:57:17 8.3 C 26 %
2545 21-02-2020 16:07:17 8.1 C 26 %
2546 21-02-2020 16:17:17 8 C 27 %
2547 21-02-2020 16:27:17 8 C 26 %
2548 21-02-2020 16:37:17 8.1 C 26 %
2549 21-02-2020 16:47:17 7.9 C 26 %
2550 21-02-2020 16:57:17 7.9 C 26 %
Sensor: Nr:Datum:Temp:Feuchte:
Aussen-T/F 2551 21-02-2020 17:07:18 7.7 C 26 %
2552 21-02-2020 17:17:17 7.3 C 26 %
2553 21-02-2020 17:27:17 7.3 C 26 %
2554 21-02-2020 17:37:18 6.8 C 28 %
2555 21-02-2020 17:47:17 6.5 C 28 %
2556 21-02-2020 17:57:18 6.4 C 29 %
2557 21-02-2020 18:07:18 5.9 C 30 %
2558 21-02-2020 18:17:17 5.6 C 31 %
2559 21-02-2020 18:27:17 4.9 C 33 %
2560 21-02-2020 18:37:17 4.5 C 33 %
2561 21-02-2020 18:47:17 4.3 C 34 %
2562 21-02-2020 18:57:17 4.2 C 34 %
2563 21-02-2020 19:07:17 4.7 C 34 %
2564 21-02-2020 19:17:17 4 C 34 %
2565 21-02-2020 19:27:17 4 C 35 %
2566 21-02-2020 19:37:17 3.8 C 35 %
2567 21-02-2020 19:47:17 4 C 34 %
2568 21-02-2020 19:57:17 4.7 C 33 %
2569 21-02-2020 20:07:18 4.9 C 33 %
2570 21-02-2020 20:17:18 4.4 C 33 %
2571 21-02-2020 20:27:18 4.4 C 33 %
2572 21-02-2020 20:37:18 5.6 C 31 %
2573 21-02-2020 20:47:17 5.8 C 31 %
2574 21-02-2020 20:57:17 5.7 C 31 %
2575 21-02-2020 21:07:18 5.4 C 31 %
Sensor: Nr:Datum:Temp:Feuchte:
Aussen-T/F 2576 21-02-2020 21:17:18 5.1 C 31 %
2577 21-02-2020 21:27:18 4.9 C 32 %
2578 21-02-2020 21:37:18 4.3 C 34 %
2579 21-02-2020 21:47:18 4.3 C 35 %
2580 21-02-2020 21:57:18 4.6 C 34 %
2581 21-02-2020 22:07:18 4 C 35 %
2582 21-02-2020 22:17:17 3.4 C 36 %
2583 21-02-2020 22:27:17 3.6 C 38 %
2584 21-02-2020 22:37:17 3.8 C 37 %
2585 21-02-2020 22:47:17 3.7 C 37 %
2586 21-02-2020 22:57:17 3.2 C 37 %
2587 21-02-2020 23:07:17 3 C 38 %
2588 21-02-2020 23:17:17 3.6 C 38 %
2589 21-02-2020 23:27:18 3.3 C 38 %
2590 21-02-2020 23:37:18 3.9 C 37 %
2591 21-02-2020 23:47:18 4.2 C 36 %
2592 21-02-2020 23:57:18 4 C 36 %
2593 22-02-2020 00:07:18 3.3 C 37 %
2594 22-02-2020 00:17:17 3.4 C 38 %
2595 22-02-2020 00:27:17 3.7 C 37 %
2596 22-02-2020 00:37:17 3.8 C 37 %
2597 22-02-2020 00:47:18 4.1 C 36 %
2598 22-02-2020 00:57:18 3.6 C 37 %
2599 22-02-2020 01:07:18 3.8 C 37 %
2600 22-02-2020 01:17:18 4 C 35 %
Sensor: Nr:Datum:Temp:Feuchte:
Aussen-T/F 2601 22-02-2020 01:27:18 3.8 C 37 %
2602 22-02-2020 01:37:18 3.4 C 37 %
2603 22-02-2020 01:47:17 3.1 C 37 %
2604 22-02-2020 01:57:18 3.1 C 38 %
2605 22-02-2020 02:07:18 4.6 C 36 %
2606 22-02-2020 02:17:18 4.7 C 35 %
2607 22-02-2020 02:27:18 4.4 C 35 %
2608 22-02-2020 02:37:17 4.8 C 35 %
2609 22-02-2020 02:47:17 5.1 C 34 %
2610 22-02-2020 02:57:17 4.7 C 35 %
2611 22-02-2020 03:07:17 4.8 C 35 %
2612 22-02-2020 03:17:17 5 C 34 %
2613 22-02-2020 03:27:17 4.7 C 35 %
2614 22-02-2020 03:37:17 5.2 C 34 %
2615 22-02-2020 03:47:17 4.9 C 35 %
2616 22-02-2020 03:57:18 4.6 C 35 %
2617 22-02-2020 04:07:18 4.5 C 35 %
2618 22-02-2020 04:17:18 4.7 C 35 %
2619 22-02-2020 04:27:18 4.2 C 35 %
2620 22-02-2020 04:37:18 4.2 C 35 %
2621 22-02-2020 04:47:17 4.7 C 35 %
2622 22-02-2020 04:57:18 5 C 34 %
2623 22-02-2020 05:07:18 5 C 34 %
2624 22-02-2020 05:17:18 5.2 C 34 %
2625 22-02-2020 05:27:18 5.4 C 34 %
Sensor: Nr:Datum:Temp:Feuchte:
Aussen-T/F 2626 22-02-2020 05:37:17 5.4 C 33 %
2627 22-02-2020 05:47:18 5.4 C 33 %
2628 22-02-2020 05:57:18 5.2 C 34 %
2629 22-02-2020 06:07:18 5.2 C 33 %
2630 22-02-2020 06:17:17 5.3 C 34 %
2631 22-02-2020 06:27:17 5.3 C 34 %
2632 22-02-2020 06:37:17 5.5 C 33 %
2633 22-02-2020 06:47:18 5.3 C 33 %
2634 22-02-2020 06:57:18 5.4 C 33 %
2635 22-02-2020 07:07:18 5.2 C 33 %
2636 22-02-2020 07:17:18 5 C 33 %
2637 22-02-2020 07:27:18 5 C 34 %
2638 22-02-2020 07:37:18 4.8 C 35 %
2639 22-02-2020 07:47:17 5.3 C 34 %
2640 22-02-2020 07:57:18 5 C 34 %
2641 22-02-2020 08:07:18 5.4 C 33 %
2642 22-02-2020 08:17:18 5.4 C 33 %
2643 22-02-2020 08:27:18 5.2 C 33 %
2644 22-02-2020 08:37:18 5.4 C 33 %
2645 22-02-2020 08:47:17 5.7 C 33 %
2646 22-02-2020 08:57:17 5.9 C 33 %
2647 22-02-2020 09:07:17 6.1 C 32 %
2648 22-02-2020 09:17:17 6.3 C 32 %
2649 22-02-2020 09:27:17 6.4 C 32 %
2650 22-02-2020 09:37:17 6.4 C 31 %
Sensor: Nr:Datum:Temp:Feuchte:
Aussen-T/F 2651 22-02-2020 09:47:17 6.5 C 31 %
2652 22-02-2020 09:57:17 6.9 C 31 %
2653 22-02-2020 10:07:17 7 C 30 %
2654 22-02-2020 10:17:17 7.2 C 30 %
2655 22-02-2020 10:27:17 7.2 C 30 %
2656 22-02-2020 10:37:17 7.3 C 30 %
2657 22-02-2020 10:47:18 7.2 C 30 %
2658 22-02-2020 10:57:18 7.4 C 30 %
2659 22-02-2020 11:07:18 7.5 C 30 %
2660 22-02-2020 11:17:18 7.5 C 30 %
2661 22-02-2020 11:27:18 7.6 C 29 %
2662 22-02-2020 11:37:18 7.7 C 28 %
2663 22-02-2020 11:47:17 7.9 C 28 %
2664 22-02-2020 11:57:17 8.1 C 27 %
2665 22-02-2020 12:07:18 8.4 C 27 %
2666 22-02-2020 12:17:18 8.5 C 26 %
2667 22-02-2020 12:27:18 8.6 C 27 %
2668 22-02-2020 12:37:18 8.8 C 26 %
2669 22-02-2020 12:47:18 8.8 C 26 %
2670 22-02-2020 12:57:18 9 C 25 %
2671 22-02-2020 13:07:18 9.3 C 25 %
2672 22-02-2020 13:17:18 9.7 C 25 %
2673 22-02-2020 13:27:18 10.2 C 21 %
2674 22-02-2020 13:37:18 10.2 C 20 %
2675 22-02-2020 13:47:17 10.2 C 20 %
Sensor: Nr:Datum:Temp:Feuchte:
Aussen-T/F 2676 22-02-2020 13:57:18 10.2 C 20 %
2677 22-02-2020 14:07:18 10.2 C 20 %
2678 22-02-2020 14:17:17 10.1 C 20 %
2679 22-02-2020 14:27:18 10.1 C 20 %
2680 22-02-2020 14:37:18 10.2 C 20 %
2681 22-02-2020 14:47:17 10.2 C 20 %
2682 22-02-2020 14:57:17 10.1 C 20 %
2683 22-02-2020 15:07:17 10.2 C 20 %
2684 22-02-2020 15:17:17 10.2 C 20 %
2685 22-02-2020 15:27:18 10.4 C 20 %
2686 22-02-2020 15:37:18 10.6 C 21 %
2687 22-02-2020 15:47:17 10.7 C 20 %
2688 22-02-2020 15:57:17 10.8 C 21 %
2689 22-02-2020 16:07:18 10.7 C 21 %
2690 22-02-2020 16:17:18 10.6 C 22 %
2691 22-02-2020 16:27:18 10.4 C 22 %
2692 22-02-2020 16:37:18 10.2 C 23 %
2693 22-02-2020 16:47:18 10.3 C 25 %
2694 22-02-2020 16:57:18 10.2 C 25 %
2695 22-02-2020 17:07:17 10.1 C 25 %
2696 22-02-2020 17:17:18 10.1 C 25 %
2697 22-02-2020 17:27:18 10.2 C 25 %
2698 22-02-2020 17:37:18 10.2 C 25 %
2699 22-02-2020 17:47:18 10.2 C 25 %
2700 22-02-2020 17:57:18 10 C 25 %
Sensor: Nr:Datum:Temp:Feuchte:
Aussen-T/F 2701 22-02-2020 18:07:18 9.9 C 26 %
2702 22-02-2020 18:17:18 9.9 C 27 %
2703 22-02-2020 18:27:18 9.8 C 27 %
2704 22-02-2020 18:37:18 9.7 C 28 %
2705 22-02-2020 18:47:18 9.7 C 29 %
2706 22-02-2020 18:57:18 9.5 C 30 %
2707 22-02-2020 19:07:18 9.6 C 30 %
2708 22-02-2020 19:17:17 9.6 C 30 %
2709 22-02-2020 19:27:17 9.6 C 31 %
2710 22-02-2020 19:37:17 9.6 C 30 %
2711 22-02-2020 19:47:18 9.9 C 30 %
2712 22-02-2020 19:57:18 9.8 C 31 %
2713 22-02-2020 20:07:18 10 C 30 %
2714 22-02-2020 20:17:18 9.9 C 31 %
2715 22-02-2020 20:27:18 10 C 30 %
2716 22-02-2020 20:37:18 9.9 C 31 %
2717 22-02-2020 20:47:17 10 C 31 %
2718 22-02-2020 20:57:17 9.9 C 32 %
2719 22-02-2020 21:07:18 9.9 C 32 %
2720 22-02-2020 21:17:17 10.2 C 31 %
2721 22-02-2020 21:27:17 10.2 C 31 %
2722 22-02-2020 21:37:18 10.3 C 31 %
2723 22-02-2020 21:47:17 10.2 C 31 %
2724 22-02-2020 21:57:17 10.3 C 31 %
2725 22-02-2020 22:07:17 10.4 C 31 %
Sensor: Nr:Datum:Temp:Feuchte:
Aussen-T/F 2726 22-02-2020 22:17:17 10.6 C 31 %
2727 22-02-2020 22:27:17 10.7 C 31 %
2728 22-02-2020 22:37:18 10.7 C 31 %
2729 22-02-2020 22:47:17 10.6 C 31 %
2730 22-02-2020 22:57:17 10.5 C 31 %
2731 22-02-2020 23:07:17 10.5 C 31 %
2732 22-02-2020 23:17:17 10.5 C 31 %
2733 22-02-2020 23:27:17 10.5 C 31 %
2734 22-02-2020 23:37:17 10.5 C 31 %
2735 22-02-2020 23:47:17 10.6 C 31 %
2736 22-02-2020 23:57:18 10.5 C 31 %
2737 23-02-2020 00:07:18 10.7 C 31 %
2738 23-02-2020 00:17:18 10.8 C 31 %
2739 23-02-2020 00:27:18 10 C 31 %
2740 23-02-2020 00:37:18 9.7 C 33 %
2741 23-02-2020 00:47:17 9.4 C 35 %
2742 23-02-2020 00:57:18 9.2 C 36 %
2743 23-02-2020 01:07:18 9 C 38 %
2744 23-02-2020 01:17:18 9.3 C 37 %
2745 23-02-2020 01:27:18 9.3 C 37 %
2746 23-02-2020 01:37:18 9.6 C 36 %
2747 23-02-2020 01:47:17 9.6 C 36 %
2748 23-02-2020 01:57:17 9.7 C 36 %
2749 23-02-2020 02:07:18 9.4 C 36 %
2750 23-02-2020 02:17:18 9.3 C 36 %
Sensor: Nr:Datum:Temp:Feuchte:
Aussen-T/F 2751 23-02-2020 02:27:18 9.5 C 36 %
2752 23-02-2020 02:37:18 9.8 C 35 %
2753 23-02-2020 02:47:17 10 C 34 %
2754 23-02-2020 02:57:17 10 C 34 %
2755 23-02-2020 03:07:18 10 C 33 %
2756 23-02-2020 03:17:17 10.2 C 33 %
2757 23-02-2020 03:27:17 9.8 C 35 %
2758 23-02-2020 03:37:17 9.6 C 35 %
2759 23-02-2020 03:47:17 9.7 C 35 %
2760 23-02-2020 03:57:17 9.7 C 35 %
2761 23-02-2020 04:07:17 10.3 C 33 %
2762 23-02-2020 04:17:17 10.2 C 33 %
2763 23-02-2020 04:27:17 10.1 C 33 %
2764 23-02-2020 04:37:17 10.2 C 33 %
2765 23-02-2020 04:47:17 10 C 33 %
2766 23-02-2020 04:57:17 10.1 C 33 %
2767 23-02-2020 05:07:18 9.6 C 35 %
2768 23-02-2020 05:17:17 9.8 C 35 %
2769 23-02-2020 05:27:17 10 C 34 %
2770 23-02-2020 05:37:18 10.2 C 34 %
2771 23-02-2020 05:47:17 10.2 C 34 %
2772 23-02-2020 05:57:17 9.6 C 35 %
2773 23-02-2020 06:07:18 9.5 C 35 %
2774 23-02-2020 06:17:17 9.7 C 35 %
2775 23-02-2020 06:27:17 9.8 C 35 %
Sensor: Nr:Datum:Temp:Feuchte:
Aussen-T/F 2776 23-02-2020 06:37:18 10 C 34 %
2777 23-02-2020 06:47:17 9.7 C 35 %
2778 23-02-2020 06:57:17 9.3 C 35 %
2779 23-02-2020 07:07:18 9.3 C 35 %
2780 23-02-2020 07:17:18 9.5 C 36 %
2781 23-02-2020 07:27:18 9.8 C 35 %
2782 23-02-2020 07:37:18 9.6 C 36 %
2783 23-02-2020 07:47:17 9.6 C 36 %
2784 23-02-2020 07:57:17 9.8 C 36 %
2785 23-02-2020 08:07:17 9.8 C 36 %
2786 23-02-2020 08:17:17 9.8 C 36 %
2787 23-02-2020 08:27:17 10.1 C 35 %
2788 23-02-2020 08:37:17 10.1 C 35 %
2789 23-02-2020 08:47:17 10.2 C 35 %
2790 23-02-2020 08:57:17 10.1 C 35 %
2791 23-02-2020 09:07:17 10.1 C 35 %
2792 23-02-2020 09:17:17 10 C 35 %
2793 23-02-2020 09:27:17 10 C 35 %
2794 23-02-2020 09:37:17 10 C 35 %
2795 23-02-2020 09:47:18 10.1 C 35 %
2796 23-02-2020 09:57:18 10.1 C 36 %
2797 23-02-2020 10:07:17 10.1 C 36 %
2798 23-02-2020 10:17:17 10.5 C 35 %
2799 23-02-2020 10:27:18 10.6 C 35 %
2800 23-02-2020 10:37:17 10.9 C 35 %
Sensor: Nr:Datum:Temp:Feuchte:
Aussen-T/F 2801 23-02-2020 10:47:17 10.9 C 35 %
2802 23-02-2020 10:57:17 10.9 C 35 %
2803 23-02-2020 11:07:17 11 C 34 %
2804 23-02-2020 11:17:17 11.1 C 34 %
2805 23-02-2020 11:27:17 11 C 34 %
2806 23-02-2020 11:37:17 11.1 C 34 %
2807 23-02-2020 11:47:17 11.2 C 34 %
2808 23-02-2020 11:57:17 11.4 C 34 %
2809 23-02-2020 12:07:17 11.5 C 34 %
2810 23-02-2020 12:17:17 11.5 C 34 %
2811 23-02-2020 12:27:17 11.6 C 34 %
2812 23-02-2020 12:37:18 11.6 C 34 %
2813 23-02-2020 12:47:17 11.7 C 34 %
2814 23-02-2020 12:57:17 11.7 C 34 %
2815 23-02-2020 13:07:17 11.8 C 33 %
2816 23-02-2020 13:17:17 11.8 C 33 %
2817 23-02-2020 13:27:17 11.8 C 33 %
2818 23-02-2020 13:37:18 11.8 C 33 %
2819 23-02-2020 13:47:17 11.8 C 33 %
2820 23-02-2020 13:57:18 11.8 C 33 %
2821 23-02-2020 14:07:17 11.8 C 33 %
2822 23-02-2020 14:17:17 11.7 C 33 %
2823 23-02-2020 14:27:17 11.8 C 34 %
2824 23-02-2020 14:37:18 11.9 C 34 %
2825 23-02-2020 14:47:17 11.9 C 34 %
Sensor: Nr:Datum:Temp:Feuchte:
Aussen-T/F 2826 23-02-2020 14:57:17 11.9 C 34 %
2827 23-02-2020 15:07:17 11.9 C 34 %
2828 23-02-2020 15:17:17 11.9 C 34 %
2829 23-02-2020 15:27:17 12 C 33 %
2830 23-02-2020 15:37:18 11.8 C 34 %
2831 23-02-2020 15:47:17 11.9 C 34 %
2832 23-02-2020 15:57:17 11.8 C 34 %
2833 23-02-2020 16:07:18 11.8 C 34 %
2834 23-02-2020 16:17:17 11.8 C 34 %
2835 23-02-2020 16:27:17 11.7 C 35 %
2836 23-02-2020 16:37:17 11.8 C 35 %
2837 23-02-2020 16:47:17 11.8 C 34 %
2838 23-02-2020 16:57:17 11.8 C 34 %
2839 23-02-2020 17:07:18 11.8 C 34 %
2840 23-02-2020 17:17:17 11.5 C 35 %
2841 23-02-2020 17:27:17 11.3 C 36 %
2842 23-02-2020 17:37:18 10.9 C 38 %
2843 23-02-2020 17:47:17 10.8 C 38 %
2844 23-02-2020 17:57:17 10.9 C 38 %
2845 23-02-2020 18:07:18 10.8 C 38 %
2846 23-02-2020 18:17:17 10.8 C 39 %
2847 23-02-2020 18:27:17 10.7 C 40 %
2848 23-02-2020 18:37:18 10.6 C 41 %
2849 23-02-2020 18:47:18 10.5 C 42 %
2850 23-02-2020 18:57:18 10.5 C 41 %
Sensor: Nr:Datum:Temp:Feuchte:
Aussen-T/F 2851 23-02-2020 19:07:18 10.8 C 40 %
2852 23-02-2020 19:17:17 10.8 C 40 %
2853 23-02-2020 19:27:17 11.1 C 40 %
2854 23-02-2020 19:37:17 9.2 C 40 %
2855 23-02-2020 19:47:17 8.6 C 41 %
2856 23-02-2020 19:57:17 8.3 C 40 %
2857 23-02-2020 20:07:17 7.9 C 41 %
2858 23-02-2020 20:17:17 7.8 C 40 %
2859 23-02-2020 20:27:17 7.6 C 40 %
2860 23-02-2020 20:37:17 7.6 C 40 %
2861 23-02-2020 20:47:17 7.6 C 40 %
2862 23-02-2020 20:57:17 7.6 C 39 %
2863 23-02-2020 21:07:17 7.4 C 39 %
2864 23-02-2020 21:17:17 7.7 C 37 %
2865 23-02-2020 21:27:17 7.3 C 37 %
2866 23-02-2020 21:37:17 7.4 C 37 %
2867 23-02-2020 21:47:18 7.4 C 36 %
2868 23-02-2020 21:57:18 7.6 C 37 %
2869 23-02-2020 22:07:18 7.7 C 36 %
2870 23-02-2020 22:17:18 7.7 C 36 %
2871 23-02-2020 22:27:18 7.6 C 35 %
2872 23-02-2020 22:37:18 7.6 C 35 %
2873 23-02-2020 22:47:17 7.6 C 35 %
2874 23-02-2020 22:57:18 7.3 C 35 %
2875 23-02-2020 23:07:18 7 C 34 %
Sensor: Nr:Datum:Temp:Feuchte:
Aussen-T/F 2876 23-02-2020 23:17:18 6.7 C 36 %
2877 23-02-2020 23:27:18 7.2 C 33 %
2878 23-02-2020 23:37:18 7.1 C 32 %
2879 23-02-2020 23:47:17 7.2 C 32 %
2880 23-02-2020 23:57:18 6.8 C 33 %
2881 24-02-2020 00:07:18 6.7 C 32 %
2882 24-02-2020 00:17:18 6.3 C 34 %
2883 24-02-2020 00:27:18 6.5 C 34 %
2884 24-02-2020 00:37:18 6.4 C 34 %
2885 24-02-2020 00:47:18 6 C 34 %
2886 24-02-2020 00:57:18 6.1 C 34 %
2887 24-02-2020 01:07:18 5.5 C 35 %
2888 24-02-2020 01:17:18 5.8 C 35 %
2889 24-02-2020 01:27:18 5.8 C 35 %
2890 24-02-2020 01:37:17 5.3 C 35 %
2891 24-02-2020 01:47:17 5.2 C 35 %
2892 24-02-2020 01:57:18 5 C 36 %
2893 24-02-2020 02:07:18 4.6 C 37 %
2894 24-02-2020 02:17:17 4.4 C 37 %
2895 24-02-2020 02:27:17 3.9 C 39 %
2896 24-02-2020 02:37:18 3.7 C 40 %
2897 24-02-2020 02:47:17 4 C 38 %
2898 24-02-2020 02:57:17 4.2 C 38 %
2899 24-02-2020 03:07:17 4.3 C 38 %
2900 24-02-2020 03:17:17 4.7 C 36 %
Sensor: Nr:Datum:Temp:Feuchte:
Aussen-T/F 2901 24-02-2020 03:27:17 4.6 C 37 %
2902 24-02-2020 03:37:18 4.5 C 37 %
2903 24-02-2020 03:47:17 4.5 C 36 %
2904 24-02-2020 03:57:17 4.5 C 36 %
2905 24-02-2020 04:07:17 4.6 C 36 %
2906 24-02-2020 04:17:17 4.4 C 38 %
2907 24-02-2020 04:27:17 4.3 C 38 %
2908 24-02-2020 04:37:17 4 C 39 %
2909 24-02-2020 04:47:17 3.7 C 41 %
2910 24-02-2020 04:57:17 3.8 C 41 %
2911 24-02-2020 05:07:17 3.8 C 42 %
2912 24-02-2020 05:17:17 4.1 C 41 %
2913 24-02-2020 05:27:17 4 C 40 %
2914 24-02-2020 05:37:17 3.8 C 41 %
2915 24-02-2020 05:47:18 4 C 40 %
2916 24-02-2020 05:57:18 4 C 40 %
2917 24-02-2020 06:07:17 4 C 40 %
2918 24-02-2020 06:17:18 4 C 41 %
2919 24-02-2020 06:27:18 3.9 C 42 %
2920 24-02-2020 06:37:17 4 C 41 %
2921 24-02-2020 06:47:18 3.9 C 42 %
2922 24-02-2020 06:57:18 4.2 C 40 %
2923 24-02-2020 07:07:18 4.2 C 40 %
2924 24-02-2020 07:17:18 4.3 C 40 %
2925 24-02-2020 07:27:18 4.3 C 40 %
Sensor: Nr:Datum:Temp:Feuchte:
Aussen-T/F 2926 24-02-2020 07:37:18 4.4 C 39 %
2927 24-02-2020 07:47:17 4.5 C 39 %
2928 24-02-2020 07:57:17 5.1 C 37 %
2929 24-02-2020 08:07:18 5.2 C 37 %
2930 24-02-2020 08:17:18 5.4 C 37 %
2931 24-02-2020 08:27:18 5.7 C 36 %
2932 24-02-2020 08:37:18 5.9 C 36 %
2933 24-02-2020 08:47:18 6 C 35 %
2934 24-02-2020 08:57:18 6.2 C 35 %
2935 24-02-2020 09:07:18 6.3 C 35 %
2936 24-02-2020 09:17:18 6.3 C 35 %
2937 24-02-2020 09:27:18 6.1 C 35 %
2938 24-02-2020 09:37:18 6 C 35 %
2939 24-02-2020 09:47:18 6 C 35 %
2940 24-02-2020 09:57:18 6 C 36 %
2941 24-02-2020 10:07:18 5.9 C 37 %
2942 24-02-2020 10:17:18 5.7 C 38 %
2943 24-02-2020 10:27:18 5.7 C 39 %
2944 24-02-2020 10:37:17 5.6 C 40 %
2945 24-02-2020 10:47:18 5.7 C 40 %
2946 24-02-2020 10:57:18 5.9 C 40 %
2947 24-02-2020 11:07:18 6 C 40 %
2948 24-02-2020 11:17:18 6 C 40 %
2949 24-02-2020 11:27:18 6.1 C 40 %
2950 24-02-2020 11:37:18 6.1 C 40 %
Sensor: Nr:Datum:Temp:Feuchte:
Aussen-T/F 2951 24-02-2020 11:47:18 6.1 C 40 %
2952 24-02-2020 11:57:18 6.5 C 40 %
2953 24-02-2020 12:07:17 6.7 C 40 %
2954 24-02-2020 12:17:17 6.9 C 40 %
2955 24-02-2020 12:27:17 6.7 C 40 %
2956 24-02-2020 12:37:18 6.8 C 40 %
2957 24-02-2020 12:47:17 7.1 C 41 %
2958 24-02-2020 12:57:18 7.3 C 40 %
2959 24-02-2020 13:07:18 7.7 C 40 %
2960 24-02-2020 13:17:18 7.9 C 40 %
2961 24-02-2020 13:27:18 8.2 C 39 %
2962 24-02-2020 13:37:18 8.2 C 39 %
2963 24-02-2020 13:47:17 8.2 C 40 %
2964 24-02-2020 13:57:17 8.4 C 40 %
2965 24-02-2020 14:07:18 8.8 C 40 %
2966 24-02-2020 14:17:17 9.3 C 40 %
2967 24-02-2020 14:27:18 9.6 C 39 %
2968 24-02-2020 14:37:18 10.2 C 37 %
2969 24-02-2020 14:47:17 10.8 C 37 %
2970 24-02-2020 14:57:17 10.9 C 37 %
2971 24-02-2020 15:07:18 10.7 C 37 %
2972 24-02-2020 15:17:18 10.7 C 37 %
2973 24-02-2020 15:27:18 10.8 C 37 %
2974 24-02-2020 15:37:18 11 C 36 %
2975 24-02-2020 15:47:17 11.3 C 36 %
Sensor: Nr:Datum:Temp:Feuchte:
Aussen-T/F 2976 24-02-2020 15:57:18 11.5 C 36 %
2977 24-02-2020 16:07:18 11.5 C 35 %
2978 24-02-2020 16:17:18 11.8 C 35 %
2979 24-02-2020 16:27:18 11.9 C 35 %
2980 24-02-2020 16:37:18 11.7 C 35 %
2981 24-02-2020 16:47:17 11.3 C 35 %
2982 24-02-2020 16:57:17 11.5 C 35 %
2983 24-02-2020 17:07:18 11.5 C 35 %
2984 24-02-2020 17:17:18 11.5 C 35 %
2985 24-02-2020 17:27:18 11.5 C 34 %
2986 24-02-2020 17:37:18 11.4 C 34 %
2987 24-02-2020 17:47:18 11.5 C 33 %
2988 24-02-2020 17:57:18 11.4 C 33 %
2989 24-02-2020 18:07:18 11.3 C 33 %
2990 24-02-2020 18:17:18 11.2 C 33 %
2991 24-02-2020 18:27:18 11.2 C 33 %
2992 24-02-2020 18:37:17 11 C 33 %
2993 24-02-2020 18:47:17 11 C 33 %
2994 24-02-2020 18:57:17 11 C 33 %
2995 24-02-2020 19:07:17 11.1 C 33 %
2996 24-02-2020 19:17:17 10.8 C 34 %
2997 24-02-2020 19:27:17 11.2 C 32 %
2998 24-02-2020 19:37:18 11.2 C 32 %
2999 24-02-2020 19:47:18 11.1 C 32 %
3000 24-02-2020 19:57:18 11.3 C 32 %
Sensor: Nr:Datum:Temp:Feuchte:
Aussen-T/F 3001 24-02-2020 20:07:18 11.4 C 32 %
3002 24-02-2020 20:17:18 11.2 C 31 %
3003 24-02-2020 20:27:18 11.3 C 31 %
3004 24-02-2020 20:37:18 11.2 C 31 %
3005 24-02-2020 20:47:17 11.2 C 31 %
3006 24-02-2020 20:57:18 11 C 31 %
3007 24-02-2020 21:07:18 10.9 C 32 %
3008 24-02-2020 21:18:17 11 C 32 %
3009 24-02-2020 21:27:17 10.9 C 33 %
3010 24-02-2020 21:37:17 10.9 C 33 %
3011 24-02-2020 21:48:17 10.9 C 33 %
3012 24-02-2020 21:57:17 10.8 C 33 %
3013 24-02-2020 22:07:17 11 C 32 %
3014 24-02-2020 22:17:17 10.9 C 33 %
3015 24-02-2020 22:27:17 11 C 32 %
3016 24-02-2020 22:37:17 10.9 C 33 %
3017 24-02-2020 22:47:17 11.1 C 32 %
3018 24-02-2020 22:57:17 11.1 C 32 %
3019 24-02-2020 23:08:17 11 C 32 %
3020 24-02-2020 23:18:17 10.9 C 33 %
3021 24-02-2020 23:28:17 11 C 32 %
3022 24-02-2020 23:37:18 10.9 C 33 %
3023 24-02-2020 23:48:17 10.8 C 33 %
3024 24-02-2020 23:58:17 10.4 C 34 %
3025 25-02-2020 00:08:17 10.5 C 34 %
Sensor: Nr:Datum:Temp:Feuchte:
Aussen-T/F 3026 25-02-2020 00:17:17 10.4 C 34 %
3027 25-02-2020 00:27:17 10.2 C 35 %
3028 25-02-2020 00:37:18 10.4 C 35 %
3029 25-02-2020 00:47:17 10.6 C 35 %
3030 25-02-2020 00:57:17 10.5 C 35 %
3031 25-02-2020 01:08:17 10.5 C 35 %
3032 25-02-2020 01:18:17 10.5 C 35 %
3033 25-02-2020 01:28:17 10.5 C 35 %
3034 25-02-2020 01:38:17 10.6 C 35 %
3035 25-02-2020 01:48:17 10.4 C 35 %
3036 25-02-2020 01:58:17 10.5 C 35 %
3037 25-02-2020 02:08:17 10.4 C 35 %
3038 25-02-2020 02:18:17 10.3 C 35 %
3039 25-02-2020 02:28:17 10.4 C 35 %
3040 25-02-2020 02:38:17 10.3 C 35 %
3041 25-02-2020 02:48:17 10.3 C 35 %
3042 25-02-2020 02:58:17 10.1 C 35 %
3043 25-02-2020 03:08:17 9.7 C 36 %
3044 25-02-2020 03:18:17 9.8 C 36 %
3045 25-02-2020 03:28:18 10 C 36 %
3046 25-02-2020 03:38:18 10 C 35 %
3047 25-02-2020 03:48:17 10 C 35 %
3048 25-02-2020 03:58:18 10 C 35 %
3049 25-02-2020 04:08:18 10 C 35 %
3050 25-02-2020 04:18:18 9.9 C 36 %
Sensor: Nr:Datum:Temp:Feuchte:
Aussen-T/F 3051 25-02-2020 04:28:18 9.9 C 36 %
3052 25-02-2020 04:38:18 9.9 C 36 %
3053 25-02-2020 04:48:17 9.9 C 36 %
3054 25-02-2020 04:58:17 9.9 C 36 %
3055 25-02-2020 05:08:18 9.9 C 36 %
3056 25-02-2020 05:18:17 9.8 C 36 %
3057 25-02-2020 05:28:18 9.7 C 36 %
3058 25-02-2020 05:38:18 9.7 C 36 %
3059 25-02-2020 05:48:18 9.7 C 36 %
3060 25-02-2020 05:58:18 9.7 C 35 %
3061 25-02-2020 06:08:18 9.7 C 35 %
3062 25-02-2020 06:18:17 9.6 C 35 %
3063 25-02-2020 06:28:18 9.5 C 35 %
3064 25-02-2020 06:38:18 9.4 C 36 %
3065 25-02-2020 06:48:17 9.4 C 36 %
3066 25-02-2020 06:58:17 9.3 C 36 %
3067 25-02-2020 07:08:17 9.2 C 36 %
3068 25-02-2020 07:18:17 9.1 C 36 %
3069 25-02-2020 07:28:18 9.1 C 36 %
3070 25-02-2020 07:38:18 8.6 C 38 %
3071 25-02-2020 07:48:17 8.4 C 40 %
3072 25-02-2020 07:58:17 8.2 C 42 %
3073 25-02-2020 08:08:18 8.1 C 43 %
3074 25-02-2020 08:18:17 8 C 44 %
3075 25-02-2020 08:28:17 8 C 42 %
Sensor: Nr:Datum:Temp:Feuchte:
Aussen-T/F 3076 25-02-2020 08:38:17 8 C 42 %
3077 25-02-2020 08:48:17 8.1 C 42 %
3078 25-02-2020 08:58:17 8.2 C 41 %
3079 25-02-2020 09:08:18 8.2 C 41 %
3080 25-02-2020 09:18:17 8.2 C 40 %
3081 25-02-2020 09:28:17 8.5 C 38 %
3082 25-02-2020 09:38:18 8.7 C 38 %
3083 25-02-2020 09:48:17 8.7 C 36 %
3084 25-02-2020 09:58:17 8.6 C 34 %
3085 25-02-2020 10:08:17 8.6 C 33 %
3086 25-02-2020 10:18:17 8.2 C 33 %
3087 25-02-2020 10:28:17 8.7 C 33 %
3088 25-02-2020 10:38:18 8.7 C 33 %
3089 25-02-2020 10:48:17 9.2 C 32 %
3090 25-02-2020 10:58:17 9.6 C 31 %
3091 25-02-2020 11:08:18 9.1 C 32 %
3092 25-02-2020 11:18:17 8 C 32 %
3093 25-02-2020 11:28:17 8.3 C 32 %
3094 25-02-2020 11:38:17 8.2 C 31 %
3095 25-02-2020 11:48:17 8.5 C 31 %
3096 25-02-2020 11:58:18 8.9 C 30 %
3097 25-02-2020 12:08:18 11.2 C 26 %
3098 25-02-2020 12:18:18 10.4 C 22 %
3099 25-02-2020 12:28:18 10.7 C 21 %
3100 25-02-2020 12:38:18 10.2 C 23 %
Sensor: Nr:Datum:Temp:Feuchte:
Aussen-T/F 3101 25-02-2020 12:48:18 10.2 C 22 %
3102 25-02-2020 12:58:18 10.6 C 25 %
3103 25-02-2020 13:08:18 10.1 C 25 %
3104 25-02-2020 13:18:17 11.1 C 25 %
3105 25-02-2020 13:28:17 11.1 C 25 %
3106 25-02-2020 13:38:17 11.4 C 23 %
3107 25-02-2020 13:48:17 10 C 22 %
3108 25-02-2020 13:58:17 10.7 C 23 %
3109 25-02-2020 14:08:17 10.7 C 22 %
3110 25-02-2020 14:18:17 10.4 C 20 %
3111 25-02-2020 14:28:17 10.2 C 22 %
3112 25-02-2020 14:38:18 10.2 C 21 %
3113 25-02-2020 14:48:17 11 C 21 %
3114 25-02-2020 14:58:17 10.4 C 22 %
3115 25-02-2020 15:08:17 10.1 C 25 %
3116 25-02-2020 15:18:17 11.1 C 22 %
3117 25-02-2020 15:28:17 11.1 C 22 %
3118 25-02-2020 15:38:17 11.2 C 20 %
3119 25-02-2020 15:48:18 11.5 C 20 %
3120 25-02-2020 15:58:18 11.7 C 20 %
3121 25-02-2020 16:08:18 10.3 C 21 %
3122 25-02-2020 16:18:18 10.1 C 21 %
3123 25-02-2020 16:28:18 10.1 C 20 %
3124 25-02-2020 16:38:18 12.4 C 20 %
3125 25-02-2020 16:48:17 11.5 C 20 %
Sensor: Nr:Datum:Temp:Feuchte:
Aussen-T/F 3126 25-02-2020 16:58:18 10 C 20 %
3127 25-02-2020 17:08:18 9.9 C 20 %
3128 25-02-2020 17:18:17 10.8 C 20 %
3129 25-02-2020 17:28:18 9.5 C 25 %
3130 25-02-2020 17:38:18 9.1 C 25 %
3131 25-02-2020 17:48:18 9 C 25 %
3132 25-02-2020 17:58:18 8.9 C 27 %
3133 25-02-2020 18:08:18 8.8 C 26 %
3134 25-02-2020 18:18:18 8.5 C 27 %
3135 25-02-2020 18:28:18 8.4 C 28 %
3136 25-02-2020 18:38:18 8.6 C 27 %
3137 25-02-2020 18:48:17 8.4 C 28 %
3138 25-02-2020 18:58:17 7.1 C 31 %
3139 25-02-2020 19:08:18 6.5 C 35 %
3140 25-02-2020 19:18:18 6.3 C 35 %
3141 25-02-2020 19:28:18 6.2 C 35 %
3142 25-02-2020 19:38:18 6 C 37 %
3143 25-02-2020 19:48:17 5.8 C 40 %
3144 25-02-2020 19:58:17 5.7 C 40 %
3145 25-02-2020 20:08:18 5.6 C 40 %
3146 25-02-2020 20:18:17 5.5 C 41 %
3147 25-02-2020 20:28:18 5.6 C 41 %
3148 25-02-2020 20:38:18 5.9 C 39 %
3149 25-02-2020 20:48:17 6 C 38 %
3150 25-02-2020 20:58:17 5.9 C 39 %
Sensor: Nr:Datum:Temp:Feuchte:
Aussen-T/F 3151 25-02-2020 21:08:17 5.3 C 40 %
3152 25-02-2020 21:18:17 5.3 C 40 %
3153 25-02-2020 21:28:17 5.3 C 40 %
3154 25-02-2020 21:38:17 5.2 C 41 %
3155 25-02-2020 21:48:18 5.8 C 36 %
3156 25-02-2020 21:58:18 5.8 C 35 %
3157 25-02-2020 22:08:18 5.6 C 34 %
3158 25-02-2020 22:18:17 5.6 C 33 %
3159 25-02-2020 22:28:17 5.3 C 33 %
3160 25-02-2020 22:38:17 4.8 C 34 %
3161 25-02-2020 22:48:18 4.4 C 35 %
3162 25-02-2020 22:58:18 4.2 C 35 %
3163 25-02-2020 23:08:18 4.2 C 35 %
3164 25-02-2020 23:18:18 4.4 C 35 %
3165 25-02-2020 23:28:18 4.6 C 35 %
3166 25-02-2020 23:38:18 5.4 C 34 %
3167 25-02-2020 23:48:17 5.5 C 34 %
3168 25-02-2020 23:58:17 5.4 C 33 %
3169 26-02-2020 00:08:17 5.3 C 35 %
3170 26-02-2020 00:18:17 5 C 35 %
3171 26-02-2020 00:28:17 4.9 C 36 %
3172 26-02-2020 00:38:18 5.1 C 35 %
3173 26-02-2020 00:48:17 5.4 C 35 %
3174 26-02-2020 00:58:17 5.3 C 35 %
3175 26-02-2020 01:08:17 5.4 C 35 %
Sensor: Nr:Datum:Temp:Feuchte:
Aussen-T/F 3176 26-02-2020 01:18:17 5.5 C 35 %
3177 26-02-2020 01:28:17 5.4 C 35 %
3178 26-02-2020 01:38:17 5.3 C 35 %
3179 26-02-2020 01:48:17 5.1 C 35 %
3180 26-02-2020 01:58:17 5 C 35 %
3181 26-02-2020 02:08:18 5.2 C 35 %
3182 26-02-2020 02:18:18 5.2 C 34 %
3183 26-02-2020 02:28:18 5.2 C 34 %
3184 26-02-2020 02:38:17 5 C 34 %
3185 26-02-2020 02:48:18 5.1 C 33 %
3186 26-02-2020 02:58:18 5 C 32 %
3187 26-02-2020 03:08:17 4.8 C 33 %
3188 26-02-2020 03:18:17 4.7 C 33 %
3189 26-02-2020 03:28:17 4.3 C 34 %
3190 26-02-2020 03:38:18 3.8 C 35 %
3191 26-02-2020 03:48:18 3.7 C 35 %
3192 26-02-2020 03:58:18 4 C 34 %
3193 26-02-2020 04:08:18 3.9 C 35 %
3194 26-02-2020 04:18:18 3.9 C 35 %
3195 26-02-2020 04:28:18 3.9 C 35 %
3196 26-02-2020 04:38:18 3.8 C 35 %
3197 26-02-2020 04:48:17 3.9 C 35 %
3198 26-02-2020 04:58:18 3.9 C 35 %
3199 26-02-2020 05:08:18 4 C 33 %
3200 26-02-2020 05:18:18 3.9 C 35 %
Sensor: Nr:Datum:Temp:Feuchte:
Aussen-T/F 3201 26-02-2020 05:28:18 4 C 33 %
3202 26-02-2020 05:38:18 3.9 C 35 %
3203 26-02-2020 05:48:17 3.7 C 35 %
3204 26-02-2020 05:58:18 3.9 C 34 %
3205 26-02-2020 06:08:18 3.9 C 34 %
3206 26-02-2020 06:18:18 4 C 32 %
3207 26-02-2020 06:28:18 3.7 C 34 %
3208 26-02-2020 06:38:18 3.9 C 33 %
3209 26-02-2020 06:48:17 3.7 C 33 %
3210 26-02-2020 06:58:17 3.6 C 33 %
3211 26-02-2020 07:08:18 3.4 C 34 %
3212 26-02-2020 07:18:18 3.4 C 34 %
3213 26-02-2020 07:28:18 3.2 C 35 %
3214 26-02-2020 07:38:17 3.4 C 35 %
3215 26-02-2020 07:48:18 3.4 C 35 %
3216 26-02-2020 07:58:18 3.4 C 35 %
3217 26-02-2020 08:08:18 3.5 C 35 %
3218 26-02-2020 08:18:17 3.5 C 35 %
3219 26-02-2020 08:28:17 3.6 C 35 %
3220 26-02-2020 08:38:18 3.6 C 34 %
3221 26-02-2020 08:48:18 3.5 C 35 %
3222 26-02-2020 08:58:18 3.3 C 35 %
3223 26-02-2020 09:08:17 2.9 C 36 %
3224 26-02-2020 09:18:17 2.9 C 37 %
3225 26-02-2020 09:28:17 3 C 37 %
Sensor: Nr:Datum:Temp:Feuchte:
Aussen-T/F 3226 26-02-2020 09:38:18 3.2 C 36 %
3227 26-02-2020 09:48:18 3.6 C 36 %
3228 26-02-2020 09:58:18 3.4 C 36 %
3229 26-02-2020 10:08:18 3.4 C 36 %
3230 26-02-2020 10:18:17 3.4 C 36 %
3231 26-02-2020 10:28:17 3.3 C 37 %
3232 26-02-2020 10:38:17 3.5 C 36 %
3233 26-02-2020 10:48:17 4.2 C 35 %
3234 26-02-2020 10:58:17 4.4 C 35 %
3235 26-02-2020 11:08:17 4.5 C 34 %
3236 26-02-2020 11:18:17 5 C 33 %
3237 26-02-2020 11:28:17 5.1 C 33 %
3238 26-02-2020 11:38:18 5.4 C 32 %
3239 26-02-2020 11:48:18 5.3 C 32 %
3240 26-02-2020 11:58:18 5.9 C 32 %
3241 26-02-2020 12:08:17 6.1 C 31 %
3242 26-02-2020 12:18:17 6.4 C 31 %
3243 26-02-2020 12:28:17 5.7 C 31 %
3244 26-02-2020 12:38:17 5.7 C 31 %
3245 26-02-2020 12:48:17 5.7 C 31 %
3246 26-02-2020 12:58:17 6.7 C 29 %
3247 26-02-2020 13:08:17 6.7 C 29 %
3248 26-02-2020 13:18:18 6.1 C 30 %
3249 26-02-2020 13:28:18 5 C 31 %
3250 26-02-2020 13:38:17 5.3 C 31 %
Sensor: Nr:Datum:Temp:Feuchte:
Aussen-T/F 3251 26-02-2020 13:48:17 5.3 C 31 %
3252 26-02-2020 13:58:17 5.1 C 31 %
3253 26-02-2020 14:08:17 5.1 C 32 %
3254 26-02-2020 14:18:17 5.1 C 32 %
3255 26-02-2020 14:28:17 5.1 C 32 %
3256 26-02-2020 14:38:17 5.6 C 32 %
3257 26-02-2020 14:48:17 5.8 C 32 %
3258 26-02-2020 14:58:17 5.6 C 32 %
3259 26-02-2020 15:08:17 5.6 C 32 %
3260 26-02-2020 15:18:17 6.4 C 31 %
3261 26-02-2020 15:28:17 7.6 C 29 %
3262 26-02-2020 15:38:17 6.3 C 30 %
3263 26-02-2020 15:48:17 6.2 C 30 %
3264 26-02-2020 15:58:17 5.8 C 30 %
3265 26-02-2020 16:08:17 5.9 C 30 %
3266 26-02-2020 16:18:17 5.5 C 30 %
3267 26-02-2020 16:28:17 5.5 C 30 %
3268 26-02-2020 16:38:17 5.4 C 30 %
3269 26-02-2020 16:48:18 5.6 C 30 %
3270 26-02-2020 16:58:18 5.4 C 30 %
3271 26-02-2020 17:08:18 5.3 C 30 %
3272 26-02-2020 17:18:18 5.1 C 30 %
3273 26-02-2020 17:28:18 5.1 C 30 %
3274 26-02-2020 17:38:17 4.8 C 30 %
3275 26-02-2020 17:48:18 4.5 C 31 %
Sensor: Nr:Datum:Temp:Feuchte:
Aussen-T/F 3276 26-02-2020 17:58:18 4.2 C 31 %
3277 26-02-2020 18:08:18 4 C 32 %
3278 26-02-2020 18:18:18 4 C 32 %
3279 26-02-2020 18:28:18 4 C 32 %
3280 26-02-2020 18:38:18 4 C 32 %
3281 26-02-2020 18:48:18 4.1 C 32 %
3282 26-02-2020 18:58:18 4.1 C 32 %
3283 26-02-2020 19:08:18 4 C 32 %
3284 26-02-2020 19:18:17 4 C 33 %
3285 26-02-2020 19:28:17 3.9 C 35 %
3286 26-02-2020 19:38:17 3.8 C 35 %
3287 26-02-2020 19:48:17 3.6 C 35 %
3288 26-02-2020 19:58:17 3.4 C 35 %
3289 26-02-2020 20:08:17 3.3 C 35 %
3290 26-02-2020 20:18:17 3.6 C 35 %
3291 26-02-2020 20:28:17 3.6 C 35 %
3292 26-02-2020 20:38:17 3.6 C 35 %
3293 26-02-2020 20:48:17 3.4 C 35 %
3294 26-02-2020 20:58:17 3.6 C 35 %
3295 26-02-2020 21:08:18 3.6 C 35 %
3296 26-02-2020 21:18:18 3.5 C 35 %
3297 26-02-2020 21:28:18 3.2 C 35 %
3298 26-02-2020 21:38:18 3.4 C 35 %
3299 26-02-2020 21:48:17 3.4 C 35 %
3300 26-02-2020 21:58:17 3.5 C 35 %
Sensor: Nr:Datum:Temp:Feuchte:
Aussen-T/F 3301 26-02-2020 22:08:18 3.3 C 36 %
3302 26-02-2020 22:18:18 3.3 C 36 %
3303 26-02-2020 22:28:18 3.3 C 36 %
3304 26-02-2020 22:38:18 3.4 C 36 %
3305 26-02-2020 22:48:17 3.2 C 37 %
3306 26-02-2020 22:58:17 3.3 C 37 %
3307 26-02-2020 23:08:18 3.1 C 37 %
3308 26-02-2020 23:18:18 3 C 37 %
3309 26-02-2020 23:28:18 2.9 C 38 %
3310 26-02-2020 23:38:17 2.8 C 38 %
3311 26-02-2020 23:48:17 2.9 C 37 %
3312 26-02-2020 23:58:17 2.7 C 38 %
3313 27-02-2020 00:08:17 2.9 C 37 %
3314 27-02-2020 00:18:17 3.1 C 37 %
3315 27-02-2020 00:28:17 2.8 C 37 %
3316 27-02-2020 00:38:18 3.1 C 36 %
3317 27-02-2020 00:48:18 2.9 C 37 %
3318 27-02-2020 00:58:18 2.8 C 37 %
3319 27-02-2020 01:08:18 2.3 C 38 %
3320 27-02-2020 01:18:18 2.2 C 38 %
3321 27-02-2020 01:28:18 2.2 C 38 %
3322 27-02-2020 01:38:18 2 C 38 %
3323 27-02-2020 01:48:17 2.6 C 38 %
3324 27-02-2020 01:58:17 2.7 C 38 %
3325 27-02-2020 02:08:18 2.6 C 38 %
Sensor: Nr:Datum:Temp:Feuchte:
Aussen-T/F 3326 27-02-2020 02:18:17 2.9 C 37 %
3327 27-02-2020 02:28:17 2.9 C 37 %
3328 27-02-2020 02:38:17 2.5 C 38 %
3329 27-02-2020 02:48:17 2.7 C 38 %
3330 27-02-2020 02:58:17 3.1 C 36 %
3331 27-02-2020 03:08:18 3.1 C 37 %
3332 27-02-2020 03:18:17 2.6 C 40 %
3333 27-02-2020 03:28:17 2.6 C 40 %
3334 27-02-2020 03:38:17 2.6 C 40 %
3335 27-02-2020 03:48:17 2.7 C 40 %
3336 27-02-2020 03:58:17 2.7 C 40 %
3337 27-02-2020 04:08:18 2.7 C 40 %
3338 27-02-2020 04:18:18 2.7 C 40 %
3339 27-02-2020 04:28:18 2.6 C 40 %
3340 27-02-2020 04:38:18 2.7 C 39 %
3341 27-02-2020 04:48:17 2.3 C 40 %
3342 27-02-2020 04:58:17 2.3 C 39 %
3343 27-02-2020 05:08:18 2.1 C 40 %
3344 27-02-2020 05:18:17 2.3 C 40 %
3345 27-02-2020 05:28:18 2 C 40 %
3346 27-02-2020 05:38:17 2 C 40 %
3347 27-02-2020 05:48:17 2.3 C 40 %
3348 27-02-2020 05:58:17 2.4 C 39 %
3349 27-02-2020 06:08:17 2.2 C 39 %
3350 27-02-2020 06:18:17 2.2 C 38 %
Sensor: Nr:Datum:Temp:Feuchte:
Aussen-T/F 3351 27-02-2020 06:28:17 2.3 C 38 %
3352 27-02-2020 06:38:18 2.3 C 38 %
3353 27-02-2020 06:48:17 2.3 C 38 %
3354 27-02-2020 06:58:17 2.1 C 38 %
3355 27-02-2020 07:08:18 2.3 C 38 %
3356 27-02-2020 07:18:18 2.3 C 38 %
3357 27-02-2020 07:28:18 2.4 C 39 %
3358 27-02-2020 07:38:18 2.5 C 38 %
3359 27-02-2020 07:48:17 2.4 C 39 %
3360 27-02-2020 07:58:17 2.6 C 39 %
3361 27-02-2020 08:08:17 2.5 C 39 %
3362 27-02-2020 08:18:17 2.6 C 40 %
3363 27-02-2020 08:28:17 2.9 C 40 %
3364 27-02-2020 08:38:17 3.2 C 38 %
3365 27-02-2020 08:48:17 3.5 C 37 %
3366 27-02-2020 08:58:17 3.8 C 37 %
3367 27-02-2020 09:08:17 4.2 C 35 %
3368 27-02-2020 09:18:17 4.3 C 35 %
3369 27-02-2020 09:28:17 4.6 C 35 %
3370 27-02-2020 09:38:17 4.7 C 35 %
3371 27-02-2020 09:48:17 4.9 C 35 %
3372 27-02-2020 09:58:17 5.2 C 34 %
3373 27-02-2020 10:08:17 5.1 C 34 %
3374 27-02-2020 10:18:17 5.3 C 33 %
3375 27-02-2020 10:28:17 5.2 C 33 %
Sensor: Nr:Datum:Temp:Feuchte:
Aussen-T/F 3376 27-02-2020 10:38:17 5.4 C 33 %
3377 27-02-2020 10:48:17 5.4 C 33 %
3378 27-02-2020 10:58:17 5 C 33 %
3379 27-02-2020 11:08:17 4.6 C 35 %
3380 27-02-2020 11:18:17 4.2 C 35 %
3381 27-02-2020 11:28:17 3.7 C 36 %
3382 27-02-2020 11:38:17 3.7 C 38 %
3383 27-02-2020 11:48:18 3.9 C 39 %
3384 27-02-2020 11:58:18 3.9 C 39 %
3385 27-02-2020 12:08:18 3.8 C 39 %
3386 27-02-2020 12:18:18 3.9 C 39 %
3387 27-02-2020 12:28:18 3.8 C 40 %
3388 27-02-2020 12:38:18 3.8 C 40 %
3389 27-02-2020 12:48:17 3.5 C 40 %
3390 27-02-2020 12:58:17 3.4 C 41 %
3391 27-02-2020 13:08:18 3.3 C 41 %
3392 27-02-2020 13:18:18 3.2 C 41 %
3393 27-02-2020 13:28:18 3 C 42 %
3394 27-02-2020 13:38:17 2.8 C 42 %
3395 27-02-2020 13:48:17 2.6 C 43 %
3396 27-02-2020 13:58:17 2.6 C 43 %
3397 27-02-2020 14:08:17 2.6 C 44 %
3398 27-02-2020 14:18:17 2.7 C 44 %
3399 27-02-2020 14:28:17 2.5 C 44 %
3400 27-02-2020 14:38:18 2.5 C 44 %
Sensor: Nr:Datum:Temp:Feuchte:
Aussen-T/F 3401 27-02-2020 14:48:18 2.5 C 44 %
3402 27-02-2020 14:58:18 2.4 C 44 %
3403 27-02-2020 15:08:18 2.3 C 44 %
3404 27-02-2020 15:18:18 2.2 C 44 %
3405 27-02-2020 15:28:18 2.3 C 45 %
3406 27-02-2020 15:38:18 2.1 C 44 %
3407 27-02-2020 15:48:17 2.1 C 45 %
3408 27-02-2020 15:58:17 1.8 C 46 %
3409 27-02-2020 16:08:17 1.6 C 46 %
3410 27-02-2020 16:18:17 1.1 C 46 %
3411 27-02-2020 16:28:17 0.8 C 47 %
3412 27-02-2020 16:38:18 0.4 C 48 %
3413 27-02-2020 16:48:17 0.2 C 48 %
3414 27-02-2020 16:58:17 0.2 C 48 %
3415 27-02-2020 17:08:18 0 C 49 %
3416 27-02-2020 17:18:18 0 C 48 %
3417 27-02-2020 17:28:18 0 C 48 %
3418 27-02-2020 17:38:17 0 C 48 %
3419 27-02-2020 17:48:17 0 C 48 %
3420 27-02-2020 17:58:17 0 C 48 %
3421 27-02-2020 18:08:18 0.1 C 48 %
3422 27-02-2020 18:18:17 0.1 C 48 %
3423 27-02-2020 18:28:17 0.1 C 48 %
3424 27-02-2020 18:38:17 0.1 C 48 %
3425 27-02-2020 18:48:18 0.1 C 48 %
Sensor: Nr:Datum:Temp:Feuchte:
Aussen-T/F 3426 27-02-2020 18:58:18 0.1 C 48 %
3427 27-02-2020 19:08:18 0.3 C 48 %
3428 27-02-2020 19:18:18 0.4 C 48 %
3429 27-02-2020 19:28:18 0.3 C 48 %
3430 27-02-2020 19:38:18 0.6 C 48 %
3431 27-02-2020 19:48:18 0.6 C 48 %
3432 27-02-2020 19:58:18 0.6 C 48 %
3433 27-02-2020 20:08:18 0.7 C 48 %
3434 27-02-2020 20:18:18 0.6 C 48 %
3435 27-02-2020 20:28:18 0.8 C 48 %
3436 27-02-2020 20:38:17 0.6 C 48 %
3437 27-02-2020 20:48:17 0.5 C 48 %
3438 27-02-2020 20:58:17 0.6 C 48 %
3439 27-02-2020 21:08:17 0.6 C 48 %
3440 27-02-2020 21:18:17 0.7 C 47 %
3441 27-02-2020 21:28:17 0.7 C 47 %
3442 27-02-2020 21:38:17 0.7 C 47 %
3443 27-02-2020 21:48:17 0.7 C 47 %
3444 27-02-2020 21:58:17 0.7 C 48 %
3445 27-02-2020 22:08:18 0.7 C 48 %
3446 27-02-2020 22:18:17 0.6 C 48 %
3447 27-02-2020 22:28:18 0.7 C 49 %
3448 27-02-2020 22:38:18 1 C 47 %
3449 27-02-2020 22:48:17 1 C 45 %
3450 27-02-2020 22:58:18 1 C 46 %
Sensor: Nr:Datum:Temp:Feuchte:
Aussen-T/F 3451 27-02-2020 23:08:18 1.1 C 46 %
3452 27-02-2020 23:18:18 1.4 C 46 %
3453 27-02-2020 23:28:18 1.6 C 45 %
3454 27-02-2020 23:38:18 1.5 C 44 %
3455 27-02-2020 23:48:18 1.7 C 44 %
3456 27-02-2020 23:58:18 1.6 C 43 %
3457 28-02-2020 00:08:18 1.7 C 43 %
3458 28-02-2020 00:18:17 1.9 C 43 %
3459 28-02-2020 00:28:17 1.7 C 43 %
3460 28-02-2020 00:38:18 1.6 C 45 %
3461 28-02-2020 00:48:17 1.5 C 45 %
3462 28-02-2020 00:58:17 1.7 C 45 %
3463 28-02-2020 01:08:17 1.4 C 46 %
3464 28-02-2020 01:18:17 1.4 C 46 %
3465 28-02-2020 01:28:17 1.3 C 46 %
3466 28-02-2020 01:38:17 1.5 C 45 %
3467 28-02-2020 01:48:18 1.5 C 45 %
3468 28-02-2020 01:58:18 1.4 C 45 %
3469 28-02-2020 02:08:18 1.4 C 46 %
3470 28-02-2020 02:18:18 1.4 C 45 %
3471 28-02-2020 02:28:18 1.5 C 45 %
3472 28-02-2020 02:38:18 1.4 C 44 %
3473 28-02-2020 02:48:17 1.4 C 44 %
3474 28-02-2020 02:58:18 1.4 C 43 %
3475 28-02-2020 03:08:18 1.5 C 42 %
Sensor: Nr:Datum:Temp:Feuchte:
Aussen-T/F 3476 28-02-2020 03:18:18 1.3 C 43 %
3477 28-02-2020 03:28:18 1.1 C 43 %
3478 28-02-2020 03:38:18 1 C 43 %
3479 28-02-2020 03:48:17 0.9 C 44 %
3480 28-02-2020 03:58:17 1.1 C 44 %
3481 28-02-2020 04:08:17 1.2 C 43 %
3482 28-02-2020 04:18:17 1.3 C 43 %
3483 28-02-2020 04:28:18 1.3 C 43 %
3484 28-02-2020 04:38:18 1.3 C 43 %
3485 28-02-2020 04:48:17 1.3 C 43 %
3486 28-02-2020 04:58:17 1.4 C 42 %
3487 28-02-2020 05:08:17 1.2 C 42 %
3488 28-02-2020 05:18:17 1 C 43 %
3489 28-02-2020 05:28:17 0.9 C 45 %
3490 28-02-2020 05:38:17 1 C 43 %
3491 28-02-2020 05:48:17 1.1 C 42 %
3492 28-02-2020 05:58:17 1.1 C 43 %
3493 28-02-2020 06:08:17 0.8 C 44 %
3494 28-02-2020 06:18:17 0.6 C 45 %
3495 28-02-2020 06:28:17 0.8 C 44 %
3496 28-02-2020 06:38:18 0.8 C 43 %
3497 28-02-2020 06:48:18 0.7 C 44 %
3498 28-02-2020 06:58:18 0.5 C 43 %
3499 28-02-2020 07:08:18 0.6 C 43 %
3500 28-02-2020 07:18:17 0.2 C 45 %
Sensor: Nr:Datum:Temp:Feuchte:
Aussen-T/F 3501 28-02-2020 07:28:17 0.7 C 43 %
3502 28-02-2020 07:38:17 0.7 C 43 %
3503 28-02-2020 07:48:18 0.4 C 44 %
3504 28-02-2020 07:58:18 0.4 C 44 %
3505 28-02-2020 08:08:18 0.2 C 45 %
3506 28-02-2020 08:18:18 0.4 C 44 %
3507 28-02-2020 08:28:18 0.2 C 45 %
3508 28-02-2020 08:38:17 0.7 C 44 %
3509 28-02-2020 08:48:17 0.8 C 43 %
3510 28-02-2020 08:58:17 1.1 C 42 %
3511 28-02-2020 09:08:17 1.4 C 41 %
3512 28-02-2020 09:18:17 1.3 C 42 %
3513 28-02-2020 09:28:17 1.5 C 41 %
3514 28-02-2020 09:38:17 1.7 C 41 %
3515 28-02-2020 09:48:18 1.8 C 41 %
3516 28-02-2020 09:58:18 1.9 C 41 %
3517 28-02-2020 10:08:18 2.1 C 40 %
3518 28-02-2020 10:18:18 2.5 C 40 %
3519 28-02-2020 10:28:18 2.8 C 39 %
3520 28-02-2020 10:38:17 3.2 C 37 %
3521 28-02-2020 10:48:17 3.1 C 37 %
3522 28-02-2020 10:58:17 3.3 C 37 %
3523 28-02-2020 11:08:17 3.6 C 37 %
3524 28-02-2020 11:18:17 3.8 C 37 %
3525 28-02-2020 11:28:17 4.2 C 36 %
Sensor: Nr:Datum:Temp:Feuchte:
Aussen-T/F 3526 28-02-2020 11:38:17 4.5 C 36 %
3527 28-02-2020 11:48:18 3.8 C 37 %
3528 28-02-2020 11:58:18 4.1 C 35 %
3529 28-02-2020 12:08:18 4.3 C 35 %
3530 28-02-2020 12:18:18 4.3 C 36 %
3531 28-02-2020 12:28:18 4.6 C 35 %
3532 28-02-2020 12:38:18 5.1 C 34 %
3533 28-02-2020 12:48:18 6.3 C 33 %
3534 28-02-2020 12:58:18 6.5 C 33 %
3535 28-02-2020 13:08:18 6.8 C 32 %
3536 28-02-2020 13:18:18 7.2 C 31 %
3537 28-02-2020 13:28:18 6.7 C 31 %
3538 28-02-2020 13:38:18 7 C 30 %
3539 28-02-2020 13:48:17 7.8 C 29 %
3540 28-02-2020 13:58:17 8 C 28 %
3541 28-02-2020 14:08:18 8.1 C 27 %
3542 28-02-2020 14:18:18 8 C 28 %
3543 28-02-2020 14:28:18 8.2 C 28 %
3544 28-02-2020 14:38:18 8.1 C 27 %
3545 28-02-2020 14:48:17 8.3 C 27 %
3546 28-02-2020 14:58:18 7.7 C 27 %
3547 28-02-2020 15:08:18 8 C 27 %
3548 28-02-2020 15:18:17 8 C 27 %
3549 28-02-2020 15:28:17 8.8 C 26 %
3550 28-02-2020 15:38:18 8.5 C 25 %
Sensor: Nr:Datum:Temp:Feuchte:
Aussen-T/F 3551 28-02-2020 15:48:18 7.8 C 26 %
3552 28-02-2020 15:58:18 7.8 C 26 %
3553 28-02-2020 16:08:18 7.3 C 26 %
3554 28-02-2020 16:18:18 7.5 C 27 %
3555 28-02-2020 16:28:18 7 C 30 %
3556 28-02-2020 16:38:18 6.8 C 31 %
3557 28-02-2020 16:48:17 6.6 C 32 %
3558 28-02-2020 16:58:18 6.7 C 31 %
3559 28-02-2020 17:08:18 6.1 C 32 %
3560 28-02-2020 17:18:18 5.8 C 35 %
3561 28-02-2020 17:28:18 5.1 C 35 %
3562 28-02-2020 17:38:18 5.2 C 35 %
3563 28-02-2020 17:48:17 4.8 C 37 %
3564 28-02-2020 17:58:18 4.6 C 37 %
3565 28-02-2020 18:08:17 4.5 C 37 %
3566 28-02-2020 18:18:17 4.5 C 37 %
3567 28-02-2020 18:28:17 4.7 C 36 %
3568 28-02-2020 18:38:18 5.1 C 34 %
3569 28-02-2020 18:48:17 5.1 C 33 %
3570 28-02-2020 18:58:17 4.9 C 35 %
3571 28-02-2020 19:08:17 5 C 32 %
3572 28-02-2020 19:18:17 5 C 32 %
3573 28-02-2020 19:28:18 4.8 C 35 %
3574 28-02-2020 19:38:17 5.3 C 33 %
3575 28-02-2020 19:48:17 5 C 34 %
Sensor: Nr:Datum:Temp:Feuchte:
Aussen-T/F 3576 28-02-2020 19:58:17 5 C 34 %
3577 28-02-2020 20:08:17 4.7 C 35 %
3578 28-02-2020 20:18:18 4.9 C 33 %
3579 28-02-2020 20:28:18 4.5 C 35 %
3580 28-02-2020 20:38:18 4.4 C 36 %
3581 28-02-2020 20:48:17 4.1 C 36 %
3582 28-02-2020 20:58:17 4 C 38 %
3583 28-02-2020 21:08:18 3.7 C 40 %
3584 28-02-2020 21:18:18 3.7 C 41 %
3585 28-02-2020 21:28:18 3.8 C 40 %
3586 28-02-2020 21:38:18 3.8 C 40 %
3587 28-02-2020 21:48:17 4.2 C 37 %
3588 28-02-2020 21:58:17 4 C 38 %
3589 28-02-2020 22:08:18 3.9 C 39 %
3590 28-02-2020 22:18:18 3.7 C 40 %
3591 28-02-2020 22:28:18 3.7 C 41 %
3592 28-02-2020 22:38:17 3.6 C 42 %
3593 28-02-2020 22:48:17 3.5 C 44 %
3594 28-02-2020 22:58:17 3.6 C 45 %
3595 28-02-2020 23:08:17 3.4 C 46 %
3596 28-02-2020 23:18:17 3.5 C 46 %
3597 28-02-2020 23:28:18 3.6 C 45 %
3598 28-02-2020 23:38:18 3.8 C 43 %
3599 28-02-2020 23:48:18 3.9 C 44 %
3600 28-02-2020 23:58:18 3.9 C 44 %
Sensor: Nr:Datum:Temp:Feuchte:
Aussen-T/F 3601 29-02-2020 00:08:18 4.3 C 42 %
3602 29-02-2020 00:18:18 4.5 C 42 %
3603 29-02-2020 00:28:18 4.7 C 41 %
3604 29-02-2020 00:38:18 5.1 C 40 %
3605 29-02-2020 00:48:17 5 C 41 %
3606 29-02-2020 00:58:17 4.8 C 42 %
3607 29-02-2020 01:08:18 5 C 42 %
3608 29-02-2020 01:18:18 4.8 C 43 %
3609 29-02-2020 01:28:18 4.9 C 45 %
3610 29-02-2020 01:38:18 5 C 44 %
3611 29-02-2020 01:48:17 5.1 C 45 %
3612 29-02-2020 01:58:17 5.1 C 45 %
3613 29-02-2020 02:08:18 5.2 C 44 %
3614 29-02-2020 02:18:18 5.2 C 45 %
3615 29-02-2020 02:28:18 5.3 C 45 %
3616 29-02-2020 02:38:18 5.6 C 44 %
3617 29-02-2020 02:48:17 5.9 C 43 %
3618 29-02-2020 02:58:17 7 C 41 %
3619 29-02-2020 03:08:18 7.5 C 40 %
3620 29-02-2020 03:18:18 7.8 C 39 %
3621 29-02-2020 03:28:18 8.5 C 38 %
3622 29-02-2020 03:38:18 8.3 C 38 %
3623 29-02-2020 03:48:17 8.8 C 38 %
3624 29-02-2020 03:58:17 8.9 C 38 %
3625 29-02-2020 04:08:18 9.1 C 37 %
Sensor: Nr:Datum:Temp:Feuchte:
Aussen-T/F 3626 29-02-2020 04:18:17 9.4 C 37 %
3627 29-02-2020 04:28:18 9.5 C 37 %
3628 29-02-2020 04:38:18 9 C 37 %
3629 29-02-2020 04:48:17 9.3 C 37 %
3630 29-02-2020 04:58:17 9 C 37 %
3631 29-02-2020 05:08:18 9.1 C 37 %
3632 29-02-2020 05:18:17 9 C 37 %
3633 29-02-2020 05:28:17 9.2 C 36 %
3634 29-02-2020 05:38:17 8.6 C 37 %
3635 29-02-2020 05:48:18 8.8 C 37 %
3636 29-02-2020 05:58:18 9.1 C 36 %
3637 29-02-2020 06:08:17 8.8 C 37 %
3638 29-02-2020 06:18:17 8.4 C 37 %
3639 29-02-2020 06:28:17 8.6 C 37 %
3640 29-02-2020 06:38:17 8.7 C 37 %
3641 29-02-2020 06:48:17 8.6 C 37 %
3642 29-02-2020 06:58:17 8.4 C 37 %
3643 29-02-2020 07:08:17 8.1 C 37 %
3644 29-02-2020 07:18:17 8 C 37 %
3645 29-02-2020 07:28:17 8.3 C 37 %
3646 29-02-2020 07:38:17 7.8 C 38 %
3647 29-02-2020 07:48:17 7.6 C 38 %
3648 29-02-2020 07:58:17 7.3 C 39 %
3649 29-02-2020 08:08:17 7.6 C 38 %
3650 29-02-2020 08:18:17 7.4 C 39 %
Sensor: Nr:Datum:Temp:Feuchte:
Aussen-T/F 3651 29-02-2020 08:28:17 7.5 C 39 %
3652 29-02-2020 08:38:17 7.4 C 39 %
3653 29-02-2020 08:48:17 7.6 C 39 %
3654 29-02-2020 08:58:17 8 C 38 %
3655 29-02-2020 09:08:17 8.3 C 37 %
3656 29-02-2020 09:18:17 8.9 C 36 %
3657 29-02-2020 09:28:17 9.2 C 36 %
3658 29-02-2020 09:38:17 9.6 C 35 %
3659 29-02-2020 09:48:17 10 C 33 %
3660 29-02-2020 09:58:17 10 C 32 %
3661 29-02-2020 10:08:17 10 C 32 %
3662 29-02-2020 10:18:17 9.9 C 33 %
3663 29-02-2020 10:28:17 10.1 C 31 %
3664 29-02-2020 10:38:18 10.4 C 31 %
3665 29-02-2020 10:48:17 10.7 C 31 %
3666 29-02-2020 10:58:17 10.7 C 31 %
3667 29-02-2020 11:08:18 11.1 C 30 %
3668 29-02-2020 11:18:17 12.1 C 30 %
3669 29-02-2020 11:28:17 13.9 C 25 %
3670 29-02-2020 11:38:17 13.7 C 23 %
3671 29-02-2020 11:48:17 13.4 C 24 %
3672 29-02-2020 11:58:17 14.3 C 23 %
3673 29-02-2020 12:08:17 15.5 C 20 %
3674 29-02-2020 12:18:18 15.4 C 20 %
3675 29-02-2020 12:28:18 15.1 C 20 %
Sensor: Nr:Datum:Temp:Feuchte:
Aussen-T/F 3676 29-02-2020 12:38:17 16.2 C 20 %
3677 29-02-2020 12:48:17 15.1 C 20 %
3678 29-02-2020 12:58:17 15.4 C 20 %
3679 29-02-2020 13:08:17 15.5 C 20 %
3680 29-02-2020 13:18:17 15 C 20 %
3681 29-02-2020 13:28:17 14.8 C 20 %
3682 29-02-2020 13:38:18 15.4 C 20 %
3683 29-02-2020 13:48:18 15.6 C 20 %
3684 29-02-2020 13:58:18 16.4 C 20 %
3685 29-02-2020 14:08:18 15.1 C 20 %
3686 29-02-2020 14:18:17 15.1 C 20 %
3687 29-02-2020 14:28:17 14.8 C 21 %
3688 29-02-2020 14:38:17 13.1 C 26 %
3689 29-02-2020 14:48:17 12 C 32 %
3690 29-02-2020 14:58:17 10.5 C 38 %
3691 29-02-2020 15:08:17 10.4 C 39 %
3692 29-02-2020 15:18:17 10.8 C 39 %
3693 29-02-2020 15:28:17 10.6 C 40 %
3694 29-02-2020 15:38:18 10.4 C 39 %
3695 29-02-2020 15:48:17 10.7 C 37 %
3696 29-02-2020 15:58:17 11.3 C 35 %
3697 29-02-2020 16:08:18 12.6 C 32 %
3698 29-02-2020 16:18:17 12 C 32 %
3699 29-02-2020 16:28:18 10.7 C 35 %
3700 29-02-2020 16:38:18 10.1 C 37 %
Sensor: Nr:Datum:Temp:Feuchte:
Aussen-T/F 3701 29-02-2020 16:48:17 9.9 C 37 %
3702 29-02-2020 16:58:17 9.5 C 36 %
3703 29-02-2020 17:08:18 9 C 35 %
3704 29-02-2020 17:18:17 8.9 C 35 %
3705 29-02-2020 17:28:18 8.8 C 34 %
3706 29-02-2020 17:38:18 8.6 C 34 %
3707 29-02-2020 17:48:18 8.6 C 35 %
3708 29-02-2020 17:58:18 8.7 C 34 %
3709 29-02-2020 18:08:18 8.6 C 35 %
3710 29-02-2020 18:18:18 8.2 C 35 %
3711 29-02-2020 18:28:18 8.1 C 35 %
3712 29-02-2020 18:38:18 8 C 35 %
3713 29-02-2020 18:48:17 6.7 C 36 %
3714 29-02-2020 18:58:17 5.9 C 36 %
3715 29-02-2020 19:08:17 5.9 C 37 %
3716 29-02-2020 19:18:18 6 C 36 %
3717 29-02-2020 19:28:18 6.3 C 35 %
3718 29-02-2020 19:38:18 6.7 C 34 %
3719 29-02-2020 19:48:18 6.6 C 34 %
3720 29-02-2020 19:58:18 6.7 C 34 %
3721 29-02-2020 20:08:18 6.6 C 34 %
3722 29-02-2020 20:18:18 6.3 C 34 %
3723 29-02-2020 20:28:18 6.3 C 34 %
3724 29-02-2020 20:38:18 5.9 C 35 %
3725 29-02-2020 20:48:18 5.7 C 35 %
Sensor: Nr:Datum:Temp:Feuchte:
Aussen-T/F 3726 29-02-2020 20:58:18 5.3 C 35 %
3727 29-02-2020 21:08:18 5.2 C 35 %
3728 29-02-2020 21:18:17 5.7 C 34 %
3729 29-02-2020 21:28:17 5 C 35 %
3730 29-02-2020 21:38:17 5 C 35 %
3731 29-02-2020 21:48:17 4.3 C 36 %
3732 29-02-2020 21:58:17 3.9 C 38 %
3733 29-02-2020 22:08:17 3.7 C 38 %
3734 29-02-2020 22:18:18 3.4 C 39 %
3735 29-02-2020 22:28:18 3.3 C 40 %
3736 29-02-2020 22:38:18 3.3 C 41 %
3737 29-02-2020 22:48:17 3.7 C 40 %
3738 29-02-2020 22:58:18 4 C 39 %
3739 29-02-2020 23:08:18 4.2 C 38 %
3740 29-02-2020 23:18:18 4.4 C 38 %
3741 29-02-2020 23:28:18 4.5 C 38 %
3742 29-02-2020 23:38:18 4.7 C 38 %
3743 29-02-2020 23:48:18 5.4 C 36 %
3744 29-02-2020 23:58:18 6.3 C 35 %
3745 01-03-2020 00:08:18 6.6 C 35 %
3746 01-03-2020 00:18:18 6.6 C 35 %
3747 01-03-2020 00:28:18 6.3 C 35 %
3748 01-03-2020 00:38:18 6.2 C 35 %
3749 01-03-2020 00:48:17 6.2 C 35 %
3750 01-03-2020 00:58:18 6.2 C 35 %
Sensor: Nr:Datum:Temp:Feuchte:
Aussen-T/F 3751 01-03-2020 01:08:17 6.1 C 35 %
3752 01-03-2020 01:18:18 6 C 35 %
3753 01-03-2020 01:28:18 5.7 C 35 %
3754 01-03-2020 01:38:18 5.5 C 36 %
3755 01-03-2020 01:48:17 5.8 C 36 %
3756 01-03-2020 01:58:17 5.8 C 35 %
3757 01-03-2020 02:08:17 5.3 C 36 %
3758 01-03-2020 02:18:17 5.8 C 36 %
3759 01-03-2020 02:28:17 5.7 C 36 %
3760 01-03-2020 02:38:17 5.8 C 36 %
3761 01-03-2020 02:48:17 6.2 C 35 %
3762 01-03-2020 02:58:17 6.5 C 35 %
3763 01-03-2020 03:08:18 6.5 C 35 %
3764 01-03-2020 03:18:17 6.6 C 35 %
3765 01-03-2020 03:28:17 6.7 C 35 %
3766 01-03-2020 03:38:18 6.5 C 35 %
3767 01-03-2020 03:48:17 6.4 C 35 %
3768 01-03-2020 03:58:17 6.8 C 35 %
3769 01-03-2020 04:08:17 6.6 C 35 %
3770 01-03-2020 04:18:17 6.9 C 34 %
3771 01-03-2020 04:28:17 7 C 33 %
3772 01-03-2020 04:38:18 6.9 C 34 %
3773 01-03-2020 04:48:17 7.1 C 33 %
3774 01-03-2020 04:58:17 7 C 33 %
3775 01-03-2020 05:08:17 7.1 C 33 %
Sensor: Nr:Datum:Temp:Feuchte:
Aussen-T/F 3776 01-03-2020 05:18:18 6.8 C 34 %
3777 01-03-2020 05:28:18 7.2 C 32 %
3778 01-03-2020 05:38:18 6.8 C 34 %
3779 01-03-2020 05:48:17 6.9 C 34 %
3780 01-03-2020 05:58:18 6.6 C 34 %
3781 01-03-2020 06:08:18 6.7 C 34 %
3782 01-03-2020 06:18:17 6.8 C 34 %
3783 01-03-2020 06:28:17 7 C 33 %
3784 01-03-2020 06:38:17 7.1 C 33 %
3785 01-03-2020 06:48:17 6.4 C 35 %
3786 01-03-2020 06:58:17 5.9 C 36 %
3787 01-03-2020 07:08:17 5.4 C 38 %
3788 01-03-2020 07:18:17 5.4 C 39 %
3789 01-03-2020 07:28:18 5.2 C 39 %
3790 01-03-2020 07:38:18 5.1 C 41 %
3791 01-03-2020 07:48:18 5.2 C 41 %
3792 01-03-2020 07:58:18 5.2 C 42 %
3793 01-03-2020 08:08:18 5.2 C 42 %
3794 01-03-2020 08:18:17 5.3 C 42 %
3795 01-03-2020 08:28:17 5 C 40 %
3796 01-03-2020 08:38:17 4.7 C 41 %
3797 01-03-2020 08:48:17 4 C 41 %
3798 01-03-2020 08:58:17 4 C 42 %
3799 01-03-2020 09:08:17 4.1 C 42 %
3800 01-03-2020 09:18:17 4.3 C 41 %
Sensor: Nr:Datum:Temp:Feuchte:
Aussen-T/F 3801 01-03-2020 09:28:17 4.8 C 40 %
3802 01-03-2020 09:38:17 4.8 C 41 %
3803 01-03-2020 09:48:18 4.7 C 41 %
3804 01-03-2020 09:58:18 4.8 C 41 %
3805 01-03-2020 10:08:17 5.3 C 40 %
3806 01-03-2020 10:18:17 5.7 C 39 %
3807 01-03-2020 10:28:17 7.1 C 36 %
3808 01-03-2020 10:38:17 7.6 C 36 %
3809 01-03-2020 10:48:17 7.8 C 35 %
3810 01-03-2020 10:58:17 8 C 34 %
3811 01-03-2020 11:08:17 8.1 C 33 %
3812 01-03-2020 11:18:17 8.6 C 33 %
3813 01-03-2020 11:28:18 10 C 30 %
3814 01-03-2020 11:38:18 10.2 C 28 %
3815 01-03-2020 11:48:17 8.8 C 29 %
3816 01-03-2020 11:58:17 10.2 C 27 %
3817 01-03-2020 12:08:17 8.9 C 30 %
3818 01-03-2020 12:18:17 9.3 C 28 %
3819 01-03-2020 12:28:17 9.7 C 27 %
3820 01-03-2020 12:38:18 9.2 C 28 %
3821 01-03-2020 12:48:18 11.4 C 26 %
3822 01-03-2020 12:58:18 12.3 C 21 %
3823 01-03-2020 13:08:18 11.4 C 24 %
3824 01-03-2020 13:18:17 10.4 C 25 %
3825 01-03-2020 13:28:17 10.4 C 25 %
Sensor: Nr:Datum:Temp:Feuchte:
Aussen-T/F 3826 01-03-2020 13:38:17 10.6 C 22 %
3827 01-03-2020 13:48:17 10.2 C 22 %
3828 01-03-2020 13:58:17 10.8 C 22 %
3829 01-03-2020 14:08:18 10.1 C 23 %
3830 01-03-2020 14:18:18 9.9 C 25 %
3831 01-03-2020 14:28:18 10.9 C 25 %
3832 01-03-2020 14:38:18 10.5 C 23 %
3833 01-03-2020 14:48:17 10.9 C 25 %
3834 01-03-2020 14:58:18 10.1 C 25 %
3835 01-03-2020 15:08:18 10.1 C 25 %
3836 01-03-2020 15:18:17 12.6 C 20 %
3837 01-03-2020 15:28:17 11.9 C 22 %
3838 01-03-2020 15:38:18 12 C 20 %
3839 01-03-2020 15:48:18 12.8 C 20 %
3840 01-03-2020 15:58:18 11.7 C 21 %
3841 01-03-2020 16:08:18 10.8 C 25 %
3842 01-03-2020 16:18:18 10.5 C 25 %
3843 01-03-2020 16:28:18 10.7 C 25 %
3844 01-03-2020 16:38:18 10.3 C 30 %
3845 01-03-2020 16:48:18 10.2 C 29 %
3846 01-03-2020 16:58:18 9.7 C 31 %
3847 01-03-2020 17:08:18 8.4 C 35 %
3848 01-03-2020 17:18:17 7.8 C 39 %
3849 01-03-2020 17:28:17 7.6 C 42 %
3850 01-03-2020 17:38:17 7.3 C 43 %
Sensor: Nr:Datum:Temp:Feuchte:
Aussen-T/F 3851 01-03-2020 17:48:17 7 C 44 %
3852 01-03-2020 17:58:17 6.9 C 45 %
3853 01-03-2020 18:08:18 6.8 C 45 %
3854 01-03-2020 18:18:18 6.7 C 45 %
3855 01-03-2020 18:28:18 6.7 C 45 %
3856 01-03-2020 18:38:18 6.7 C 45 %
3857 01-03-2020 18:48:18 6.6 C 45 %
3858 01-03-2020 18:58:18 6.5 C 45 %
3859 01-03-2020 19:08:18 6.5 C 45 %
3860 01-03-2020 19:18:17 6.5 C 45 %
3861 01-03-2020 19:28:17 6.4 C 45 %
3862 01-03-2020 19:38:17 6.3 C 45 %
3863 01-03-2020 19:48:17 6.3 C 45 %
3864 01-03-2020 19:58:17 6.2 C 45 %
3865 01-03-2020 20:08:17 6.3 C 45 %
3866 01-03-2020 20:18:17 6.2 C 45 %
3867 01-03-2020 20:28:17 6 C 45 %
3868 01-03-2020 20:38:17 5.8 C 45 %
3869 01-03-2020 20:48:17 5.7 C 45 %
3870 01-03-2020 20:58:17 5.6 C 45 %
3871 01-03-2020 21:08:17 5.6 C 45 %
3872 01-03-2020 21:18:17 5.5 C 45 %
3873 01-03-2020 21:28:17 5.4 C 45 %
3874 01-03-2020 21:38:17 5.7 C 45 %
3875 01-03-2020 21:48:17 5.8 C 45 %
Sensor: Nr:Datum:Temp:Feuchte:
Aussen-T/F 3876 01-03-2020 21:58:17 5.9 C 45 %
3877 01-03-2020 22:08:17 6 C 45 %
3878 01-03-2020 22:18:17 6 C 45 %
3879 01-03-2020 22:28:17 6.1 C 45 %
3880 01-03-2020 22:38:18 6.2 C 45 %
3881 01-03-2020 22:48:17 6.2 C 45 %
3882 01-03-2020 22:58:17 6.3 C 45 %
3883 01-03-2020 23:08:18 6.4 C 45 %
3884 01-03-2020 23:18:18 5.8 C 45 %
3885 01-03-2020 23:28:18 4.3 C 40 %
3886 01-03-2020 23:38:18 3.1 C 41 %
3887 01-03-2020 23:48:18 2.9 C 44 %
3888 01-03-2020 23:58:18 3.1 C 44 %
3889 02-03-2020 00:08:18 3.3 C 44 %
3890 02-03-2020 00:18:17 3.3 C 43 %
3891 02-03-2020 00:28:17 3.5 C 43 %
3892 02-03-2020 00:38:17 3.5 C 43 %
3893 02-03-2020 00:48:17 3.7 C 42 %
3894 02-03-2020 00:58:18 3.6 C 42 %
3895 02-03-2020 01:08:18 3.7 C 42 %
3896 02-03-2020 01:18:17 3.9 C 41 %
3897 02-03-2020 01:28:17 3.8 C 42 %
3898 02-03-2020 01:38:17 3.8 C 41 %
3899 02-03-2020 01:48:18 4 C 40 %
3900 02-03-2020 01:58:18 3.5 C 42 %
Sensor: Nr:Datum:Temp:Feuchte:
Aussen-T/F 3901 02-03-2020 02:08:18 3.7 C 42 %
3902 02-03-2020 02:18:17 3.6 C 42 %
3903 02-03-2020 02:28:17 3.5 C 42 %
3904 02-03-2020 02:38:17 4 C 40 %
3905 02-03-2020 02:48:17 3.8 C 41 %
3906 02-03-2020 02:58:18 3.5 C 42 %
3907 02-03-2020 03:08:18 3.3 C 43 %
3908 02-03-2020 03:18:18 3.4 C 42 %
3909 02-03-2020 03:28:18 2.9 C 44 %
3910 02-03-2020 03:38:18 2.4 C 45 %
3911 02-03-2020 03:48:18 2.9 C 45 %
3912 02-03-2020 03:58:18 2.6 C 45 %
3913 02-03-2020 04:08:18 2.3 C 45 %
3914 02-03-2020 04:18:17 2 C 46 %
3915 02-03-2020 04:28:17 2.2 C 46 %
3916 02-03-2020 04:38:18 2.3 C 47 %
3917 02-03-2020 04:48:18 2.2 C 46 %
3918 02-03-2020 04:58:18 1.9 C 48 %
3919 02-03-2020 05:08:18 1.7 C 48 %
3920 02-03-2020 05:18:17 1.5 C 48 %
3921 02-03-2020 05:28:17 1.3 C 48 %
3922 02-03-2020 05:38:18 1.4 C 48 %
3923 02-03-2020 05:48:18 1.4 C 48 %
3924 02-03-2020 05:58:18 1.3 C 48 %
3925 02-03-2020 06:08:18 1.1 C 48 %
Sensor: Nr:Datum:Temp:Feuchte:
Aussen-T/F 3926 02-03-2020 06:18:18 1.3 C 48 %
3927 02-03-2020 06:28:18 1.3 C 48 %
3928 02-03-2020 06:38:18 1.4 C 48 %
3929 02-03-2020 06:48:17 1.4 C 48 %
3930 02-03-2020 06:58:17 1.5 C 48 %
3931 02-03-2020 07:08:18 1.5 C 48 %
3932 02-03-2020 07:18:18 1.7 C 48 %
3933 02-03-2020 07:28:18 1.8 C 48 %
3934 02-03-2020 07:38:18 2.1 C 47 %
3935 02-03-2020 07:48:18 2.3 C 47 %
3936 02-03-2020 07:58:18 2.5 C 47 %
3937 02-03-2020 08:08:18 2.5 C 47 %
3938 02-03-2020 08:18:17 2.7 C 47 %
3939 02-03-2020 08:28:17 3 C 46 %
3940 02-03-2020 08:38:18 3.2 C 46 %
3941 02-03-2020 08:48:18 3.5 C 46 %
3942 02-03-2020 08:58:18 3.8 C 45 %
3943 02-03-2020 09:08:17 4.1 C 43 %
3944 02-03-2020 09:18:17 4.5 C 42 %
3945 02-03-2020 09:28:17 4.9 C 40 %
3946 02-03-2020 09:38:17 5.4 C 39 %
3947 02-03-2020 09:48:17 5.7 C 39 %
3948 02-03-2020 09:58:17 6.1 C 38 %
3949 02-03-2020 10:08:17 6.6 C 37 %
3950 02-03-2020 10:18:17 6.9 C 36 %
Sensor: Nr:Datum:Temp:Feuchte:
Aussen-T/F 3951 02-03-2020 10:28:17 7.4 C 35 %
3952 02-03-2020 10:38:18 8.2 C 34 %
3953 02-03-2020 10:48:17 8.9 C 34 %
3954 02-03-2020 10:58:17 9 C 33 %
3955 02-03-2020 11:08:17 9 C 33 %
3956 02-03-2020 11:18:17 11.5 C 30 %
3957 02-03-2020 11:28:17 13 C 26 %
3958 02-03-2020 11:38:17 13.9 C 25 %
3959 02-03-2020 11:48:17 11.8 C 27 %
3960 02-03-2020 11:58:17 13.6 C 24 %
3961 02-03-2020 12:08:17 13.3 C 21 %
3962 02-03-2020 12:18:17 13.2 C 21 %
3963 02-03-2020 12:28:17 12.3 C 23 %
3964 02-03-2020 12:38:18 13 C 23 %
3965 02-03-2020 12:48:18 11.8 C 24 %
3966 02-03-2020 12:58:18 11.7 C 25 %
3967 02-03-2020 13:08:18 12.4 C 23 %
3968 02-03-2020 13:18:18 14.7 C 20 %
3969 02-03-2020 13:28:18 14.2 C 20 %
3970 02-03-2020 13:38:17 15.6 C 20 %
3971 02-03-2020 13:48:17 14.1 C 20 %
3972 02-03-2020 13:58:17 12.3 C 21 %
3973 02-03-2020 14:08:17 11.8 C 23 %
3974 02-03-2020 14:18:17 12.1 C 23 %
3975 02-03-2020 14:28:17 11.7 C 25 %
Sensor: Nr:Datum:Temp:Feuchte:
Aussen-T/F 3976 02-03-2020 14:38:17 11.2 C 25 %
3977 02-03-2020 14:48:17 10.9 C 25 %
3978 02-03-2020 14:58:17 10.8 C 26 %
3979 02-03-2020 15:08:18 10.9 C 26 %
3980 02-03-2020 15:18:18 10.9 C 26 %
3981 02-03-2020 15:28:18 10.2 C 26 %
3982 02-03-2020 15:38:18 9.2 C 30 %
3983 02-03-2020 15:48:17 8.7 C 33 %
3984 02-03-2020 15:58:18 8.4 C 36 %
3985 02-03-2020 16:08:18 8 C 40 %
3986 02-03-2020 16:18:18 7.6 C 41 %
3987 02-03-2020 16:28:18 7.3 C 42 %
3988 02-03-2020 16:38:18 7.2 C 43 %
3989 02-03-2020 16:48:17 7.1 C 43 %
3990 02-03-2020 16:58:17 7 C 44 %
3991 02-03-2020 17:08:17 6.9 C 45 %
3992 02-03-2020 17:18:17 6.6 C 45 %
3993 02-03-2020 17:28:17 6.6 C 45 %
3994 02-03-2020 17:38:18 6.4 C 45 %
3995 02-03-2020 17:48:17 6.3 C 45 %
3996 02-03-2020 17:58:18 6.3 C 45 %
3997 02-03-2020 18:08:18 6.2 C 45 %
3998 02-03-2020 18:18:18 6.1 C 45 %
3999 02-03-2020 18:28:18 6 C 45 %
4000 02-03-2020 18:38:18 5.9 C 46 %
Sensor: Nr:Datum:Temp:Feuchte:
Aussen-T/F 4001 02-03-2020 18:48:17 5.9 C 46 %
4002 02-03-2020 18:58:18 5.8 C 46 %
4003 02-03-2020 19:08:18 5.7 C 46 %
4004 02-03-2020 19:18:18 5.7 C 46 %
4005 02-03-2020 19:28:18 5.7 C 46 %
4006 02-03-2020 19:38:18 5.7 C 46 %
4007 02-03-2020 19:48:17 5.7 C 45 %
4008 02-03-2020 19:58:18 5.7 C 45 %
4009 02-03-2020 20:08:18 5.7 C 45 %
4010 02-03-2020 20:18:17 5.7 C 45 %
4011 02-03-2020 20:28:18 5.6 C 45 %
4012 02-03-2020 20:38:18 5.6 C 45 %
4013 02-03-2020 20:48:17 5.6 C 45 %
4014 02-03-2020 20:58:17 5.5 C 45 %
4015 02-03-2020 21:08:18 5.4 C 45 %
4016 02-03-2020 21:18:18 5.4 C 45 %
4017 02-03-2020 21:28:18 5.4 C 45 %
4018 02-03-2020 21:38:18 5.4 C 45 %
4019 02-03-2020 21:48:18 5.4 C 45 %
4020 02-03-2020 21:58:18 5.4 C 45 %
4021 02-03-2020 22:08:18 5.4 C 45 %
4022 02-03-2020 22:18:17 5.4 C 45 %
4023 02-03-2020 22:28:17 5.5 C 45 %
4024 02-03-2020 22:38:17 5.4 C 45 %
4025 02-03-2020 22:48:17 5.5 C 45 %
Sensor: Nr:Datum:Temp:Feuchte:
Aussen-T/F 4026 02-03-2020 22:58:17 5.5 C 45 %
4027 02-03-2020 23:08:17 5.5 C 45 %
4028 02-03-2020 23:18:17 5.2 C 45 %
4029 02-03-2020 23:28:17 5.2 C 45 %
4030 02-03-2020 23:38:17 5.2 C 45 %
4031 02-03-2020 23:48:17 5.3 C 45 %
4032 02-03-2020 23:58:17 5.3 C 45 %
4033 03-03-2020 00:08:18 5.2 C 45 %
4034 03-03-2020 00:18:18 5.1 C 44 %
4035 03-03-2020 00:28:18 5 C 44 %
4036 03-03-2020 00:38:18 5 C 44 %
4037 03-03-2020 00:48:17 4.9 C 45 %
4038 03-03-2020 00:58:17 4.9 C 45 %
4039 03-03-2020 01:08:17 5.1 C 44 %
4040 03-03-2020 01:18:17 5 C 43 %
4041 03-03-2020 01:28:17 5 C 43 %
4042 03-03-2020 01:38:18 4.6 C 41 %
4043 03-03-2020 01:48:17 4.5 C 42 %
4044 03-03-2020 01:58:17 4.4 C 43 %
4045 03-03-2020 02:08:17 4.4 C 43 %
4046 03-03-2020 02:18:17 4.2 C 42 %
4047 03-03-2020 02:28:17 4.1 C 41 %
4048 03-03-2020 02:38:18 4.1 C 41 %
4049 03-03-2020 02:48:18 4.1 C 41 %
4050 03-03-2020 02:58:18 3.9 C 42 %
Sensor: Nr:Datum:Temp:Feuchte:
Aussen-T/F 4051 03-03-2020 03:08:17 3.8 C 41 %
4052 03-03-2020 03:18:17 3.7 C 40 %
4053 03-03-2020 03:28:17 3.4 C 41 %
4054 03-03-2020 03:38:18 3.5 C 41 %
4055 03-03-2020 03:48:18 3 C 42 %
4056 03-03-2020 03:58:18 3.1 C 42 %
4057 03-03-2020 04:08:17 2.8 C 43 %
4058 03-03-2020 04:18:17 3.2 C 41 %
4059 03-03-2020 04:28:17 3.2 C 41 %
4060 03-03-2020 04:38:18 2.9 C 42 %
4061 03-03-2020 04:48:17 2.9 C 43 %
4062 03-03-2020 04:58:18 3.2 C 41 %
4063 03-03-2020 05:08:18 3.1 C 41 %
4064 03-03-2020 05:18:18 2.7 C 43 %
4065 03-03-2020 05:28:18 2.3 C 44 %
4066 03-03-2020 05:38:17 2.6 C 43 %
4067 03-03-2020 05:48:18 2.7 C 42 %
4068 03-03-2020 05:58:18 2.4 C 44 %
4069 03-03-2020 06:08:17 3 C 42 %
4070 03-03-2020 06:18:18 3.1 C 41 %
4071 03-03-2020 06:28:18 2.8 C 42 %
4072 03-03-2020 06:38:17 2.6 C 43 %
4073 03-03-2020 06:48:18 2.7 C 42 %
4074 03-03-2020 06:58:18 2.8 C 42 %
4075 03-03-2020 07:08:18 2.8 C 42 %
Sensor: Nr:Datum:Temp:Feuchte:
Aussen-T/F 4076 03-03-2020 07:18:18 2.6 C 43 %
4077 03-03-2020 07:28:18 2.7 C 43 %
4078 03-03-2020 07:38:18 2.6 C 43 %
4079 03-03-2020 07:48:17 2.5 C 43 %
4080 03-03-2020 07:58:17 2.5 C 43 %
4081 03-03-2020 08:08:18 2.7 C 43 %
4082 03-03-2020 08:18:18 3.3 C 41 %
4083 03-03-2020 08:28:18 3.2 C 41 %
4084 03-03-2020 08:38:17 3.5 C 40 %
4085 03-03-2020 08:48:17 3.6 C 40 %
4086 03-03-2020 08:58:18 3.4 C 40 %
4087 03-03-2020 09:08:18 3.5 C 40 %
4088 03-03-2020 09:18:17 3.2 C 40 %
4089 03-03-2020 09:28:17 3.5 C 40 %
4090 03-03-2020 09:38:17 3.6 C 40 %
4091 03-03-2020 09:48:18 4.1 C 39 %
4092 03-03-2020 09:58:18 4.6 C 38 %
4093 03-03-2020 10:08:18 5.3 C 36 %
4094 03-03-2020 10:18:18 5.1 C 36 %
4095 03-03-2020 10:28:18 5.2 C 35 %
4096 03-03-2020 10:38:18 5.4 C 35 %
4097 03-03-2020 10:48:17 4.9 C 35 %
4098 03-03-2020 10:58:18 5 C 35 %
4099 03-03-2020 11:08:17 5.2 C 35 %
4100 03-03-2020 11:18:17 5.2 C 35 %
Sensor: Nr:Datum:Temp:Feuchte:
Aussen-T/F 4101 03-03-2020 11:28:17 5.3 C 35 %
4102 03-03-2020 11:38:17 5.1 C 35 %
4103 03-03-2020 11:48:17 5.8 C 35 %
4104 03-03-2020 11:58:17 5.7 C 35 %
4105 03-03-2020 12:08:17 6.1 C 35 %
4106 03-03-2020 12:18:17 6.4 C 34 %
4107 03-03-2020 12:28:17 6.6 C 34 %
4108 03-03-2020 12:38:17 6.5 C 33 %
4109 03-03-2020 12:48:17 7.1 C 33 %
4110 03-03-2020 12:58:17 6.6 C 33 %
4111 03-03-2020 13:08:17 6.6 C 33 %
4112 03-03-2020 13:18:17 9.6 C 28 %
4113 03-03-2020 13:28:18 9.8 C 27 %
4114 03-03-2020 13:38:18 8.9 C 27 %
4115 03-03-2020 13:48:17 9.7 C 25 %
4116 03-03-2020 13:58:17 6.2 C 31 %
4117 03-03-2020 14:08:18 5.8 C 35 %
4118 03-03-2020 14:18:18 5.4 C 39 %
4119 03-03-2020 14:28:18 5.7 C 38 %
4120 03-03-2020 14:38:18 5 C 37 %
4121 03-03-2020 14:48:18 4.7 C 39 %
4122 03-03-2020 14:58:18 4.7 C 40 %
4123 03-03-2020 15:08:18 4.7 C 39 %
4124 03-03-2020 15:18:18 6.8 C 36 %
4125 03-03-2020 15:28:18 6.9 C 35 %
Sensor: Nr:Datum:Temp:Feuchte:
Aussen-T/F 4126 03-03-2020 15:38:18 8.9 C 32 %
4127 03-03-2020 15:48:17 8.9 C 30 %
4128 03-03-2020 15:58:17 7.4 C 32 %
4129 03-03-2020 16:08:18 11.8 C 23 %
4130 03-03-2020 16:18:18 9.3 C 25 %
4131 03-03-2020 16:28:18 7.4 C 30 %
4132 03-03-2020 16:38:18 7.2 C 30 %
4133 03-03-2020 16:48:17 7.3 C 31 %
4134 03-03-2020 16:58:17 7.6 C 30 %
4135 03-03-2020 17:08:17 6.7 C 32 %
4136 03-03-2020 17:18:17 6.7 C 33 %
4137 03-03-2020 17:28:18 6.5 C 34 %
4138 03-03-2020 17:38:18 6.4 C 34 %
4139 03-03-2020 17:48:17 6 C 35 %
4140 03-03-2020 17:58:18 5.4 C 36 %
4141 03-03-2020 18:08:18 4.3 C 38 %
4142 03-03-2020 18:18:18 4.4 C 39 %
4143 03-03-2020 18:28:18 4 C 39 %
4144 03-03-2020 18:38:18 3.7 C 41 %
4145 03-03-2020 18:48:17 3.5 C 41 %
4146 03-03-2020 18:58:17 3.6 C 41 %
4147 03-03-2020 19:08:17 3.6 C 40 %
4148 03-03-2020 19:18:17 3.8 C 40 %
4149 03-03-2020 19:28:17 3.1 C 41 %
4150 03-03-2020 19:38:17 3.2 C 41 %
Sensor: Nr:Datum:Temp:Feuchte:
Aussen-T/F 4151 03-03-2020 19:48:17 2.7 C 42 %
4152 03-03-2020 19:58:17 2.3 C 42 %
4153 03-03-2020 20:08:17 1.7 C 45 %
4154 03-03-2020 20:18:17 1.8 C 47 %
4155 03-03-2020 20:28:17 1.7 C 47 %
4156 03-03-2020 20:38:17 1.3 C 46 %
4157 03-03-2020 20:48:17 1.4 C 47 %
4158 03-03-2020 20:58:17 1.3 C 47 %
4159 03-03-2020 21:08:17 1.2 C 47 %
4160 03-03-2020 21:18:17 1.6 C 48 %
4161 03-03-2020 21:28:17 2 C 47 %
4162 03-03-2020 21:38:17 2.1 C 45 %
4163 03-03-2020 21:48:17 2 C 45 %
4164 03-03-2020 21:58:17 2.2 C 45 %
4165 03-03-2020 22:08:17 1.9 C 46 %
4166 03-03-2020 22:18:17 1.5 C 46 %
4167 03-03-2020 22:28:17 1.4 C 47 %
4168 03-03-2020 22:38:17 1.2 C 47 %
4169 03-03-2020 22:48:17 1 C 47 %
4170 03-03-2020 22:58:17 1.2 C 48 %
4171 03-03-2020 23:08:17 1.7 C 48 %
4172 03-03-2020 23:18:18 2.3 C 46 %
4173 03-03-2020 23:28:18 2.4 C 44 %
4174 03-03-2020 23:38:17 2.6 C 44 %
4175 03-03-2020 23:48:17 2.7 C 43 %
Sensor: Nr:Datum:Temp:Feuchte:
Aussen-T/F 4176 03-03-2020 23:58:17 2.8 C 43 %
Sensor: Nr:Datum:Temp:Feuchte:
G-T/H 1 04-02-2020 00:06:17 11.5 C 75 %
2 04-02-2020 00:16:18 11.5 C 75 %
3 04-02-2020 00:26:18 11.5 C 75 %
4 04-02-2020 00:36:18 11.5 C 75 %
5 04-02-2020 00:46:18 11.5 C 75 %
6 04-02-2020 00:56:18 11.5 C 75 %
7 04-02-2020 01:06:17 11.5 C 75 %
8 04-02-2020 01:16:17 11.5 C 75 %
9 04-02-2020 01:26:17 11.5 C 75 %
10 04-02-2020 01:36:17 11.5 C 75 %
11 04-02-2020 01:46:17 11.4 C 74 %
12 04-02-2020 01:56:17 11.4 C 74 %
13 04-02-2020 02:06:18 11.4 C 74 %
14 04-02-2020 02:16:17 11.4 C 74 %
15 04-02-2020 02:26:17 11.4 C 74 %
16 04-02-2020 02:36:17 11.4 C 74 %
17 04-02-2020 02:46:17 11.4 C 74 %
18 04-02-2020 02:56:17 11.4 C 74 %
19 04-02-2020 03:06:18 11.4 C 74 %
20 04-02-2020 03:16:17 11.4 C 74 %
21 04-02-2020 03:26:17 11.3 C 74 %
22 04-02-2020 03:36:17 11.3 C 73 %
23 04-02-2020 03:46:17 11.3 C 73 %
24 04-02-2020 03:56:17 11.3 C 73 %
25 04-02-2020 04:06:17 11.3 C 73 %
Sensor: Nr:Datum:Temp:Feuchte:
G-T/H 26 04-02-2020 04:16:17 11.2 C 73 %
27 04-02-2020 04:26:17 11.2 C 73 %
28 04-02-2020 04:36:18 11.2 C 73 %
29 04-02-2020 04:46:18 11.1 C 72 %
30 04-02-2020 04:56:18 11.1 C 72 %
31 04-02-2020 05:06:17 11.1 C 72 %
32 04-02-2020 05:16:18 11.1 C 72 %
33 04-02-2020 05:26:18 11.1 C 71 %
34 04-02-2020 05:36:18 11 C 71 %
35 04-02-2020 05:46:17 11 C 71 %
36 04-02-2020 05:56:17 11 C 71 %
37 04-02-2020 06:06:17 11 C 71 %
38 04-02-2020 06:16:17 10.9 C 71 %
39 04-02-2020 06:26:17 10.9 C 71 %
40 04-02-2020 06:36:17 10.9 C 71 %
41 04-02-2020 06:46:17 10.9 C 71 %
42 04-02-2020 06:56:17 10.9 C 71 %
43 04-02-2020 07:06:18 10.8 C 71 %
44 04-02-2020 07:16:17 10.8 C 70 %
45 04-02-2020 07:26:17 10.8 C 70 %
46 04-02-2020 07:36:17 10.8 C 70 %
47 04-02-2020 07:46:17 10.7 C 70 %
48 04-02-2020 07:56:17 10.7 C 70 %
49 04-02-2020 08:06:17 10.7 C 69 %
50 04-02-2020 08:16:17 10.6 C 69 %
Sensor: Nr:Datum:Temp:Feuchte:
G-T/H 51 04-02-2020 08:26:17 10.6 C 69 %
52 04-02-2020 08:36:18 10.5 C 69 %
53 04-02-2020 08:46:18 10.5 C 69 %
54 04-02-2020 08:56:18 10.5 C 69 %
55 04-02-2020 09:06:18 10.5 C 68 %
56 04-02-2020 09:16:17 10.5 C 68 %
57 04-02-2020 09:26:17 10.5 C 68 %
58 04-02-2020 09:36:17 10.4 C 68 %
59 04-02-2020 09:46:17 10.4 C 68 %
60 04-02-2020 09:56:17 10.5 C 69 %
61 04-02-2020 10:06:18 10.5 C 69 %
62 04-02-2020 10:16:17 10.5 C 69 %
63 04-02-2020 10:26:17 10.5 C 69 %
64 04-02-2020 10:36:17 10.4 C 69 %
65 04-02-2020 10:46:17 10.4 C 70 %
66 04-02-2020 10:56:17 10.4 C 70 %
67 04-02-2020 11:06:17 10.4 C 70 %
68 04-02-2020 11:16:18 10.4 C 70 %
69 04-02-2020 11:26:18 10.5 C 70 %
70 04-02-2020 11:36:18 10.5 C 71 %
71 04-02-2020 11:46:18 10.4 C 71 %
72 04-02-2020 11:56:18 10.5 C 71 %
73 04-02-2020 12:06:17 10.4 C 71 %
74 04-02-2020 12:16:17 10.4 C 71 %
75 04-02-2020 12:26:17 10.4 C 71 %
Sensor: Nr:Datum:Temp:Feuchte:
G-T/H 76 04-02-2020 12:36:18 10.4 C 71 %
77 04-02-2020 12:46:17 10.4 C 71 %
78 04-02-2020 12:56:18 10.3 C 71 %
79 04-02-2020 13:06:18 10.3 C 71 %
80 04-02-2020 13:16:17 10.3 C 71 %
81 04-02-2020 13:26:17 10.3 C 71 %
82 04-02-2020 13:36:17 10.3 C 71 %
83 04-02-2020 13:46:17 10.3 C 71 %
84 04-02-2020 13:56:17 10.2 C 70 %
85 04-02-2020 14:06:18 10.2 C 70 %
86 04-02-2020 14:16:17 10.2 C 70 %
87 04-02-2020 14:26:17 10.2 C 70 %
88 04-02-2020 14:36:17 10.2 C 70 %
89 04-02-2020 14:46:18 10.2 C 69 %
90 04-02-2020 14:56:18 10.1 C 69 %
91 04-02-2020 15:06:17 10.1 C 69 %
92 04-02-2020 15:16:17 10.1 C 69 %
93 04-02-2020 15:26:17 10.2 C 69 %
94 04-02-2020 15:36:18 10.2 C 69 %
95 04-02-2020 15:46:18 10.2 C 70 %
96 04-02-2020 15:56:18 10.2 C 70 %
97 04-02-2020 16:06:17 10.2 C 70 %
98 04-02-2020 16:16:17 10.2 C 70 %
99 04-02-2020 16:26:17 10.2 C 70 %
100 04-02-2020 16:36:17 10.2 C 70 %
Sensor: Nr:Datum:Temp:Feuchte:
G-T/H 101 04-02-2020 16:46:17 10.2 C 70 %
102 04-02-2020 16:56:18 10.2 C 71 %
103 04-02-2020 17:06:17 10.2 C 71 %
104 04-02-2020 17:16:17 10.1 C 71 %
105 04-02-2020 17:26:17 10.2 C 71 %
106 04-02-2020 17:36:17 10.2 C 71 %
107 04-02-2020 17:46:17 10.1 C 71 %
108 04-02-2020 17:56:17 10.1 C 71 %
109 04-02-2020 18:06:18 10.1 C 71 %
110 04-02-2020 18:16:17 10.1 C 71 %
111 04-02-2020 18:26:17 10.1 C 71 %
112 04-02-2020 18:36:17 10.1 C 71 %
113 04-02-2020 18:46:17 10.1 C 71 %
114 04-02-2020 18:56:17 10.1 C 71 %
115 04-02-2020 19:06:18 10.1 C 71 %
116 04-02-2020 19:16:18 10.1 C 71 %
117 04-02-2020 19:26:18 10.1 C 71 %
118 04-02-2020 19:36:17 10.1 C 71 %
119 04-02-2020 19:46:18 10.1 C 71 %
120 04-02-2020 19:56:18 10.1 C 71 %
121 04-02-2020 20:06:17 10.1 C 71 %
122 04-02-2020 20:16:17 10.1 C 71 %
123 04-02-2020 20:26:17 10.1 C 71 %
124 04-02-2020 20:36:17 10 C 71 %
125 04-02-2020 20:46:17 10 C 71 %
Sensor: Nr:Datum:Temp:Feuchte:
G-T/H 126 04-02-2020 20:56:17 10 C 72 %
127 04-02-2020 21:06:18 10 C 72 %
128 04-02-2020 21:16:18 10 C 72 %
129 04-02-2020 21:26:18 10 C 72 %
130 04-02-2020 21:36:17 10 C 72 %
131 04-02-2020 21:46:17 10 C 72 %
132 04-02-2020 21:56:17 10 C 72 %
133 04-02-2020 22:06:17 10 C 72 %
134 04-02-2020 22:16:17 10 C 72 %
135 04-02-2020 22:26:17 10 C 72 %
136 04-02-2020 22:36:18 10 C 72 %
137 04-02-2020 22:46:18 10 C 72 %
138 04-02-2020 22:56:18 10 C 72 %
139 04-02-2020 23:06:17 10 C 72 %
140 04-02-2020 23:16:17 10 C 72 %
141 04-02-2020 23:26:17 10 C 72 %
142 04-02-2020 23:36:18 10 C 72 %
143 04-02-2020 23:46:17 9.9 C 73 %
144 04-02-2020 23:56:17 9.9 C 73 %
145 05-02-2020 00:06:17 9.9 C 73 %
146 05-02-2020 00:16:17 9.9 C 73 %
147 05-02-2020 00:26:17 9.9 C 73 %
148 05-02-2020 00:36:18 9.9 C 73 %
149 05-02-2020 00:46:17 9.9 C 73 %
150 05-02-2020 00:56:18 9.9 C 73 %
Sensor: Nr:Datum:Temp:Feuchte:
G-T/H 151 05-02-2020 01:06:18 9.9 C 73 %
152 05-02-2020 01:16:18 9.9 C 73 %
153 05-02-2020 01:26:18 9.9 C 73 %
154 05-02-2020 01:36:17 9.9 C 73 %
155 05-02-2020 01:46:18 9.8 C 73 %
156 05-02-2020 01:56:18 9.8 C 73 %
157 05-02-2020 02:06:17 9.8 C 73 %
158 05-02-2020 02:16:17 9.8 C 73 %
159 05-02-2020 02:26:17 9.8 C 73 %
160 05-02-2020 02:36:17 9.8 C 73 %
161 05-02-2020 02:46:17 9.8 C 73 %
162 05-02-2020 02:56:17 9.8 C 73 %
163 05-02-2020 03:06:18 9.8 C 73 %
164 05-02-2020 03:16:17 9.8 C 73 %
165 05-02-2020 03:26:17 9.8 C 73 %
166 05-02-2020 03:36:18 9.8 C 73 %
167 05-02-2020 03:46:17 9.8 C 73 %
168 05-02-2020 03:56:18 9.8 C 73 %
169 05-02-2020 04:06:18 9.8 C 73 %
170 05-02-2020 04:16:18 9.8 C 73 %
171 05-02-2020 04:26:18 9.8 C 73 %
172 05-02-2020 04:36:17 9.8 C 73 %
173 05-02-2020 04:46:17 9.7 C 73 %
174 05-02-2020 04:56:17 9.7 C 73 %
175 05-02-2020 05:06:18 9.7 C 73 %
Sensor: Nr:Datum:Temp:Feuchte:
G-T/H 176 05-02-2020 05:16:18 9.7 C 73 %
177 05-02-2020 05:26:18 9.7 C 73 %
178 05-02-2020 05:36:18 9.7 C 73 %
179 05-02-2020 05:46:18 9.7 C 73 %
180 05-02-2020 05:56:18 9.7 C 73 %
181 05-02-2020 06:06:17 9.7 C 73 %
182 05-02-2020 06:16:17 9.7 C 73 %
183 05-02-2020 06:26:17 9.7 C 73 %
184 05-02-2020 06:36:18 9.7 C 73 %
185 05-02-2020 06:46:17 9.7 C 73 %
186 05-02-2020 06:56:18 9.6 C 73 %
187 05-02-2020 07:06:18 9.6 C 73 %
188 05-02-2020 07:16:17 9.6 C 73 %
189 05-02-2020 07:26:17 9.6 C 73 %
190 05-02-2020 07:36:17 9.6 C 72 %
191 05-02-2020 07:46:17 9.6 C 72 %
192 05-02-2020 07:56:17 9.6 C 72 %
193 05-02-2020 08:06:18 9.6 C 72 %
194 05-02-2020 08:16:17 9.6 C 72 %
195 05-02-2020 08:26:17 9.6 C 72 %
196 05-02-2020 08:36:17 9.5 C 72 %
197 05-02-2020 08:46:17 9.5 C 72 %
198 05-02-2020 08:56:17 9.5 C 72 %
199 05-02-2020 09:06:17 9.5 C 72 %
200 05-02-2020 09:16:17 9.5 C 72 %
Sensor: Nr:Datum:Temp:Feuchte:
G-T/H 201 05-02-2020 09:26:17 9.5 C 72 %
202 05-02-2020 09:36:18 9.5 C 72 %
203 05-02-2020 09:46:18 9.5 C 72 %
204 05-02-2020 09:56:18 9.5 C 72 %
205 05-02-2020 10:06:17 9.5 C 72 %
206 05-02-2020 10:16:17 9.5 C 72 %
207 05-02-2020 10:26:17 9.5 C 72 %
208 05-02-2020 10:36:17 9.5 C 72 %
209 05-02-2020 10:46:17 9.5 C 72 %
210 05-02-2020 10:56:17 9.5 C 72 %
211 05-02-2020 11:06:17 9.5 C 72 %
212 05-02-2020 11:16:17 9.4 C 72 %
213 05-02-2020 11:26:17 9.4 C 72 %
214 05-02-2020 11:36:17 9.4 C 72 %
215 05-02-2020 11:46:17 9.4 C 72 %
216 05-02-2020 11:56:17 9.4 C 72 %
217 05-02-2020 12:06:17 9.4 C 72 %
218 05-02-2020 12:16:17 9.4 C 72 %
219 05-02-2020 12:26:17 9.4 C 72 %
220 05-02-2020 12:36:18 9.4 C 72 %
221 05-02-2020 12:46:17 9.4 C 72 %
222 05-02-2020 12:56:17 9.4 C 72 %
223 05-02-2020 13:06:17 9.4 C 72 %
224 05-02-2020 13:16:17 9.3 C 72 %
225 05-02-2020 13:26:17 9.4 C 72 %
Sensor: Nr:Datum:Temp:Feuchte:
G-T/H 226 05-02-2020 13:36:18 9.4 C 72 %
227 05-02-2020 13:46:18 9.3 C 72 %
228 05-02-2020 13:56:18 9.3 C 72 %
229 05-02-2020 14:06:17 9.3 C 72 %
230 05-02-2020 14:16:18 9.3 C 72 %
231 05-02-2020 14:26:18 9.3 C 72 %
232 05-02-2020 14:36:17 9.3 C 72 %
233 05-02-2020 14:46:17 9.3 C 72 %
234 05-02-2020 14:56:17 9.3 C 72 %
235 05-02-2020 15:06:17 9.3 C 72 %
236 05-02-2020 15:16:17 9.3 C 72 %
237 05-02-2020 15:26:17 9.3 C 72 %
238 05-02-2020 15:36:17 9.3 C 73 %
239 05-02-2020 15:46:17 9.3 C 73 %
240 05-02-2020 15:56:17 9.3 C 73 %
241 05-02-2020 16:06:17 9.4 C 73 %
242 05-02-2020 16:16:17 9.3 C 73 %
243 05-02-2020 16:26:17 9.3 C 73 %
244 05-02-2020 16:36:18 9.3 C 73 %
245 05-02-2020 16:46:18 9.3 C 73 %
246 05-02-2020 16:56:18 9.3 C 72 %
247 05-02-2020 17:06:17 9.3 C 72 %
248 05-02-2020 17:16:17 9.3 C 72 %
249 05-02-2020 17:26:17 9.3 C 72 %
250 05-02-2020 17:36:18 9.3 C 72 %
Sensor: Nr:Datum:Temp:Feuchte:
G-T/H 251 05-02-2020 17:46:18 9.3 C 72 %
252 05-02-2020 17:56:18 9.3 C 72 %
253 05-02-2020 18:06:17 9.3 C 72 %
254 05-02-2020 18:16:17 9.2 C 72 %
255 05-02-2020 18:26:17 9.2 C 72 %
256 05-02-2020 18:36:17 9.2 C 72 %
257 05-02-2020 18:46:17 9 C 70 %
258 05-02-2020 18:56:17 9.1 C 70 %
259 05-02-2020 19:06:18 9.2 C 70 %
260 05-02-2020 19:16:18 9.2 C 70 %
261 05-02-2020 19:26:18 9.2 C 70 %
262 05-02-2020 19:36:18 9.3 C 70 %
263 05-02-2020 19:46:17 9.3 C 70 %
264 05-02-2020 19:56:18 9.3 C 70 %
265 05-02-2020 20:06:18 9.3 C 70 %
266 05-02-2020 20:16:17 9.3 C 70 %
267 05-02-2020 20:26:17 9.3 C 70 %
268 05-02-2020 20:36:17 9.3 C 70 %
269 05-02-2020 20:46:17 9.3 C 70 %
270 05-02-2020 20:56:17 9.3 C 70 %
271 05-02-2020 21:06:17 9.3 C 70 %
272 05-02-2020 21:16:17 9.3 C 70 %
273 05-02-2020 21:26:17 9.3 C 70 %
274 05-02-2020 21:36:18 9.3 C 70 %
275 05-02-2020 21:46:18 9.2 C 70 %
Sensor: Nr:Datum:Temp:Feuchte:
G-T/H 276 05-02-2020 21:56:18 9.3 C 70 %
277 05-02-2020 22:06:18 9.2 C 70 %
278 05-02-2020 22:16:17 9.2 C 70 %
279 05-02-2020 22:26:17 9.2 C 70 %
280 05-02-2020 22:36:17 9.2 C 70 %
281 05-02-2020 22:46:17 9.2 C 70 %
282 05-02-2020 22:56:17 9.1 C 70 %
283 05-02-2020 23:06:17 9.1 C 70 %
284 05-02-2020 23:16:17 9.1 C 70 %
285 05-02-2020 23:26:17 9.1 C 70 %
286 05-02-2020 23:36:17 9.1 C 70 %
287 05-02-2020 23:46:17 9.1 C 70 %
288 05-02-2020 23:56:17 9 C 70 %
289 06-02-2020 00:06:17 9 C 70 %
290 06-02-2020 00:16:17 9 C 70 %
291 06-02-2020 00:26:17 9 C 70 %
292 06-02-2020 00:36:17 9 C 70 %
293 06-02-2020 00:46:17 9 C 70 %
294 06-02-2020 00:56:17 9 C 70 %
295 06-02-2020 01:06:17 9 C 70 %
296 06-02-2020 01:16:17 9 C 70 %
297 06-02-2020 01:26:17 8.9 C 70 %
298 06-02-2020 01:36:18 8.9 C 70 %
299 06-02-2020 01:46:18 8.9 C 70 %
300 06-02-2020 01:56:18 8.9 C 70 %
Sensor: Nr:Datum:Temp:Feuchte:
G-T/H 301 06-02-2020 02:06:18 8.9 C 70 %
302 06-02-2020 02:16:17 8.8 C 70 %
303 06-02-2020 02:26:17 8.8 C 70 %
304 06-02-2020 02:36:17 8.8 C 70 %
305 06-02-2020 02:46:17 8.8 C 70 %
306 06-02-2020 02:56:17 8.7 C 70 %
307 06-02-2020 03:06:17 8.7 C 70 %
308 06-02-2020 03:16:18 8.7 C 70 %
309 06-02-2020 03:26:18 8.7 C 70 %
310 06-02-2020 03:36:17 8.6 C 70 %
311 06-02-2020 03:46:17 8.7 C 70 %
312 06-02-2020 03:56:17 8.6 C 70 %
313 06-02-2020 04:06:17 8.6 C 70 %
314 06-02-2020 04:16:17 8.6 C 70 %
315 06-02-2020 04:26:17 8.6 C 70 %
316 06-02-2020 04:36:18 8.6 C 70 %
317 06-02-2020 04:46:18 8.5 C 70 %
318 06-02-2020 04:56:18 8.5 C 70 %
319 06-02-2020 05:06:17 8.5 C 70 %
320 06-02-2020 05:16:18 8.5 C 70 %
321 06-02-2020 05:26:18 8.5 C 70 %
322 06-02-2020 05:36:18 8.5 C 70 %
323 06-02-2020 05:46:18 8.4 C 70 %
324 06-02-2020 05:56:18 8.4 C 70 %
325 06-02-2020 06:06:18 8.4 C 70 %
Sensor: Nr:Datum:Temp:Feuchte:
G-T/H 326 06-02-2020 06:16:18 8.4 C 70 %
327 06-02-2020 06:26:18 8.3 C 70 %
328 06-02-2020 06:36:17 8.3 C 70 %
329 06-02-2020 06:46:17 8.3 C 70 %
330 06-02-2020 06:56:17 7.9 C 69 %
331 06-02-2020 07:06:17 8 C 68 %
332 06-02-2020 07:16:17 8.1 C 68 %
333 06-02-2020 07:26:17 8.1 C 69 %
334 06-02-2020 07:36:17 8.1 C 69 %
335 06-02-2020 07:46:17 8.1 C 69 %
336 06-02-2020 07:56:17 8.1 C 69 %
337 06-02-2020 08:06:17 8.1 C 69 %
338 06-02-2020 08:16:17 8.1 C 69 %
339 06-02-2020 08:26:17 8.1 C 69 %
340 06-02-2020 08:36:18 8.1 C 69 %
341 06-02-2020 08:46:17 8.1 C 69 %
342 06-02-2020 08:56:18 8.1 C 69 %
343 06-02-2020 09:06:17 8.1 C 69 %
344 06-02-2020 09:16:17 8 C 70 %
345 06-02-2020 09:26:17 8 C 70 %
346 06-02-2020 09:36:17 8 C 70 %
347 06-02-2020 09:46:17 8 C 70 %
348 06-02-2020 09:56:17 8 C 70 %
349 06-02-2020 10:06:17 8 C 70 %
350 06-02-2020 10:16:18 8 C 70 %
Sensor: Nr:Datum:Temp:Feuchte:
G-T/H 351 06-02-2020 10:26:18 8 C 70 %
352 06-02-2020 10:36:18 8 C 70 %
353 06-02-2020 10:46:18 8 C 70 %
354 06-02-2020 10:56:18 8 C 70 %
355 06-02-2020 11:06:17 8 C 70 %
356 06-02-2020 11:16:17 7.9 C 71 %
357 06-02-2020 11:26:17 7.9 C 71 %
358 06-02-2020 11:36:17 8 C 70 %
359 06-02-2020 11:46:17 7.9 C 71 %
360 06-02-2020 11:56:18 8 C 70 %
361 06-02-2020 12:06:18 7.9 C 71 %
362 06-02-2020 12:16:17 7.9 C 71 %
363 06-02-2020 12:26:17 7.9 C 71 %
364 06-02-2020 12:36:17 7.9 C 71 %
365 06-02-2020 12:46:17 7.9 C 71 %
366 06-02-2020 12:56:17 7.9 C 72 %
367 06-02-2020 13:06:17 7.9 C 72 %
368 06-02-2020 13:16:17 7.9 C 72 %
369 06-02-2020 13:26:17 7.9 C 72 %
370 06-02-2020 13:36:17 7.9 C 72 %
371 06-02-2020 13:46:17 7.9 C 72 %
372 06-02-2020 13:56:17 8 C 71 %
373 06-02-2020 14:06:17 7.9 C 72 %
374 06-02-2020 14:16:18 8 C 71 %
375 06-02-2020 14:26:18 8 C 71 %
Sensor: Nr:Datum:Temp:Feuchte:
G-T/H 376 06-02-2020 14:36:17 8 C 71 %
377 06-02-2020 14:46:17 8 C 71 %
378 06-02-2020 14:56:17 8 C 71 %
379 06-02-2020 15:06:17 8 C 71 %
380 06-02-2020 15:16:18 8 C 72 %
381 06-02-2020 15:26:18 8 C 72 %
382 06-02-2020 15:36:17 8 C 72 %
383 06-02-2020 15:46:17 8 C 72 %
384 06-02-2020 15:56:17 8 C 72 %
385 06-02-2020 16:06:17 8 C 72 %
386 06-02-2020 16:16:17 8.1 C 72 %
387 06-02-2020 16:26:17 8 C 72 %
388 06-02-2020 16:36:17 8 C 72 %
389 06-02-2020 16:46:17 8 C 72 %
390 06-02-2020 16:56:17 8 C 72 %
391 06-02-2020 17:06:18 8.1 C 72 %
392 06-02-2020 17:16:18 8.1 C 72 %
393 06-02-2020 17:26:18 8.1 C 72 %
394 06-02-2020 17:36:17 8.1 C 72 %
395 06-02-2020 17:46:17 8.1 C 72 %
396 06-02-2020 17:56:18 8.1 C 72 %
397 06-02-2020 18:06:18 8.1 C 72 %
398 06-02-2020 18:16:17 8.1 C 72 %
399 06-02-2020 18:26:17 8.1 C 72 %
400 06-02-2020 18:36:18 8 C 71 %
Sensor: Nr:Datum:Temp:Feuchte:
G-T/H 401 06-02-2020 18:46:17 8.2 C 71 %
402 06-02-2020 18:56:17 8.3 C 71 %
403 06-02-2020 19:06:17 8.4 C 71 %
404 06-02-2020 19:16:17 8.5 C 71 %
405 06-02-2020 19:26:17 8.6 C 72 %
406 06-02-2020 19:36:17 8.6 C 72 %
407 06-02-2020 19:46:17 8.6 C 72 %
408 06-02-2020 19:56:18 8.7 C 72 %
409 06-02-2020 20:06:18 8.7 C 72 %
410 06-02-2020 20:16:17 8.7 C 72 %
411 06-02-2020 20:26:17 8.7 C 72 %
412 06-02-2020 20:36:18 8.7 C 72 %
413 06-02-2020 20:46:17 8.7 C 72 %
414 06-02-2020 20:56:17 8.8 C 72 %
415 06-02-2020 21:06:17 8.8 C 71 %
416 06-02-2020 21:16:17 8.8 C 71 %
417 06-02-2020 21:26:17 8.8 C 71 %
418 06-02-2020 21:36:17 8.8 C 71 %
419 06-02-2020 21:46:17 8.8 C 70 %
420 06-02-2020 21:56:17 8.8 C 70 %
421 06-02-2020 22:06:17 8.7 C 70 %
422 06-02-2020 22:16:17 8.7 C 70 %
423 06-02-2020 22:26:17 8.7 C 70 %
424 06-02-2020 22:36:18 8.7 C 70 %
425 06-02-2020 22:46:17 8.7 C 70 %
Sensor: Nr:Datum:Temp:Feuchte:
G-T/H 426 06-02-2020 22:56:17 8.6 C 69 %
427 06-02-2020 23:06:17 8.6 C 69 %
428 06-02-2020 23:16:17 8.6 C 69 %
429 06-02-2020 23:26:17 8.6 C 69 %
430 06-02-2020 23:36:17 8.6 C 69 %
431 06-02-2020 23:46:18 8.5 C 69 %
432 06-02-2020 23:56:18 8.5 C 69 %
433 07-02-2020 00:06:18 8.5 C 69 %
434 07-02-2020 00:16:17 8.5 C 69 %
435 07-02-2020 00:26:17 8.4 C 69 %
436 07-02-2020 00:36:17 8.4 C 69 %
437 07-02-2020 00:46:17 8.4 C 69 %
438 07-02-2020 00:56:17 8.4 C 69 %
439 07-02-2020 01:06:17 8.4 C 69 %
440 07-02-2020 01:16:17 8.4 C 69 %
441 07-02-2020 01:26:17 8.4 C 69 %
442 07-02-2020 01:36:18 8.3 C 69 %
443 07-02-2020 01:46:17 8.4 C 69 %
444 07-02-2020 01:56:17 8.3 C 69 %
445 07-02-2020 02:06:18 8.3 C 69 %
446 07-02-2020 02:16:18 8.2 C 69 %
447 07-02-2020 02:26:18 8.2 C 69 %
448 07-02-2020 02:36:18 8.2 C 69 %
449 07-02-2020 02:46:18 8.2 C 69 %
450 07-02-2020 02:56:18 8.2 C 69 %
Sensor: Nr:Datum:Temp:Feuchte:
G-T/H 451 07-02-2020 03:06:17 8.2 C 69 %
452 07-02-2020 03:16:17 8.1 C 69 %
453 07-02-2020 03:26:17 8.1 C 69 %
454 07-02-2020 03:36:17 8.1 C 69 %
455 07-02-2020 03:46:17 8.1 C 69 %
456 07-02-2020 03:56:17 8.1 C 69 %
457 07-02-2020 04:06:17 8 C 69 %
458 07-02-2020 04:16:18 8 C 69 %
459 07-02-2020 04:26:18 8 C 69 %
460 07-02-2020 04:36:18 8 C 69 %
461 07-02-2020 04:46:18 8 C 69 %
462 07-02-2020 04:56:18 7.9 C 70 %
463 07-02-2020 05:06:17 7.9 C 70 %
464 07-02-2020 05:16:17 7.9 C 70 %
465 07-02-2020 05:26:17 7.9 C 70 %
466 07-02-2020 05:36:17 7.9 C 70 %
467 07-02-2020 05:46:18 7.9 C 70 %
468 07-02-2020 05:56:18 7.8 C 70 %
469 07-02-2020 06:06:18 7.9 C 70 %
470 07-02-2020 06:16:17 7.8 C 70 %
471 07-02-2020 06:26:17 7.8 C 70 %
472 07-02-2020 06:36:18 7.8 C 70 %
473 07-02-2020 06:46:17 7.8 C 70 %
474 07-02-2020 06:56:17 7.8 C 70 %
475 07-02-2020 07:06:17 7.7 C 70 %
Sensor: Nr:Datum:Temp:Feuchte:
G-T/H 476 07-02-2020 07:16:17 7.7 C 70 %
477 07-02-2020 07:26:18 7.7 C 70 %
478 07-02-2020 07:36:18 7.4 C 69 %
479 07-02-2020 07:46:17 7.5 C 68 %
480 07-02-2020 07:56:18 7.6 C 69 %
481 07-02-2020 08:06:18 7.6 C 69 %
482 07-02-2020 08:16:18 7.6 C 69 %
483 07-02-2020 08:26:18 7.6 C 69 %
484 07-02-2020 08:36:17 7.6 C 69 %
485 07-02-2020 08:46:17 7.6 C 69 %
486 07-02-2020 08:56:17 7.6 C 69 %
487 07-02-2020 09:06:17 7.6 C 69 %
488 07-02-2020 09:16:17 7.6 C 69 %
489 07-02-2020 09:26:17 7.6 C 69 %
490 07-02-2020 09:36:17 7.6 C 69 %
491 07-02-2020 09:46:17 7.6 C 69 %
492 07-02-2020 09:56:17 7.6 C 69 %
493 07-02-2020 10:06:18 7.6 C 70 %
494 07-02-2020 10:16:17 7.5 C 70 %
495 07-02-2020 10:26:17 7.5 C 70 %
496 07-02-2020 10:36:17 7.5 C 70 %
497 07-02-2020 10:46:17 7.5 C 70 %
498 07-02-2020 10:56:17 7.5 C 70 %
499 07-02-2020 11:06:17 7.5 C 70 %
500 07-02-2020 11:16:18 7.5 C 70 %
Sensor: Nr:Datum:Temp:Feuchte:
G-T/H 501 07-02-2020 11:26:18 7.5 C 70 %
502 07-02-2020 11:36:17 7.5 C 70 %
503 07-02-2020 11:46:17 7.5 C 70 %
504 07-02-2020 11:56:17 7.5 C 70 %
505 07-02-2020 12:06:17 7.5 C 70 %
506 07-02-2020 12:16:18 7.5 C